<?xml version="1.0" encoding="UTF-8" standalone="no" ?>
<gpx xmlns="http://www.topografix.com/GPX/1/1" xmlns:xsi="http://www.w3.org/2001/XMLSchema-instance" xsi:schemaLocation="http://www.topografix.com/GPX/1/1 http://www.topografix.com/GPX/1/1/gpx.xsd" version="1.1" creator="VisuGPX - https://www.visugpx.com">
  <metadata>
    <name>Conde 45</name>
  </metadata>
  <trk>
    <name><![CDATA[Conde 45_1]]></name>
    <trkseg>
      <trkpt lat="48.74925" lon="-0.5719">
        <ele>52.8</ele>
        <time>2014-04-01T10:09:29Z</time>
      </trkpt>
      <trkpt lat="48.74887" lon="-0.57198">
        <ele>52.8</ele>
        <time>2014-04-01T10:09:30Z</time>
      </trkpt>
      <trkpt lat="48.74846" lon="-0.57149">
        <ele>52.6</ele>
        <time>2014-04-01T10:09:59Z</time>
      </trkpt>
      <trkpt lat="48.74799" lon="-0.57204">
        <ele>204</ele>
        <time>2014-04-01T10:21:45Z</time>
      </trkpt>
      <trkpt lat="48.74807" lon="-0.57211">
        <ele>204.2</ele>
        <time>2014-04-01T10:22:15Z</time>
      </trkpt>
      <trkpt lat="48.74718" lon="-0.57381">
        <ele>178.4</ele>
        <time>2014-04-01T10:28:26Z</time>
      </trkpt>
      <trkpt lat="48.74744" lon="-0.57323">
        <ele>178.4</ele>
        <time>2014-04-01T10:28:27Z</time>
      </trkpt>
      <trkpt lat="48.74799" lon="-0.57188">
        <ele>178.6</ele>
        <time>2014-04-01T10:28:56Z</time>
      </trkpt>
      <trkpt lat="48.7479" lon="-0.5712">
        <ele>-102.2</ele>
        <time>2014-04-01T10:38:57Z</time>
      </trkpt>
      <trkpt lat="48.74792" lon="-0.57113">
        <ele>-102.2</ele>
        <time>2014-04-01T10:38:59Z</time>
      </trkpt>
      <trkpt lat="48.74801" lon="-0.57175">
        <ele>-101.8</ele>
        <time>2014-04-01T10:39:28Z</time>
      </trkpt>
      <trkpt lat="48.74829" lon="-0.57318">
        <ele>168.4</ele>
        <time>2014-04-01T10:41:53Z</time>
      </trkpt>
      <trkpt lat="48.7475" lon="-0.57194">
        <ele>167</ele>
        <time>2014-04-01T10:45:01Z</time>
      </trkpt>
      <trkpt lat="48.74757" lon="-0.57196">
        <ele>167</ele>
        <time>2014-04-01T10:45:02Z</time>
      </trkpt>
      <trkpt lat="48.74807" lon="-0.57174">
        <ele>167.4</ele>
        <time>2014-04-01T10:45:31Z</time>
      </trkpt>
      <trkpt lat="48.74811" lon="-0.57206">
        <ele>197.2</ele>
        <time>2014-04-01T10:51:09Z</time>
      </trkpt>
      <trkpt lat="48.74811" lon="-0.57212">
        <ele>197.2</ele>
        <time>2014-04-01T10:51:10Z</time>
      </trkpt>
      <trkpt lat="48.74796" lon="-0.57199">
        <ele>197.4</ele>
        <time>2014-04-01T10:51:40Z</time>
      </trkpt>
      <trkpt lat="48.74779" lon="-0.57199">
        <ele>195.6</ele>
        <time>2014-04-01T11:45:08Z</time>
      </trkpt>
      <trkpt lat="48.7478" lon="-0.572">
        <ele>195.6</ele>
        <time>2014-04-01T11:45:09Z</time>
      </trkpt>
      <trkpt lat="48.74792" lon="-0.57207">
        <ele>195.8</ele>
        <time>2014-04-01T11:45:35Z</time>
      </trkpt>
      <trkpt lat="48.74792" lon="-0.57207">
        <ele>195.8</ele>
        <time>2014-04-01T11:45:38Z</time>
      </trkpt>
      <trkpt lat="48.74785" lon="-0.57221">
        <ele>195.4</ele>
        <time>2014-04-01T11:46:10Z</time>
      </trkpt>
      <trkpt lat="48.74783" lon="-0.57224">
        <ele>195.6</ele>
        <time>2014-04-01T11:46:11Z</time>
      </trkpt>
      <trkpt lat="48.74781" lon="-0.57227">
        <ele>195.6</ele>
        <time>2014-04-01T11:46:12Z</time>
      </trkpt>
      <trkpt lat="48.7478" lon="-0.5723">
        <ele>195.6</ele>
        <time>2014-04-01T11:46:13Z</time>
      </trkpt>
      <trkpt lat="48.74779" lon="-0.57233">
        <ele>195.6</ele>
        <time>2014-04-01T11:46:14Z</time>
      </trkpt>
      <trkpt lat="48.74778" lon="-0.57236">
        <ele>195.6</ele>
        <time>2014-04-01T11:46:15Z</time>
      </trkpt>
      <trkpt lat="48.74777" lon="-0.57238">
        <ele>195.6</ele>
        <time>2014-04-01T11:46:16Z</time>
      </trkpt>
      <trkpt lat="48.74777" lon="-0.57241">
        <ele>195.8</ele>
        <time>2014-04-01T11:46:18Z</time>
      </trkpt>
      <trkpt lat="48.74778" lon="-0.57242">
        <ele>195.8</ele>
        <time>2014-04-01T11:46:19Z</time>
      </trkpt>
      <trkpt lat="48.74779" lon="-0.57243">
        <ele>195.8</ele>
        <time>2014-04-01T11:46:20Z</time>
      </trkpt>
      <trkpt lat="48.74806" lon="-0.57268">
        <ele>195.4</ele>
        <time>2014-04-01T11:46:38Z</time>
      </trkpt>
      <trkpt lat="48.7484" lon="-0.57298">
        <ele>195.2</ele>
        <time>2014-04-01T11:46:52Z</time>
      </trkpt>
      <trkpt lat="48.74886" lon="-0.57338">
        <ele>194.4</ele>
        <time>2014-04-01T11:47:07Z</time>
      </trkpt>
      <trkpt lat="48.74927" lon="-0.57376">
        <ele>194</ele>
        <time>2014-04-01T11:47:21Z</time>
      </trkpt>
      <trkpt lat="48.7495" lon="-0.57398">
        <ele>194</ele>
        <time>2014-04-01T11:47:30Z</time>
      </trkpt>
      <trkpt lat="48.74952" lon="-0.57397">
        <ele>194</ele>
        <time>2014-04-01T11:47:31Z</time>
      </trkpt>
      <trkpt lat="48.74955" lon="-0.57393">
        <ele>194</ele>
        <time>2014-04-01T11:47:32Z</time>
      </trkpt>
      <trkpt lat="48.74956" lon="-0.57389">
        <ele>193.8</ele>
        <time>2014-04-01T11:47:33Z</time>
      </trkpt>
      <trkpt lat="48.74958" lon="-0.57385">
        <ele>193.8</ele>
        <time>2014-04-01T11:47:34Z</time>
      </trkpt>
      <trkpt lat="48.74959" lon="-0.57381">
        <ele>193.8</ele>
        <time>2014-04-01T11:47:35Z</time>
      </trkpt>
      <trkpt lat="48.74983" lon="-0.57311">
        <ele>194</ele>
        <time>2014-04-01T11:47:50Z</time>
      </trkpt>
      <trkpt lat="48.74991" lon="-0.57278">
        <ele>195</ele>
        <time>2014-04-01T11:48:03Z</time>
      </trkpt>
      <trkpt lat="48.74997" lon="-0.57278">
        <ele>195.2</ele>
        <time>2014-04-01T11:48:07Z</time>
      </trkpt>
      <trkpt lat="48.75" lon="-0.57279">
        <ele>195.2</ele>
        <time>2014-04-01T11:48:08Z</time>
      </trkpt>
      <trkpt lat="48.75003" lon="-0.57282">
        <ele>195.2</ele>
        <time>2014-04-01T11:48:09Z</time>
      </trkpt>
      <trkpt lat="48.75046" lon="-0.57318">
        <ele>194.8</ele>
        <time>2014-04-01T11:48:24Z</time>
      </trkpt>
      <trkpt lat="48.75088" lon="-0.57359">
        <ele>194.4</ele>
        <time>2014-04-01T11:48:38Z</time>
      </trkpt>
      <trkpt lat="48.75141" lon="-0.57404">
        <ele>193.8</ele>
        <time>2014-04-01T11:48:52Z</time>
      </trkpt>
      <trkpt lat="48.75191" lon="-0.57445">
        <ele>193.8</ele>
        <time>2014-04-01T11:49:05Z</time>
      </trkpt>
      <trkpt lat="48.75232" lon="-0.57494">
        <ele>193.4</ele>
        <time>2014-04-01T11:49:18Z</time>
      </trkpt>
      <trkpt lat="48.75231" lon="-0.575">
        <ele>193.2</ele>
        <time>2014-04-01T11:49:19Z</time>
      </trkpt>
      <trkpt lat="48.75229" lon="-0.57512">
        <ele>193</ele>
        <time>2014-04-01T11:49:21Z</time>
      </trkpt>
      <trkpt lat="48.75212" lon="-0.57654">
        <ele>191.8</ele>
        <time>2014-04-01T11:49:40Z</time>
      </trkpt>
      <trkpt lat="48.75206" lon="-0.57696">
        <ele>191.8</ele>
        <time>2014-04-01T11:49:46Z</time>
      </trkpt>
      <trkpt lat="48.75205" lon="-0.57702">
        <ele>191.8</ele>
        <time>2014-04-01T11:49:47Z</time>
      </trkpt>
      <trkpt lat="48.75192" lon="-0.57806">
        <ele>191.6</ele>
        <time>2014-04-01T11:50:03Z</time>
      </trkpt>
      <trkpt lat="48.7519" lon="-0.57825">
        <ele>191.8</ele>
        <time>2014-04-01T11:50:06Z</time>
      </trkpt>
      <trkpt lat="48.75185" lon="-0.57884">
        <ele>192.8</ele>
        <time>2014-04-01T11:50:16Z</time>
      </trkpt>
      <trkpt lat="48.75187" lon="-0.57888">
        <ele>192.8</ele>
        <time>2014-04-01T11:50:17Z</time>
      </trkpt>
      <trkpt lat="48.75226" lon="-0.57947">
        <ele>195</ele>
        <time>2014-04-01T11:50:33Z</time>
      </trkpt>
      <trkpt lat="48.75267" lon="-0.58009">
        <ele>197.4</ele>
        <time>2014-04-01T11:50:51Z</time>
      </trkpt>
      <trkpt lat="48.75296" lon="-0.58054">
        <ele>198.8</ele>
        <time>2014-04-01T11:51:04Z</time>
      </trkpt>
      <trkpt lat="48.75333" lon="-0.58116">
        <ele>200.2</ele>
        <time>2014-04-01T11:51:20Z</time>
      </trkpt>
      <trkpt lat="48.75345" lon="-0.58133">
        <ele>200.6</ele>
        <time>2014-04-01T11:51:25Z</time>
      </trkpt>
      <trkpt lat="48.75376" lon="-0.58185">
        <ele>201.8</ele>
        <time>2014-04-01T11:51:39Z</time>
      </trkpt>
      <trkpt lat="48.75404" lon="-0.58239">
        <ele>202.8</ele>
        <time>2014-04-01T11:51:54Z</time>
      </trkpt>
      <trkpt lat="48.75437" lon="-0.58301">
        <ele>203.4</ele>
        <time>2014-04-01T11:52:10Z</time>
      </trkpt>
      <trkpt lat="48.75479" lon="-0.58373">
        <ele>203.2</ele>
        <time>2014-04-01T11:52:28Z</time>
      </trkpt>
      <trkpt lat="48.75538" lon="-0.58453">
        <ele>201.2</ele>
        <time>2014-04-01T11:52:46Z</time>
      </trkpt>
      <trkpt lat="48.75557" lon="-0.58474">
        <ele>200</ele>
        <time>2014-04-01T11:52:51Z</time>
      </trkpt>
      <trkpt lat="48.75595" lon="-0.58497">
        <ele>197.8</ele>
        <time>2014-04-01T11:53:02Z</time>
      </trkpt>
      <trkpt lat="48.75642" lon="-0.58511">
        <ele>195.4</ele>
        <time>2014-04-01T11:53:14Z</time>
      </trkpt>
      <trkpt lat="48.75666" lon="-0.58516">
        <ele>193.6</ele>
        <time>2014-04-01T11:53:22Z</time>
      </trkpt>
      <trkpt lat="48.75667" lon="-0.58518">
        <ele>193.6</ele>
        <time>2014-04-01T11:53:23Z</time>
      </trkpt>
      <trkpt lat="48.75668" lon="-0.5852">
        <ele>193.6</ele>
        <time>2014-04-01T11:53:24Z</time>
      </trkpt>
      <trkpt lat="48.7567" lon="-0.58521">
        <ele>193.6</ele>
        <time>2014-04-01T11:53:25Z</time>
      </trkpt>
      <trkpt lat="48.75672" lon="-0.58522">
        <ele>193.6</ele>
        <time>2014-04-01T11:53:26Z</time>
      </trkpt>
      <trkpt lat="48.75674" lon="-0.58524">
        <ele>193.6</ele>
        <time>2014-04-01T11:53:27Z</time>
      </trkpt>
      <trkpt lat="48.75704" lon="-0.58545">
        <ele>194.4</ele>
        <time>2014-04-01T11:53:40Z</time>
      </trkpt>
      <trkpt lat="48.7574" lon="-0.58555">
        <ele>197.4</ele>
        <time>2014-04-01T11:53:52Z</time>
      </trkpt>
      <trkpt lat="48.75804" lon="-0.58576">
        <ele>198.6</ele>
        <time>2014-04-01T11:54:12Z</time>
      </trkpt>
      <trkpt lat="48.75827" lon="-0.58582">
        <ele>198.8</ele>
        <time>2014-04-01T11:54:26Z</time>
      </trkpt>
      <trkpt lat="48.75828" lon="-0.58583">
        <ele>198.8</ele>
        <time>2014-04-01T11:54:27Z</time>
      </trkpt>
      <trkpt lat="48.75878" lon="-0.58599">
        <ele>199.6</ele>
        <time>2014-04-01T11:54:45Z</time>
      </trkpt>
      <trkpt lat="48.75932" lon="-0.58615">
        <ele>200.6</ele>
        <time>2014-04-01T11:55:03Z</time>
      </trkpt>
      <trkpt lat="48.75993" lon="-0.58635">
        <ele>202.6</ele>
        <time>2014-04-01T11:55:24Z</time>
      </trkpt>
      <trkpt lat="48.7605" lon="-0.58649">
        <ele>203.8</ele>
        <time>2014-04-01T11:55:41Z</time>
      </trkpt>
      <trkpt lat="48.76071" lon="-0.58661">
        <ele>204.2</ele>
        <time>2014-04-01T11:55:48Z</time>
      </trkpt>
      <trkpt lat="48.76072" lon="-0.58666">
        <ele>204.2</ele>
        <time>2014-04-01T11:55:49Z</time>
      </trkpt>
      <trkpt lat="48.76072" lon="-0.58671">
        <ele>204.2</ele>
        <time>2014-04-01T11:55:50Z</time>
      </trkpt>
      <trkpt lat="48.76071" lon="-0.58676">
        <ele>204.2</ele>
        <time>2014-04-01T11:55:51Z</time>
      </trkpt>
      <trkpt lat="48.76071" lon="-0.58681">
        <ele>204.4</ele>
        <time>2014-04-01T11:55:52Z</time>
      </trkpt>
      <trkpt lat="48.76053" lon="-0.58757">
        <ele>204.2</ele>
        <time>2014-04-01T11:56:06Z</time>
      </trkpt>
      <trkpt lat="48.7605" lon="-0.58761">
        <ele>204</ele>
        <time>2014-04-01T11:56:07Z</time>
      </trkpt>
      <trkpt lat="48.76043" lon="-0.5877">
        <ele>203.8</ele>
        <time>2014-04-01T11:56:09Z</time>
      </trkpt>
      <trkpt lat="48.75986" lon="-0.58832">
        <ele>204.2</ele>
        <time>2014-04-01T11:56:26Z</time>
      </trkpt>
      <trkpt lat="48.75976" lon="-0.58844">
        <ele>204.2</ele>
        <time>2014-04-01T11:56:29Z</time>
      </trkpt>
      <trkpt lat="48.75973" lon="-0.5885">
        <ele>204.2</ele>
        <time>2014-04-01T11:56:30Z</time>
      </trkpt>
      <trkpt lat="48.75971" lon="-0.58856">
        <ele>204</ele>
        <time>2014-04-01T11:56:31Z</time>
      </trkpt>
      <trkpt lat="48.75971" lon="-0.58863">
        <ele>204</ele>
        <time>2014-04-01T11:56:32Z</time>
      </trkpt>
      <trkpt lat="48.75973" lon="-0.5887">
        <ele>204</ele>
        <time>2014-04-01T11:56:33Z</time>
      </trkpt>
      <trkpt lat="48.75976" lon="-0.58876">
        <ele>204</ele>
        <time>2014-04-01T11:56:34Z</time>
      </trkpt>
      <trkpt lat="48.7598" lon="-0.58882">
        <ele>203.8</ele>
        <time>2014-04-01T11:56:35Z</time>
      </trkpt>
      <trkpt lat="48.75984" lon="-0.58889">
        <ele>203.8</ele>
        <time>2014-04-01T11:56:36Z</time>
      </trkpt>
      <trkpt lat="48.75988" lon="-0.58896">
        <ele>203.8</ele>
        <time>2014-04-01T11:56:37Z</time>
      </trkpt>
      <trkpt lat="48.75992" lon="-0.58904">
        <ele>203.6</ele>
        <time>2014-04-01T11:56:38Z</time>
      </trkpt>
      <trkpt lat="48.75994" lon="-0.58914">
        <ele>203.4</ele>
        <time>2014-04-01T11:56:39Z</time>
      </trkpt>
      <trkpt lat="48.75995" lon="-0.58923">
        <ele>203.2</ele>
        <time>2014-04-01T11:56:40Z</time>
      </trkpt>
      <trkpt lat="48.75994" lon="-0.58933">
        <ele>203</ele>
        <time>2014-04-01T11:56:41Z</time>
      </trkpt>
      <trkpt lat="48.75992" lon="-0.58941">
        <ele>202.6</ele>
        <time>2014-04-01T11:56:42Z</time>
      </trkpt>
      <trkpt lat="48.7599" lon="-0.58949">
        <ele>202.4</ele>
        <time>2014-04-01T11:56:43Z</time>
      </trkpt>
      <trkpt lat="48.75986" lon="-0.58956">
        <ele>202.2</ele>
        <time>2014-04-01T11:56:44Z</time>
      </trkpt>
      <trkpt lat="48.75983" lon="-0.58962">
        <ele>202</ele>
        <time>2014-04-01T11:56:45Z</time>
      </trkpt>
      <trkpt lat="48.7593" lon="-0.59041">
        <ele>203.4</ele>
        <time>2014-04-01T11:57:02Z</time>
      </trkpt>
      <trkpt lat="48.75925" lon="-0.5905">
        <ele>203.8</ele>
        <time>2014-04-01T11:57:05Z</time>
      </trkpt>
      <trkpt lat="48.75926" lon="-0.59054">
        <ele>203.8</ele>
        <time>2014-04-01T11:57:06Z</time>
      </trkpt>
      <trkpt lat="48.75927" lon="-0.59057">
        <ele>204</ele>
        <time>2014-04-01T11:57:07Z</time>
      </trkpt>
      <trkpt lat="48.75929" lon="-0.59061">
        <ele>204</ele>
        <time>2014-04-01T11:57:08Z</time>
      </trkpt>
      <trkpt lat="48.75931" lon="-0.59066">
        <ele>204.2</ele>
        <time>2014-04-01T11:57:09Z</time>
      </trkpt>
      <trkpt lat="48.75984" lon="-0.59153">
        <ele>204.2</ele>
        <time>2014-04-01T11:57:26Z</time>
      </trkpt>
      <trkpt lat="48.76039" lon="-0.59248">
        <ele>205.2</ele>
        <time>2014-04-01T11:57:44Z</time>
      </trkpt>
      <trkpt lat="48.7608" lon="-0.59334">
        <ele>208.2</ele>
        <time>2014-04-01T11:58:01Z</time>
      </trkpt>
      <trkpt lat="48.76092" lon="-0.59362">
        <ele>209</ele>
        <time>2014-04-01T11:58:06Z</time>
      </trkpt>
      <trkpt lat="48.76103" lon="-0.59389">
        <ele>209.2</ele>
        <time>2014-04-01T11:58:11Z</time>
      </trkpt>
      <trkpt lat="48.76105" lon="-0.59394">
        <ele>209.4</ele>
        <time>2014-04-01T11:58:12Z</time>
      </trkpt>
      <trkpt lat="48.76146" lon="-0.59477">
        <ele>209.4</ele>
        <time>2014-04-01T11:58:25Z</time>
      </trkpt>
      <trkpt lat="48.76151" lon="-0.59492">
        <ele>209.2</ele>
        <time>2014-04-01T11:58:27Z</time>
      </trkpt>
      <trkpt lat="48.76188" lon="-0.59615">
        <ele>207.2</ele>
        <time>2014-04-01T11:58:41Z</time>
      </trkpt>
      <trkpt lat="48.76235" lon="-0.59699">
        <ele>207.6</ele>
        <time>2014-04-01T11:58:54Z</time>
      </trkpt>
      <trkpt lat="48.76238" lon="-0.59703">
        <ele>207.8</ele>
        <time>2014-04-01T11:58:55Z</time>
      </trkpt>
      <trkpt lat="48.76255" lon="-0.59742">
        <ele>211</ele>
        <time>2014-04-01T11:59:04Z</time>
      </trkpt>
      <trkpt lat="48.76269" lon="-0.59789">
        <ele>214.4</ele>
        <time>2014-04-01T11:59:14Z</time>
      </trkpt>
      <trkpt lat="48.76284" lon="-0.59842">
        <ele>217.6</ele>
        <time>2014-04-01T11:59:28Z</time>
      </trkpt>
      <trkpt lat="48.76279" lon="-0.59905">
        <ele>218.4</ele>
        <time>2014-04-01T11:59:41Z</time>
      </trkpt>
      <trkpt lat="48.76268" lon="-0.59982">
        <ele>219.4</ele>
        <time>2014-04-01T11:59:54Z</time>
      </trkpt>
      <trkpt lat="48.76255" lon="-0.60091">
        <ele>217.6</ele>
        <time>2014-04-01T12:00:06Z</time>
      </trkpt>
      <trkpt lat="48.76247" lon="-0.6017">
        <ele>214.4</ele>
        <time>2014-04-01T12:00:12Z</time>
      </trkpt>
      <trkpt lat="48.76239" lon="-0.60249">
        <ele>210.6</ele>
        <time>2014-04-01T12:00:17Z</time>
      </trkpt>
      <trkpt lat="48.76238" lon="-0.60282">
        <ele>208.8</ele>
        <time>2014-04-01T12:00:19Z</time>
      </trkpt>
      <trkpt lat="48.76239" lon="-0.60298">
        <ele>207.8</ele>
        <time>2014-04-01T12:00:20Z</time>
      </trkpt>
      <trkpt lat="48.76241" lon="-0.60315">
        <ele>206.8</ele>
        <time>2014-04-01T12:00:21Z</time>
      </trkpt>
      <trkpt lat="48.76245" lon="-0.6033">
        <ele>206</ele>
        <time>2014-04-01T12:00:22Z</time>
      </trkpt>
      <trkpt lat="48.76249" lon="-0.60346">
        <ele>205</ele>
        <time>2014-04-01T12:00:23Z</time>
      </trkpt>
      <trkpt lat="48.76255" lon="-0.60361">
        <ele>204.2</ele>
        <time>2014-04-01T12:00:24Z</time>
      </trkpt>
      <trkpt lat="48.76262" lon="-0.60373">
        <ele>203.2</ele>
        <time>2014-04-01T12:00:25Z</time>
      </trkpt>
      <trkpt lat="48.76271" lon="-0.60384">
        <ele>202.6</ele>
        <time>2014-04-01T12:00:26Z</time>
      </trkpt>
      <trkpt lat="48.76281" lon="-0.60392">
        <ele>202</ele>
        <time>2014-04-01T12:00:27Z</time>
      </trkpt>
      <trkpt lat="48.76291" lon="-0.60398">
        <ele>201.4</ele>
        <time>2014-04-01T12:00:28Z</time>
      </trkpt>
      <trkpt lat="48.76329" lon="-0.60423">
        <ele>198.2</ele>
        <time>2014-04-01T12:00:32Z</time>
      </trkpt>
      <trkpt lat="48.76393" lon="-0.60497">
        <ele>197.2</ele>
        <time>2014-04-01T12:00:42Z</time>
      </trkpt>
      <trkpt lat="48.76434" lon="-0.60524">
        <ele>200.2</ele>
        <time>2014-04-01T12:00:51Z</time>
      </trkpt>
      <trkpt lat="48.76458" lon="-0.60525">
        <ele>202.6</ele>
        <time>2014-04-01T12:00:56Z</time>
      </trkpt>
      <trkpt lat="48.76468" lon="-0.60529">
        <ele>203.2</ele>
        <time>2014-04-01T12:00:58Z</time>
      </trkpt>
      <trkpt lat="48.76474" lon="-0.60532">
        <ele>203.4</ele>
        <time>2014-04-01T12:00:59Z</time>
      </trkpt>
      <trkpt lat="48.76479" lon="-0.60536">
        <ele>203.6</ele>
        <time>2014-04-01T12:01:00Z</time>
      </trkpt>
      <trkpt lat="48.76546" lon="-0.60614">
        <ele>203.8</ele>
        <time>2014-04-01T12:01:14Z</time>
      </trkpt>
      <trkpt lat="48.7663" lon="-0.60651">
        <ele>203.6</ele>
        <time>2014-04-01T12:01:29Z</time>
      </trkpt>
      <trkpt lat="48.76748" lon="-0.60676">
        <ele>206.4</ele>
        <time>2014-04-01T12:01:49Z</time>
      </trkpt>
      <trkpt lat="48.76836" lon="-0.60695">
        <ele>209.4</ele>
        <time>2014-04-01T12:02:06Z</time>
      </trkpt>
      <trkpt lat="48.76866" lon="-0.60704">
        <ele>210.8</ele>
        <time>2014-04-01T12:02:14Z</time>
      </trkpt>
      <trkpt lat="48.76868" lon="-0.60709">
        <ele>211</ele>
        <time>2014-04-01T12:02:15Z</time>
      </trkpt>
      <trkpt lat="48.76869" lon="-0.60714">
        <ele>211.2</ele>
        <time>2014-04-01T12:02:16Z</time>
      </trkpt>
      <trkpt lat="48.76869" lon="-0.6072">
        <ele>211.2</ele>
        <time>2014-04-01T12:02:17Z</time>
      </trkpt>
      <trkpt lat="48.76869" lon="-0.60726">
        <ele>211.4</ele>
        <time>2014-04-01T12:02:18Z</time>
      </trkpt>
      <trkpt lat="48.76868" lon="-0.60732">
        <ele>211.4</ele>
        <time>2014-04-01T12:02:19Z</time>
      </trkpt>
      <trkpt lat="48.76863" lon="-0.60793">
        <ele>212</ele>
        <time>2014-04-01T12:02:28Z</time>
      </trkpt>
      <trkpt lat="48.7686" lon="-0.60845">
        <ele>212.4</ele>
        <time>2014-04-01T12:02:35Z</time>
      </trkpt>
      <trkpt lat="48.76857" lon="-0.60923">
        <ele>213.2</ele>
        <time>2014-04-01T12:02:45Z</time>
      </trkpt>
      <trkpt lat="48.76858" lon="-0.60945">
        <ele>213.6</ele>
        <time>2014-04-01T12:02:48Z</time>
      </trkpt>
      <trkpt lat="48.76858" lon="-0.60952">
        <ele>213.6</ele>
        <time>2014-04-01T12:02:49Z</time>
      </trkpt>
      <trkpt lat="48.76857" lon="-0.61001">
        <ele>215.2</ele>
        <time>2014-04-01T12:02:56Z</time>
      </trkpt>
      <trkpt lat="48.76857" lon="-0.61008">
        <ele>215.4</ele>
        <time>2014-04-01T12:02:57Z</time>
      </trkpt>
      <trkpt lat="48.76847" lon="-0.61098">
        <ele>218.4</ele>
        <time>2014-04-01T12:03:10Z</time>
      </trkpt>
      <trkpt lat="48.76838" lon="-0.61163">
        <ele>221.4</ele>
        <time>2014-04-01T12:03:22Z</time>
      </trkpt>
      <trkpt lat="48.76829" lon="-0.61239">
        <ele>223.6</ele>
        <time>2014-04-01T12:03:35Z</time>
      </trkpt>
      <trkpt lat="48.76819" lon="-0.61281">
        <ele>224.2</ele>
        <time>2014-04-01T12:03:42Z</time>
      </trkpt>
      <trkpt lat="48.76816" lon="-0.61287">
        <ele>224.2</ele>
        <time>2014-04-01T12:03:43Z</time>
      </trkpt>
      <trkpt lat="48.76814" lon="-0.61293">
        <ele>224.2</ele>
        <time>2014-04-01T12:03:44Z</time>
      </trkpt>
      <trkpt lat="48.76792" lon="-0.61371">
        <ele>225.2</ele>
        <time>2014-04-01T12:03:57Z</time>
      </trkpt>
      <trkpt lat="48.76783" lon="-0.61406">
        <ele>225.8</ele>
        <time>2014-04-01T12:04:03Z</time>
      </trkpt>
      <trkpt lat="48.76781" lon="-0.61413">
        <ele>225.8</ele>
        <time>2014-04-01T12:04:04Z</time>
      </trkpt>
      <trkpt lat="48.76773" lon="-0.61444">
        <ele>226</ele>
        <time>2014-04-01T12:04:09Z</time>
      </trkpt>
      <trkpt lat="48.76771" lon="-0.61451">
        <ele>226</ele>
        <time>2014-04-01T12:04:10Z</time>
      </trkpt>
      <trkpt lat="48.76758" lon="-0.6149">
        <ele>226.2</ele>
        <time>2014-04-01T12:04:16Z</time>
      </trkpt>
      <trkpt lat="48.7673" lon="-0.6157">
        <ele>225.4</ele>
        <time>2014-04-01T12:04:29Z</time>
      </trkpt>
      <trkpt lat="48.76728" lon="-0.61576">
        <ele>225.4</ele>
        <time>2014-04-01T12:04:30Z</time>
      </trkpt>
      <trkpt lat="48.76726" lon="-0.61582">
        <ele>225.4</ele>
        <time>2014-04-01T12:04:31Z</time>
      </trkpt>
      <trkpt lat="48.76725" lon="-0.61587">
        <ele>225.2</ele>
        <time>2014-04-01T12:04:32Z</time>
      </trkpt>
      <trkpt lat="48.76723" lon="-0.61593">
        <ele>225.2</ele>
        <time>2014-04-01T12:04:33Z</time>
      </trkpt>
      <trkpt lat="48.76721" lon="-0.616">
        <ele>225</ele>
        <time>2014-04-01T12:04:34Z</time>
      </trkpt>
      <trkpt lat="48.76705" lon="-0.61655">
        <ele>224.2</ele>
        <time>2014-04-01T12:04:42Z</time>
      </trkpt>
      <trkpt lat="48.76703" lon="-0.61661">
        <ele>224.2</ele>
        <time>2014-04-01T12:04:43Z</time>
      </trkpt>
      <trkpt lat="48.76702" lon="-0.61667">
        <ele>224.4</ele>
        <time>2014-04-01T12:04:44Z</time>
      </trkpt>
      <trkpt lat="48.767" lon="-0.61673">
        <ele>224.4</ele>
        <time>2014-04-01T12:04:45Z</time>
      </trkpt>
      <trkpt lat="48.76698" lon="-0.61679">
        <ele>224.4</ele>
        <time>2014-04-01T12:04:46Z</time>
      </trkpt>
      <trkpt lat="48.76689" lon="-0.61704">
        <ele>224.2</ele>
        <time>2014-04-01T12:04:50Z</time>
      </trkpt>
      <trkpt lat="48.76686" lon="-0.6171">
        <ele>224.2</ele>
        <time>2014-04-01T12:04:51Z</time>
      </trkpt>
      <trkpt lat="48.76672" lon="-0.61758">
        <ele>224</ele>
        <time>2014-04-01T12:04:58Z</time>
      </trkpt>
      <trkpt lat="48.7666" lon="-0.61807">
        <ele>223.8</ele>
        <time>2014-04-01T12:05:08Z</time>
      </trkpt>
      <trkpt lat="48.76661" lon="-0.61811">
        <ele>223.8</ele>
        <time>2014-04-01T12:05:09Z</time>
      </trkpt>
      <trkpt lat="48.76667" lon="-0.6182">
        <ele>224</ele>
        <time>2014-04-01T12:05:12Z</time>
      </trkpt>
      <trkpt lat="48.76674" lon="-0.61827">
        <ele>224</ele>
        <time>2014-04-01T12:05:14Z</time>
      </trkpt>
      <trkpt lat="48.76687" lon="-0.61841">
        <ele>224.4</ele>
        <time>2014-04-01T12:05:18Z</time>
      </trkpt>
      <trkpt lat="48.76692" lon="-0.61847">
        <ele>224.8</ele>
        <time>2014-04-01T12:05:20Z</time>
      </trkpt>
      <trkpt lat="48.76704" lon="-0.61849">
        <ele>225.2</ele>
        <time>2014-04-01T12:05:24Z</time>
      </trkpt>
      <trkpt lat="48.76733" lon="-0.61838">
        <ele>225.2</ele>
        <time>2014-04-01T12:05:30Z</time>
      </trkpt>
      <trkpt lat="48.76754" lon="-0.61836">
        <ele>225.2</ele>
        <time>2014-04-01T12:05:34Z</time>
      </trkpt>
      <trkpt lat="48.76775" lon="-0.61836">
        <ele>225.2</ele>
        <time>2014-04-01T12:05:38Z</time>
      </trkpt>
      <trkpt lat="48.76784" lon="-0.61838">
        <ele>225.2</ele>
        <time>2014-04-01T12:05:40Z</time>
      </trkpt>
      <trkpt lat="48.76803" lon="-0.61842">
        <ele>225.2</ele>
        <time>2014-04-01T12:05:44Z</time>
      </trkpt>
      <trkpt lat="48.76846" lon="-0.61852">
        <ele>225</ele>
        <time>2014-04-01T12:05:52Z</time>
      </trkpt>
      <trkpt lat="48.76867" lon="-0.61856">
        <ele>225</ele>
        <time>2014-04-01T12:05:56Z</time>
      </trkpt>
      <trkpt lat="48.76877" lon="-0.61861">
        <ele>224.6</ele>
        <time>2014-04-01T12:05:58Z</time>
      </trkpt>
      <trkpt lat="48.76901" lon="-0.61869">
        <ele>224</ele>
        <time>2014-04-01T12:06:03Z</time>
      </trkpt>
      <trkpt lat="48.76934" lon="-0.61891">
        <ele>222.6</ele>
        <time>2014-04-01T12:06:10Z</time>
      </trkpt>
      <trkpt lat="48.76954" lon="-0.619">
        <ele>221.2</ele>
        <time>2014-04-01T12:06:14Z</time>
      </trkpt>
      <trkpt lat="48.76974" lon="-0.61906">
        <ele>219.6</ele>
        <time>2014-04-01T12:06:18Z</time>
      </trkpt>
      <trkpt lat="48.76993" lon="-0.61909">
        <ele>218.4</ele>
        <time>2014-04-01T12:06:22Z</time>
      </trkpt>
      <trkpt lat="48.77009" lon="-0.6191">
        <ele>217.4</ele>
        <time>2014-04-01T12:06:25Z</time>
      </trkpt>
      <trkpt lat="48.77064" lon="-0.61906">
        <ele>215</ele>
        <time>2014-04-01T12:06:34Z</time>
      </trkpt>
      <trkpt lat="48.77081" lon="-0.61905">
        <ele>214.6</ele>
        <time>2014-04-01T12:06:37Z</time>
      </trkpt>
      <trkpt lat="48.77102" lon="-0.61902">
        <ele>214</ele>
        <time>2014-04-01T12:06:40Z</time>
      </trkpt>
      <trkpt lat="48.77136" lon="-0.619">
        <ele>213.2</ele>
        <time>2014-04-01T12:06:46Z</time>
      </trkpt>
      <trkpt lat="48.7715" lon="-0.61902">
        <ele>212.8</ele>
        <time>2014-04-01T12:06:49Z</time>
      </trkpt>
      <trkpt lat="48.7717" lon="-0.61903">
        <ele>212.2</ele>
        <time>2014-04-01T12:06:53Z</time>
      </trkpt>
      <trkpt lat="48.77181" lon="-0.61905">
        <ele>212</ele>
        <time>2014-04-01T12:06:55Z</time>
      </trkpt>
      <trkpt lat="48.77222" lon="-0.61904">
        <ele>210.8</ele>
        <time>2014-04-01T12:07:02Z</time>
      </trkpt>
      <trkpt lat="48.77233" lon="-0.61901">
        <ele>210.6</ele>
        <time>2014-04-01T12:07:04Z</time>
      </trkpt>
      <trkpt lat="48.77306" lon="-0.61875">
        <ele>208.8</ele>
        <time>2014-04-01T12:07:17Z</time>
      </trkpt>
      <trkpt lat="48.77326" lon="-0.61864">
        <ele>208.2</ele>
        <time>2014-04-01T12:07:21Z</time>
      </trkpt>
      <trkpt lat="48.77364" lon="-0.61848">
        <ele>207.4</ele>
        <time>2014-04-01T12:07:28Z</time>
      </trkpt>
      <trkpt lat="48.77374" lon="-0.61842">
        <ele>207.2</ele>
        <time>2014-04-01T12:07:30Z</time>
      </trkpt>
      <trkpt lat="48.77378" lon="-0.61839">
        <ele>207</ele>
        <time>2014-04-01T12:07:31Z</time>
      </trkpt>
      <trkpt lat="48.77434" lon="-0.61795">
        <ele>205.8</ele>
        <time>2014-04-01T12:07:43Z</time>
      </trkpt>
      <trkpt lat="48.77462" lon="-0.61772">
        <ele>205.2</ele>
        <time>2014-04-01T12:07:50Z</time>
      </trkpt>
      <trkpt lat="48.77491" lon="-0.61744">
        <ele>205.2</ele>
        <time>2014-04-01T12:07:57Z</time>
      </trkpt>
      <trkpt lat="48.77513" lon="-0.61726">
        <ele>204.8</ele>
        <time>2014-04-01T12:08:02Z</time>
      </trkpt>
      <trkpt lat="48.77533" lon="-0.6171">
        <ele>204.4</ele>
        <time>2014-04-01T12:08:06Z</time>
      </trkpt>
      <trkpt lat="48.77545" lon="-0.61697">
        <ele>203.8</ele>
        <time>2014-04-01T12:08:09Z</time>
      </trkpt>
      <trkpt lat="48.77561" lon="-0.61682">
        <ele>203.6</ele>
        <time>2014-04-01T12:08:13Z</time>
      </trkpt>
      <trkpt lat="48.77604" lon="-0.61652">
        <ele>203.2</ele>
        <time>2014-04-01T12:08:26Z</time>
      </trkpt>
      <trkpt lat="48.7763" lon="-0.61645">
        <ele>201.8</ele>
        <time>2014-04-01T12:08:31Z</time>
      </trkpt>
      <trkpt lat="48.77636" lon="-0.61643">
        <ele>201.4</ele>
        <time>2014-04-01T12:08:32Z</time>
      </trkpt>
      <trkpt lat="48.77642" lon="-0.61639">
        <ele>201</ele>
        <time>2014-04-01T12:08:33Z</time>
      </trkpt>
      <trkpt lat="48.77649" lon="-0.61637">
        <ele>200.6</ele>
        <time>2014-04-01T12:08:34Z</time>
      </trkpt>
      <trkpt lat="48.77656" lon="-0.61635">
        <ele>200.2</ele>
        <time>2014-04-01T12:08:35Z</time>
      </trkpt>
      <trkpt lat="48.7771" lon="-0.6162">
        <ele>196.8</ele>
        <time>2014-04-01T12:08:42Z</time>
      </trkpt>
      <trkpt lat="48.77756" lon="-0.61611">
        <ele>193.6</ele>
        <time>2014-04-01T12:08:49Z</time>
      </trkpt>
      <trkpt lat="48.77776" lon="-0.61614">
        <ele>192.4</ele>
        <time>2014-04-01T12:08:55Z</time>
      </trkpt>
      <trkpt lat="48.7778" lon="-0.61618">
        <ele>192.2</ele>
        <time>2014-04-01T12:08:56Z</time>
      </trkpt>
      <trkpt lat="48.77828" lon="-0.61674">
        <ele>189</ele>
        <time>2014-04-01T12:09:05Z</time>
      </trkpt>
      <trkpt lat="48.77866" lon="-0.6172">
        <ele>186</ele>
        <time>2014-04-01T12:09:10Z</time>
      </trkpt>
      <trkpt lat="48.77883" lon="-0.6174">
        <ele>184.6</ele>
        <time>2014-04-01T12:09:12Z</time>
      </trkpt>
      <trkpt lat="48.77892" lon="-0.61747">
        <ele>183.8</ele>
        <time>2014-04-01T12:09:13Z</time>
      </trkpt>
      <trkpt lat="48.77903" lon="-0.61752">
        <ele>182.8</ele>
        <time>2014-04-01T12:09:14Z</time>
      </trkpt>
      <trkpt lat="48.77914" lon="-0.61754">
        <ele>182</ele>
        <time>2014-04-01T12:09:15Z</time>
      </trkpt>
      <trkpt lat="48.77926" lon="-0.61754">
        <ele>181.2</ele>
        <time>2014-04-01T12:09:16Z</time>
      </trkpt>
      <trkpt lat="48.77938" lon="-0.61754">
        <ele>180.2</ele>
        <time>2014-04-01T12:09:17Z</time>
      </trkpt>
      <trkpt lat="48.77983" lon="-0.61753">
        <ele>175.8</ele>
        <time>2014-04-01T12:09:21Z</time>
      </trkpt>
      <trkpt lat="48.77994" lon="-0.61751">
        <ele>174.8</ele>
        <time>2014-04-01T12:09:22Z</time>
      </trkpt>
      <trkpt lat="48.78004" lon="-0.61746">
        <ele>174</ele>
        <time>2014-04-01T12:09:23Z</time>
      </trkpt>
      <trkpt lat="48.78014" lon="-0.61739">
        <ele>173.4</ele>
        <time>2014-04-01T12:09:24Z</time>
      </trkpt>
      <trkpt lat="48.78023" lon="-0.61728">
        <ele>172.6</ele>
        <time>2014-04-01T12:09:25Z</time>
      </trkpt>
      <trkpt lat="48.7803" lon="-0.61716">
        <ele>171.6</ele>
        <time>2014-04-01T12:09:26Z</time>
      </trkpt>
      <trkpt lat="48.78036" lon="-0.61702">
        <ele>170.8</ele>
        <time>2014-04-01T12:09:27Z</time>
      </trkpt>
      <trkpt lat="48.78041" lon="-0.61687">
        <ele>170</ele>
        <time>2014-04-01T12:09:28Z</time>
      </trkpt>
      <trkpt lat="48.78045" lon="-0.61671">
        <ele>169.2</ele>
        <time>2014-04-01T12:09:29Z</time>
      </trkpt>
      <trkpt lat="48.78057" lon="-0.61627">
        <ele>167.4</ele>
        <time>2014-04-01T12:09:32Z</time>
      </trkpt>
      <trkpt lat="48.78063" lon="-0.61614">
        <ele>167</ele>
        <time>2014-04-01T12:09:33Z</time>
      </trkpt>
      <trkpt lat="48.7807" lon="-0.61601">
        <ele>166.4</ele>
        <time>2014-04-01T12:09:34Z</time>
      </trkpt>
      <trkpt lat="48.78077" lon="-0.61591">
        <ele>166</ele>
        <time>2014-04-01T12:09:35Z</time>
      </trkpt>
      <trkpt lat="48.78086" lon="-0.61582">
        <ele>165.2</ele>
        <time>2014-04-01T12:09:36Z</time>
      </trkpt>
      <trkpt lat="48.78096" lon="-0.61575">
        <ele>164.4</ele>
        <time>2014-04-01T12:09:37Z</time>
      </trkpt>
      <trkpt lat="48.78107" lon="-0.61569">
        <ele>163.6</ele>
        <time>2014-04-01T12:09:38Z</time>
      </trkpt>
      <trkpt lat="48.78118" lon="-0.61564">
        <ele>162.8</ele>
        <time>2014-04-01T12:09:39Z</time>
      </trkpt>
      <trkpt lat="48.78129" lon="-0.61561">
        <ele>162</ele>
        <time>2014-04-01T12:09:40Z</time>
      </trkpt>
      <trkpt lat="48.78168" lon="-0.61548">
        <ele>158.2</ele>
        <time>2014-04-01T12:09:44Z</time>
      </trkpt>
      <trkpt lat="48.78182" lon="-0.61543">
        <ele>156.6</ele>
        <time>2014-04-01T12:09:46Z</time>
      </trkpt>
      <trkpt lat="48.78188" lon="-0.61543">
        <ele>156</ele>
        <time>2014-04-01T12:09:47Z</time>
      </trkpt>
      <trkpt lat="48.78192" lon="-0.61545">
        <ele>155.6</ele>
        <time>2014-04-01T12:09:48Z</time>
      </trkpt>
      <trkpt lat="48.78196" lon="-0.61551">
        <ele>155.2</ele>
        <time>2014-04-01T12:09:49Z</time>
      </trkpt>
      <trkpt lat="48.78198" lon="-0.61559">
        <ele>154.8</ele>
        <time>2014-04-01T12:09:50Z</time>
      </trkpt>
      <trkpt lat="48.78199" lon="-0.61568">
        <ele>154.4</ele>
        <time>2014-04-01T12:09:51Z</time>
      </trkpt>
      <trkpt lat="48.78199" lon="-0.61577">
        <ele>154.2</ele>
        <time>2014-04-01T12:09:52Z</time>
      </trkpt>
      <trkpt lat="48.78202" lon="-0.61693">
        <ele>151.8</ele>
        <time>2014-04-01T12:10:04Z</time>
      </trkpt>
      <trkpt lat="48.78194" lon="-0.61829">
        <ele>150.4</ele>
        <time>2014-04-01T12:10:18Z</time>
      </trkpt>
      <trkpt lat="48.7819" lon="-0.61857">
        <ele>150.6</ele>
        <time>2014-04-01T12:10:21Z</time>
      </trkpt>
      <trkpt lat="48.78188" lon="-0.61865">
        <ele>150.6</ele>
        <time>2014-04-01T12:10:22Z</time>
      </trkpt>
      <trkpt lat="48.78185" lon="-0.61873">
        <ele>150.8</ele>
        <time>2014-04-01T12:10:23Z</time>
      </trkpt>
      <trkpt lat="48.78175" lon="-0.61896">
        <ele>151.2</ele>
        <time>2014-04-01T12:10:26Z</time>
      </trkpt>
      <trkpt lat="48.78171" lon="-0.61902">
        <ele>151.2</ele>
        <time>2014-04-01T12:10:27Z</time>
      </trkpt>
      <trkpt lat="48.78166" lon="-0.61907">
        <ele>151.2</ele>
        <time>2014-04-01T12:10:28Z</time>
      </trkpt>
      <trkpt lat="48.78123" lon="-0.61951">
        <ele>150.8</ele>
        <time>2014-04-01T12:10:38Z</time>
      </trkpt>
      <trkpt lat="48.78119" lon="-0.61957">
        <ele>151</ele>
        <time>2014-04-01T12:10:39Z</time>
      </trkpt>
      <trkpt lat="48.78116" lon="-0.61963">
        <ele>151</ele>
        <time>2014-04-01T12:10:40Z</time>
      </trkpt>
      <trkpt lat="48.78114" lon="-0.6197">
        <ele>151.2</ele>
        <time>2014-04-01T12:10:41Z</time>
      </trkpt>
      <trkpt lat="48.78114" lon="-0.61978">
        <ele>151.2</ele>
        <time>2014-04-01T12:10:42Z</time>
      </trkpt>
      <trkpt lat="48.78114" lon="-0.61987">
        <ele>151.4</ele>
        <time>2014-04-01T12:10:43Z</time>
      </trkpt>
      <trkpt lat="48.78116" lon="-0.61996">
        <ele>151.4</ele>
        <time>2014-04-01T12:10:44Z</time>
      </trkpt>
      <trkpt lat="48.78118" lon="-0.62004">
        <ele>151.6</ele>
        <time>2014-04-01T12:10:45Z</time>
      </trkpt>
      <trkpt lat="48.7812" lon="-0.62013">
        <ele>151.6</ele>
        <time>2014-04-01T12:10:46Z</time>
      </trkpt>
      <trkpt lat="48.78151" lon="-0.62104">
        <ele>151.2</ele>
        <time>2014-04-01T12:10:57Z</time>
      </trkpt>
      <trkpt lat="48.78209" lon="-0.62199">
        <ele>151.8</ele>
        <time>2014-04-01T12:11:11Z</time>
      </trkpt>
      <trkpt lat="48.78214" lon="-0.62215">
        <ele>152</ele>
        <time>2014-04-01T12:11:13Z</time>
      </trkpt>
      <trkpt lat="48.78222" lon="-0.62237">
        <ele>152.4</ele>
        <time>2014-04-01T12:11:16Z</time>
      </trkpt>
      <trkpt lat="48.78222" lon="-0.62245">
        <ele>152.6</ele>
        <time>2014-04-01T12:11:17Z</time>
      </trkpt>
      <trkpt lat="48.78221" lon="-0.62253">
        <ele>152.8</ele>
        <time>2014-04-01T12:11:18Z</time>
      </trkpt>
      <trkpt lat="48.78218" lon="-0.6226">
        <ele>153</ele>
        <time>2014-04-01T12:11:19Z</time>
      </trkpt>
      <trkpt lat="48.78215" lon="-0.62265">
        <ele>153.2</ele>
        <time>2014-04-01T12:11:20Z</time>
      </trkpt>
      <trkpt lat="48.7821" lon="-0.62269">
        <ele>153.6</ele>
        <time>2014-04-01T12:11:21Z</time>
      </trkpt>
      <trkpt lat="48.78206" lon="-0.62272">
        <ele>153.8</ele>
        <time>2014-04-01T12:11:22Z</time>
      </trkpt>
      <trkpt lat="48.78159" lon="-0.62315">
        <ele>157</ele>
        <time>2014-04-01T12:11:33Z</time>
      </trkpt>
      <trkpt lat="48.78122" lon="-0.62352">
        <ele>160.4</ele>
        <time>2014-04-01T12:11:42Z</time>
      </trkpt>
      <trkpt lat="48.78104" lon="-0.62372">
        <ele>163.4</ele>
        <time>2014-04-01T12:11:48Z</time>
      </trkpt>
      <trkpt lat="48.78075" lon="-0.62393">
        <ele>166.4</ele>
        <time>2014-04-01T12:11:59Z</time>
      </trkpt>
      <trkpt lat="48.78051" lon="-0.62388">
        <ele>169.6</ele>
        <time>2014-04-01T12:12:09Z</time>
      </trkpt>
      <trkpt lat="48.78029" lon="-0.62368">
        <ele>173</ele>
        <time>2014-04-01T12:12:21Z</time>
      </trkpt>
      <trkpt lat="48.77996" lon="-0.62356">
        <ele>176</ele>
        <time>2014-04-01T12:12:35Z</time>
      </trkpt>
      <trkpt lat="48.77987" lon="-0.6236">
        <ele>177</ele>
        <time>2014-04-01T12:12:39Z</time>
      </trkpt>
      <trkpt lat="48.77986" lon="-0.62362">
        <ele>177</ele>
        <time>2014-04-01T12:12:40Z</time>
      </trkpt>
      <trkpt lat="48.77985" lon="-0.62365">
        <ele>177</ele>
        <time>2014-04-01T12:12:41Z</time>
      </trkpt>
      <trkpt lat="48.77985" lon="-0.62369">
        <ele>177.2</ele>
        <time>2014-04-01T12:12:42Z</time>
      </trkpt>
      <trkpt lat="48.77986" lon="-0.62373">
        <ele>177.2</ele>
        <time>2014-04-01T12:12:43Z</time>
      </trkpt>
      <trkpt lat="48.77987" lon="-0.62378">
        <ele>177</ele>
        <time>2014-04-01T12:12:44Z</time>
      </trkpt>
      <trkpt lat="48.77995" lon="-0.62433">
        <ele>176.8</ele>
        <time>2014-04-01T12:12:56Z</time>
      </trkpt>
      <trkpt lat="48.78008" lon="-0.62483">
        <ele>176.6</ele>
        <time>2014-04-01T12:13:07Z</time>
      </trkpt>
      <trkpt lat="48.78026" lon="-0.62562">
        <ele>175</ele>
        <time>2014-04-01T12:13:20Z</time>
      </trkpt>
      <trkpt lat="48.78044" lon="-0.62635">
        <ele>171.8</ele>
        <time>2014-04-01T12:13:27Z</time>
      </trkpt>
      <trkpt lat="48.78048" lon="-0.62657">
        <ele>169.8</ele>
        <time>2014-04-01T12:13:29Z</time>
      </trkpt>
      <trkpt lat="48.78056" lon="-0.62681">
        <ele>168.4</ele>
        <time>2014-04-01T12:13:32Z</time>
      </trkpt>
      <trkpt lat="48.78074" lon="-0.62723">
        <ele>167.8</ele>
        <time>2014-04-01T12:13:38Z</time>
      </trkpt>
      <trkpt lat="48.78093" lon="-0.62783">
        <ele>170.8</ele>
        <time>2014-04-01T12:13:49Z</time>
      </trkpt>
      <trkpt lat="48.781" lon="-0.62817">
        <ele>174</ele>
        <time>2014-04-01T12:13:57Z</time>
      </trkpt>
      <trkpt lat="48.78112" lon="-0.62864">
        <ele>176.6</ele>
        <time>2014-04-01T12:14:08Z</time>
      </trkpt>
      <trkpt lat="48.7813" lon="-0.62917">
        <ele>177.4</ele>
        <time>2014-04-01T12:14:20Z</time>
      </trkpt>
      <trkpt lat="48.78141" lon="-0.62946">
        <ele>177.2</ele>
        <time>2014-04-01T12:14:26Z</time>
      </trkpt>
      <trkpt lat="48.78124" lon="-0.62965">
        <ele>176.4</ele>
        <time>2014-04-01T12:14:34Z</time>
      </trkpt>
      <trkpt lat="48.78111" lon="-0.62976">
        <ele>177.8</ele>
        <time>2014-04-01T12:14:40Z</time>
      </trkpt>
      <trkpt lat="48.78111" lon="-0.63">
        <ele>179.2</ele>
        <time>2014-04-01T12:14:46Z</time>
      </trkpt>
      <trkpt lat="48.78099" lon="-0.63091">
        <ele>177</ele>
        <time>2014-04-01T12:14:57Z</time>
      </trkpt>
      <trkpt lat="48.78088" lon="-0.63123">
        <ele>175.2</ele>
        <time>2014-04-01T12:15:00Z</time>
      </trkpt>
      <trkpt lat="48.78075" lon="-0.63149">
        <ele>173.2</ele>
        <time>2014-04-01T12:15:03Z</time>
      </trkpt>
      <trkpt lat="48.78068" lon="-0.63179">
        <ele>172</ele>
        <time>2014-04-01T12:15:06Z</time>
      </trkpt>
      <trkpt lat="48.78066" lon="-0.63229">
        <ele>170.4</ele>
        <time>2014-04-01T12:15:11Z</time>
      </trkpt>
      <trkpt lat="48.78096" lon="-0.63293">
        <ele>169</ele>
        <time>2014-04-01T12:15:20Z</time>
      </trkpt>
      <trkpt lat="48.78099" lon="-0.63299">
        <ele>169</ele>
        <time>2014-04-01T12:15:21Z</time>
      </trkpt>
      <trkpt lat="48.78121" lon="-0.63362">
        <ele>172.4</ele>
        <time>2014-04-01T12:15:35Z</time>
      </trkpt>
      <trkpt lat="48.78142" lon="-0.63426">
        <ele>175.2</ele>
        <time>2014-04-01T12:15:49Z</time>
      </trkpt>
      <trkpt lat="48.78168" lon="-0.63508">
        <ele>175.2</ele>
        <time>2014-04-01T12:16:06Z</time>
      </trkpt>
      <trkpt lat="48.78163" lon="-0.63548">
        <ele>174.8</ele>
        <time>2014-04-01T12:16:15Z</time>
      </trkpt>
      <trkpt lat="48.78149" lon="-0.63563">
        <ele>175.2</ele>
        <time>2014-04-01T12:16:20Z</time>
      </trkpt>
      <trkpt lat="48.78149" lon="-0.63567">
        <ele>175.4</ele>
        <time>2014-04-01T12:16:21Z</time>
      </trkpt>
      <trkpt lat="48.78149" lon="-0.6357">
        <ele>175.6</ele>
        <time>2014-04-01T12:16:22Z</time>
      </trkpt>
      <trkpt lat="48.78155" lon="-0.63593">
        <ele>176.2</ele>
        <time>2014-04-01T12:16:27Z</time>
      </trkpt>
      <trkpt lat="48.78158" lon="-0.63605">
        <ele>176.2</ele>
        <time>2014-04-01T12:16:29Z</time>
      </trkpt>
      <trkpt lat="48.78174" lon="-0.63658">
        <ele>174.8</ele>
        <time>2014-04-01T12:16:36Z</time>
      </trkpt>
      <trkpt lat="48.78195" lon="-0.63724">
        <ele>172.8</ele>
        <time>2014-04-01T12:16:44Z</time>
      </trkpt>
      <trkpt lat="48.78206" lon="-0.63757">
        <ele>172.8</ele>
        <time>2014-04-01T12:16:49Z</time>
      </trkpt>
      <trkpt lat="48.78223" lon="-0.638">
        <ele>174.6</ele>
        <time>2014-04-01T12:16:57Z</time>
      </trkpt>
      <trkpt lat="48.78225" lon="-0.63804">
        <ele>174.8</ele>
        <time>2014-04-01T12:16:58Z</time>
      </trkpt>
      <trkpt lat="48.78228" lon="-0.63807">
        <ele>175</ele>
        <time>2014-04-01T12:16:59Z</time>
      </trkpt>
      <trkpt lat="48.78231" lon="-0.63811">
        <ele>175</ele>
        <time>2014-04-01T12:17:00Z</time>
      </trkpt>
      <trkpt lat="48.78273" lon="-0.63876">
        <ele>173.6</ele>
        <time>2014-04-01T12:17:10Z</time>
      </trkpt>
      <trkpt lat="48.78279" lon="-0.63885">
        <ele>173.6</ele>
        <time>2014-04-01T12:17:11Z</time>
      </trkpt>
      <trkpt lat="48.78286" lon="-0.63892">
        <ele>172.6</ele>
        <time>2014-04-01T12:17:12Z</time>
      </trkpt>
      <trkpt lat="48.78294" lon="-0.63899">
        <ele>172.6</ele>
        <time>2014-04-01T12:17:13Z</time>
      </trkpt>
      <trkpt lat="48.78303" lon="-0.63905">
        <ele>171.4</ele>
        <time>2014-04-01T12:17:14Z</time>
      </trkpt>
      <trkpt lat="48.78311" lon="-0.6391">
        <ele>170.6</ele>
        <time>2014-04-01T12:17:15Z</time>
      </trkpt>
      <trkpt lat="48.7832" lon="-0.63915">
        <ele>169.8</ele>
        <time>2014-04-01T12:17:16Z</time>
      </trkpt>
      <trkpt lat="48.78358" lon="-0.63933">
        <ele>166.8</ele>
        <time>2014-04-01T12:17:20Z</time>
      </trkpt>
      <trkpt lat="48.78389" lon="-0.63948">
        <ele>164.8</ele>
        <time>2014-04-01T12:17:25Z</time>
      </trkpt>
      <trkpt lat="48.78394" lon="-0.63948">
        <ele>164.4</ele>
        <time>2014-04-01T12:17:26Z</time>
      </trkpt>
      <trkpt lat="48.78398" lon="-0.63947">
        <ele>164.2</ele>
        <time>2014-04-01T12:17:27Z</time>
      </trkpt>
      <trkpt lat="48.78401" lon="-0.63944">
        <ele>164</ele>
        <time>2014-04-01T12:17:28Z</time>
      </trkpt>
      <trkpt lat="48.78404" lon="-0.6394">
        <ele>163.8</ele>
        <time>2014-04-01T12:17:29Z</time>
      </trkpt>
      <trkpt lat="48.78406" lon="-0.63935">
        <ele>163.6</ele>
        <time>2014-04-01T12:17:30Z</time>
      </trkpt>
      <trkpt lat="48.78407" lon="-0.6393">
        <ele>163.4</ele>
        <time>2014-04-01T12:17:31Z</time>
      </trkpt>
      <trkpt lat="48.78409" lon="-0.63924">
        <ele>163.2</ele>
        <time>2014-04-01T12:17:32Z</time>
      </trkpt>
      <trkpt lat="48.78412" lon="-0.63911">
        <ele>162.8</ele>
        <time>2014-04-01T12:17:34Z</time>
      </trkpt>
      <trkpt lat="48.78435" lon="-0.63853">
        <ele>161.2</ele>
        <time>2014-04-01T12:17:43Z</time>
      </trkpt>
      <trkpt lat="48.78439" lon="-0.6385">
        <ele>161</ele>
        <time>2014-04-01T12:17:44Z</time>
      </trkpt>
      <trkpt lat="48.78444" lon="-0.6385">
        <ele>160.8</ele>
        <time>2014-04-01T12:17:45Z</time>
      </trkpt>
      <trkpt lat="48.78448" lon="-0.63853">
        <ele>160.8</ele>
        <time>2014-04-01T12:17:46Z</time>
      </trkpt>
      <trkpt lat="48.78451" lon="-0.63857">
        <ele>160.8</ele>
        <time>2014-04-01T12:17:47Z</time>
      </trkpt>
      <trkpt lat="48.78454" lon="-0.63862">
        <ele>160.8</ele>
        <time>2014-04-01T12:17:48Z</time>
      </trkpt>
      <trkpt lat="48.78457" lon="-0.63868">
        <ele>160.6</ele>
        <time>2014-04-01T12:17:49Z</time>
      </trkpt>
      <trkpt lat="48.78516" lon="-0.63987">
        <ele>163.8</ele>
        <time>2014-04-01T12:18:08Z</time>
      </trkpt>
      <trkpt lat="48.78534" lon="-0.64052">
        <ele>166.8</ele>
        <time>2014-04-01T12:18:18Z</time>
      </trkpt>
      <trkpt lat="48.78548" lon="-0.64104">
        <ele>169.8</ele>
        <time>2014-04-01T12:18:27Z</time>
      </trkpt>
      <trkpt lat="48.78565" lon="-0.64167">
        <ele>173</ele>
        <time>2014-04-01T12:18:39Z</time>
      </trkpt>
      <trkpt lat="48.78576" lon="-0.64232">
        <ele>176.2</ele>
        <time>2014-04-01T12:18:51Z</time>
      </trkpt>
      <trkpt lat="48.78587" lon="-0.64322">
        <ele>179.2</ele>
        <time>2014-04-01T12:19:05Z</time>
      </trkpt>
      <trkpt lat="48.78601" lon="-0.64434">
        <ele>181.4</ele>
        <time>2014-04-01T12:19:22Z</time>
      </trkpt>
      <trkpt lat="48.78629" lon="-0.6458">
        <ele>181.6</ele>
        <time>2014-04-01T12:19:42Z</time>
      </trkpt>
      <trkpt lat="48.78655" lon="-0.64726">
        <ele>178.2</ele>
        <time>2014-04-01T12:19:55Z</time>
      </trkpt>
      <trkpt lat="48.78669" lon="-0.64829">
        <ele>174.8</ele>
        <time>2014-04-01T12:20:02Z</time>
      </trkpt>
      <trkpt lat="48.78682" lon="-0.64905">
        <ele>171</ele>
        <time>2014-04-01T12:20:07Z</time>
      </trkpt>
      <trkpt lat="48.78704" lon="-0.6498">
        <ele>167.6</ele>
        <time>2014-04-01T12:20:12Z</time>
      </trkpt>
      <trkpt lat="48.78729" lon="-0.65055">
        <ele>164</ele>
        <time>2014-04-01T12:20:17Z</time>
      </trkpt>
      <trkpt lat="48.78739" lon="-0.651">
        <ele>161.8</ele>
        <time>2014-04-01T12:20:20Z</time>
      </trkpt>
      <trkpt lat="48.7874" lon="-0.65114">
        <ele>161.2</ele>
        <time>2014-04-01T12:20:21Z</time>
      </trkpt>
      <trkpt lat="48.78739" lon="-0.65228">
        <ele>161.4</ele>
        <time>2014-04-01T12:20:31Z</time>
      </trkpt>
      <trkpt lat="48.78741" lon="-0.65237">
        <ele>161.8</ele>
        <time>2014-04-01T12:20:32Z</time>
      </trkpt>
      <trkpt lat="48.78746" lon="-0.65262">
        <ele>163.2</ele>
        <time>2014-04-01T12:20:35Z</time>
      </trkpt>
      <trkpt lat="48.78761" lon="-0.65307">
        <ele>166.4</ele>
        <time>2014-04-01T12:20:41Z</time>
      </trkpt>
      <trkpt lat="48.78777" lon="-0.65351">
        <ele>169.4</ele>
        <time>2014-04-01T12:20:48Z</time>
      </trkpt>
      <trkpt lat="48.78808" lon="-0.65438">
        <ele>172.2</ele>
        <time>2014-04-01T12:21:02Z</time>
      </trkpt>
      <trkpt lat="48.78811" lon="-0.65443">
        <ele>172.2</ele>
        <time>2014-04-01T12:21:03Z</time>
      </trkpt>
      <trkpt lat="48.78815" lon="-0.65446">
        <ele>172.4</ele>
        <time>2014-04-01T12:21:04Z</time>
      </trkpt>
      <trkpt lat="48.7882" lon="-0.65448">
        <ele>172.4</ele>
        <time>2014-04-01T12:21:05Z</time>
      </trkpt>
      <trkpt lat="48.78825" lon="-0.65448">
        <ele>172.4</ele>
        <time>2014-04-01T12:21:06Z</time>
      </trkpt>
      <trkpt lat="48.7883" lon="-0.65448">
        <ele>172.4</ele>
        <time>2014-04-01T12:21:07Z</time>
      </trkpt>
      <trkpt lat="48.7891" lon="-0.65435">
        <ele>172</ele>
        <time>2014-04-01T12:21:22Z</time>
      </trkpt>
      <trkpt lat="48.78926" lon="-0.65428">
        <ele>172</ele>
        <time>2014-04-01T12:21:25Z</time>
      </trkpt>
      <trkpt lat="48.78998" lon="-0.6538">
        <ele>170.8</ele>
        <time>2014-04-01T12:21:40Z</time>
      </trkpt>
      <trkpt lat="48.79022" lon="-0.65359">
        <ele>170.4</ele>
        <time>2014-04-01T12:21:46Z</time>
      </trkpt>
      <trkpt lat="48.79079" lon="-0.65334">
        <ele>169.2</ele>
        <time>2014-04-01T12:21:59Z</time>
      </trkpt>
      <trkpt lat="48.79157" lon="-0.65307">
        <ele>167.6</ele>
        <time>2014-04-01T12:22:14Z</time>
      </trkpt>
      <trkpt lat="48.79179" lon="-0.65299">
        <ele>166.8</ele>
        <time>2014-04-01T12:22:19Z</time>
      </trkpt>
      <trkpt lat="48.79227" lon="-0.65314">
        <ele>166.2</ele>
        <time>2014-04-01T12:22:29Z</time>
      </trkpt>
      <trkpt lat="48.79239" lon="-0.65304">
        <ele>166</ele>
        <time>2014-04-01T12:22:32Z</time>
      </trkpt>
      <trkpt lat="48.79259" lon="-0.65282">
        <ele>165.4</ele>
        <time>2014-04-01T12:22:38Z</time>
      </trkpt>
      <trkpt lat="48.7929" lon="-0.65266">
        <ele>163.4</ele>
        <time>2014-04-01T12:22:44Z</time>
      </trkpt>
      <trkpt lat="48.7931" lon="-0.65255">
        <ele>159.6</ele>
        <time>2014-04-01T12:22:51Z</time>
      </trkpt>
      <trkpt lat="48.79341" lon="-0.65244">
        <ele>156.4</ele>
        <time>2014-04-01T12:22:56Z</time>
      </trkpt>
      <trkpt lat="48.79357" lon="-0.65233">
        <ele>152.8</ele>
        <time>2014-04-01T12:22:59Z</time>
      </trkpt>
      <trkpt lat="48.79366" lon="-0.65228">
        <ele>151.6</ele>
        <time>2014-04-01T12:23:01Z</time>
      </trkpt>
      <trkpt lat="48.79375" lon="-0.65222">
        <ele>150.4</ele>
        <time>2014-04-01T12:23:03Z</time>
      </trkpt>
      <trkpt lat="48.79379" lon="-0.6522">
        <ele>150</ele>
        <time>2014-04-01T12:23:04Z</time>
      </trkpt>
      <trkpt lat="48.79383" lon="-0.6522">
        <ele>149.4</ele>
        <time>2014-04-01T12:23:05Z</time>
      </trkpt>
      <trkpt lat="48.79388" lon="-0.65219">
        <ele>148.8</ele>
        <time>2014-04-01T12:23:06Z</time>
      </trkpt>
      <trkpt lat="48.79393" lon="-0.65218">
        <ele>148.2</ele>
        <time>2014-04-01T12:23:07Z</time>
      </trkpt>
      <trkpt lat="48.79417" lon="-0.65209">
        <ele>145</ele>
        <time>2014-04-01T12:23:14Z</time>
      </trkpt>
      <trkpt lat="48.7944" lon="-0.65185">
        <ele>142.8</ele>
        <time>2014-04-01T12:23:25Z</time>
      </trkpt>
      <trkpt lat="48.79479" lon="-0.65153">
        <ele>141.4</ele>
        <time>2014-04-01T12:23:37Z</time>
      </trkpt>
      <trkpt lat="48.79496" lon="-0.65137">
        <ele>141</ele>
        <time>2014-04-01T12:23:43Z</time>
      </trkpt>
      <trkpt lat="48.79509" lon="-0.6512">
        <ele>140.2</ele>
        <time>2014-04-01T12:23:46Z</time>
      </trkpt>
      <trkpt lat="48.79547" lon="-0.65087">
        <ele>137.2</ele>
        <time>2014-04-01T12:23:54Z</time>
      </trkpt>
      <trkpt lat="48.7955" lon="-0.65082">
        <ele>137</ele>
        <time>2014-04-01T12:23:55Z</time>
      </trkpt>
      <trkpt lat="48.79577" lon="-0.65063">
        <ele>136.4</ele>
        <time>2014-04-01T12:24:04Z</time>
      </trkpt>
      <trkpt lat="48.79587" lon="-0.65062">
        <ele>136</ele>
        <time>2014-04-01T12:24:06Z</time>
      </trkpt>
      <trkpt lat="48.79591" lon="-0.65061">
        <ele>135.8</ele>
        <time>2014-04-01T12:24:07Z</time>
      </trkpt>
      <trkpt lat="48.79623" lon="-0.65059">
        <ele>134.6</ele>
        <time>2014-04-01T12:24:17Z</time>
      </trkpt>
      <trkpt lat="48.79645" lon="-0.65098">
        <ele>134.2</ele>
        <time>2014-04-01T12:24:27Z</time>
      </trkpt>
      <trkpt lat="48.79669" lon="-0.65158">
        <ele>134.2</ele>
        <time>2014-04-01T12:24:41Z</time>
      </trkpt>
      <trkpt lat="48.79683" lon="-0.65213">
        <ele>134.8</ele>
        <time>2014-04-01T12:24:52Z</time>
      </trkpt>
      <trkpt lat="48.797" lon="-0.65283">
        <ele>135.4</ele>
        <time>2014-04-01T12:25:02Z</time>
      </trkpt>
      <trkpt lat="48.79704" lon="-0.65306">
        <ele>135.4</ele>
        <time>2014-04-01T12:25:05Z</time>
      </trkpt>
      <trkpt lat="48.79706" lon="-0.65313">
        <ele>135.4</ele>
        <time>2014-04-01T12:25:06Z</time>
      </trkpt>
      <trkpt lat="48.79715" lon="-0.65376">
        <ele>135.2</ele>
        <time>2014-04-01T12:25:14Z</time>
      </trkpt>
      <trkpt lat="48.79716" lon="-0.65384">
        <ele>135.2</ele>
        <time>2014-04-01T12:25:15Z</time>
      </trkpt>
      <trkpt lat="48.79717" lon="-0.65391">
        <ele>135.2</ele>
        <time>2014-04-01T12:25:16Z</time>
      </trkpt>
      <trkpt lat="48.79719" lon="-0.65398">
        <ele>135.2</ele>
        <time>2014-04-01T12:25:17Z</time>
      </trkpt>
      <trkpt lat="48.7972" lon="-0.65404">
        <ele>135.2</ele>
        <time>2014-04-01T12:25:18Z</time>
      </trkpt>
      <trkpt lat="48.79721" lon="-0.65412">
        <ele>135.2</ele>
        <time>2014-04-01T12:25:19Z</time>
      </trkpt>
      <trkpt lat="48.79731" lon="-0.65479">
        <ele>135.6</ele>
        <time>2014-04-01T12:25:28Z</time>
      </trkpt>
      <trkpt lat="48.79732" lon="-0.65486">
        <ele>135.8</ele>
        <time>2014-04-01T12:25:29Z</time>
      </trkpt>
      <trkpt lat="48.79746" lon="-0.65573">
        <ele>136.6</ele>
        <time>2014-04-01T12:25:40Z</time>
      </trkpt>
      <trkpt lat="48.79754" lon="-0.65617">
        <ele>137</ele>
        <time>2014-04-01T12:25:46Z</time>
      </trkpt>
      <trkpt lat="48.7977" lon="-0.65663">
        <ele>137.6</ele>
        <time>2014-04-01T12:25:54Z</time>
      </trkpt>
      <trkpt lat="48.79774" lon="-0.65661">
        <ele>137.6</ele>
        <time>2014-04-01T12:25:55Z</time>
      </trkpt>
      <trkpt lat="48.79777" lon="-0.65658">
        <ele>137.6</ele>
        <time>2014-04-01T12:25:56Z</time>
      </trkpt>
      <trkpt lat="48.7978" lon="-0.65654">
        <ele>137.6</ele>
        <time>2014-04-01T12:25:57Z</time>
      </trkpt>
      <trkpt lat="48.79782" lon="-0.65649">
        <ele>137.4</ele>
        <time>2014-04-01T12:25:58Z</time>
      </trkpt>
      <trkpt lat="48.79792" lon="-0.65626">
        <ele>137.2</ele>
        <time>2014-04-01T12:26:02Z</time>
      </trkpt>
      <trkpt lat="48.79795" lon="-0.6562">
        <ele>137.2</ele>
        <time>2014-04-01T12:26:03Z</time>
      </trkpt>
      <trkpt lat="48.7981" lon="-0.65575">
        <ele>137.8</ele>
        <time>2014-04-01T12:26:10Z</time>
      </trkpt>
      <trkpt lat="48.79811" lon="-0.65569">
        <ele>138</ele>
        <time>2014-04-01T12:26:11Z</time>
      </trkpt>
      <trkpt lat="48.79816" lon="-0.65556">
        <ele>138</ele>
        <time>2014-04-01T12:26:13Z</time>
      </trkpt>
      <trkpt lat="48.79819" lon="-0.6555">
        <ele>138</ele>
        <time>2014-04-01T12:26:14Z</time>
      </trkpt>
      <trkpt lat="48.79822" lon="-0.65545">
        <ele>138</ele>
        <time>2014-04-01T12:26:15Z</time>
      </trkpt>
      <trkpt lat="48.79825" lon="-0.6554">
        <ele>138</ele>
        <time>2014-04-01T12:26:16Z</time>
      </trkpt>
      <trkpt lat="48.79828" lon="-0.65535">
        <ele>138</ele>
        <time>2014-04-01T12:26:17Z</time>
      </trkpt>
      <trkpt lat="48.79833" lon="-0.6553">
        <ele>138</ele>
        <time>2014-04-01T12:26:18Z</time>
      </trkpt>
      <trkpt lat="48.79837" lon="-0.65526">
        <ele>138</ele>
        <time>2014-04-01T12:26:19Z</time>
      </trkpt>
      <trkpt lat="48.79841" lon="-0.6552">
        <ele>138</ele>
        <time>2014-04-01T12:26:20Z</time>
      </trkpt>
      <trkpt lat="48.79845" lon="-0.65516">
        <ele>138</ele>
        <time>2014-04-01T12:26:21Z</time>
      </trkpt>
      <trkpt lat="48.7987" lon="-0.65497">
        <ele>138.4</ele>
        <time>2014-04-01T12:26:27Z</time>
      </trkpt>
      <trkpt lat="48.79885" lon="-0.65492">
        <ele>138.4</ele>
        <time>2014-04-01T12:26:30Z</time>
      </trkpt>
      <trkpt lat="48.79889" lon="-0.65491">
        <ele>138.6</ele>
        <time>2014-04-01T12:26:31Z</time>
      </trkpt>
      <trkpt lat="48.79912" lon="-0.65492">
        <ele>138.4</ele>
        <time>2014-04-01T12:26:36Z</time>
      </trkpt>
      <trkpt lat="48.79922" lon="-0.65494">
        <ele>138.4</ele>
        <time>2014-04-01T12:26:38Z</time>
      </trkpt>
      <trkpt lat="48.79944" lon="-0.65501">
        <ele>138.4</ele>
        <time>2014-04-01T12:26:43Z</time>
      </trkpt>
      <trkpt lat="48.79949" lon="-0.65503">
        <ele>138.4</ele>
        <time>2014-04-01T12:26:44Z</time>
      </trkpt>
      <trkpt lat="48.79953" lon="-0.65505">
        <ele>138.4</ele>
        <time>2014-04-01T12:26:45Z</time>
      </trkpt>
      <trkpt lat="48.79958" lon="-0.65507">
        <ele>138.4</ele>
        <time>2014-04-01T12:26:46Z</time>
      </trkpt>
      <trkpt lat="48.79963" lon="-0.65509">
        <ele>138.4</ele>
        <time>2014-04-01T12:26:47Z</time>
      </trkpt>
      <trkpt lat="48.79967" lon="-0.65512">
        <ele>138.4</ele>
        <time>2014-04-01T12:26:48Z</time>
      </trkpt>
      <trkpt lat="48.79971" lon="-0.65516">
        <ele>138.2</ele>
        <time>2014-04-01T12:26:49Z</time>
      </trkpt>
      <trkpt lat="48.79975" lon="-0.65518">
        <ele>138.2</ele>
        <time>2014-04-01T12:26:50Z</time>
      </trkpt>
      <trkpt lat="48.7998" lon="-0.65521">
        <ele>138.2</ele>
        <time>2014-04-01T12:26:51Z</time>
      </trkpt>
      <trkpt lat="48.79984" lon="-0.65524">
        <ele>138.2</ele>
        <time>2014-04-01T12:26:52Z</time>
      </trkpt>
      <trkpt lat="48.79988" lon="-0.65527">
        <ele>138.2</ele>
        <time>2014-04-01T12:26:53Z</time>
      </trkpt>
      <trkpt lat="48.79992" lon="-0.65531">
        <ele>138.2</ele>
        <time>2014-04-01T12:26:54Z</time>
      </trkpt>
      <trkpt lat="48.79995" lon="-0.65535">
        <ele>138.2</ele>
        <time>2014-04-01T12:26:55Z</time>
      </trkpt>
      <trkpt lat="48.80021" lon="-0.65582">
        <ele>138.4</ele>
        <time>2014-04-01T12:27:05Z</time>
      </trkpt>
      <trkpt lat="48.80031" lon="-0.6561">
        <ele>138.2</ele>
        <time>2014-04-01T12:27:09Z</time>
      </trkpt>
      <trkpt lat="48.80046" lon="-0.65685">
        <ele>138.6</ele>
        <time>2014-04-01T12:27:20Z</time>
      </trkpt>
      <trkpt lat="48.80061" lon="-0.65749">
        <ele>140</ele>
        <time>2014-04-01T12:27:30Z</time>
      </trkpt>
      <trkpt lat="48.80088" lon="-0.6581">
        <ele>141.4</ele>
        <time>2014-04-01T12:27:40Z</time>
      </trkpt>
      <trkpt lat="48.80129" lon="-0.65879">
        <ele>142.2</ele>
        <time>2014-04-01T12:27:53Z</time>
      </trkpt>
      <trkpt lat="48.80153" lon="-0.65903">
        <ele>142</ele>
        <time>2014-04-01T12:27:59Z</time>
      </trkpt>
      <trkpt lat="48.80157" lon="-0.65908">
        <ele>142</ele>
        <time>2014-04-01T12:28:00Z</time>
      </trkpt>
      <trkpt lat="48.80219" lon="-0.6597">
        <ele>141.6</ele>
        <time>2014-04-01T12:28:13Z</time>
      </trkpt>
      <trkpt lat="48.80284" lon="-0.66013">
        <ele>142.4</ele>
        <time>2014-04-01T12:28:26Z</time>
      </trkpt>
      <trkpt lat="48.80289" lon="-0.66014">
        <ele>142.6</ele>
        <time>2014-04-01T12:28:27Z</time>
      </trkpt>
      <trkpt lat="48.80301" lon="-0.66018">
        <ele>143.6</ele>
        <time>2014-04-01T12:28:30Z</time>
      </trkpt>
      <trkpt lat="48.80305" lon="-0.66019">
        <ele>143.8</ele>
        <time>2014-04-01T12:28:31Z</time>
      </trkpt>
      <trkpt lat="48.80308" lon="-0.66019">
        <ele>144</ele>
        <time>2014-04-01T12:28:32Z</time>
      </trkpt>
      <trkpt lat="48.80325" lon="-0.66015">
        <ele>145.2</ele>
        <time>2014-04-01T12:28:38Z</time>
      </trkpt>
      <trkpt lat="48.8033" lon="-0.66012">
        <ele>145.2</ele>
        <time>2014-04-01T12:28:39Z</time>
      </trkpt>
      <trkpt lat="48.80335" lon="-0.66008">
        <ele>145.4</ele>
        <time>2014-04-01T12:28:40Z</time>
      </trkpt>
      <trkpt lat="48.80345" lon="-0.65999">
        <ele>145.4</ele>
        <time>2014-04-01T12:28:42Z</time>
      </trkpt>
      <trkpt lat="48.80349" lon="-0.65993">
        <ele>145.2</ele>
        <time>2014-04-01T12:28:43Z</time>
      </trkpt>
      <trkpt lat="48.80354" lon="-0.65988">
        <ele>145</ele>
        <time>2014-04-01T12:28:44Z</time>
      </trkpt>
      <trkpt lat="48.80357" lon="-0.65982">
        <ele>144.4</ele>
        <time>2014-04-01T12:28:45Z</time>
      </trkpt>
      <trkpt lat="48.80361" lon="-0.65978">
        <ele>144.2</ele>
        <time>2014-04-01T12:28:46Z</time>
      </trkpt>
      <trkpt lat="48.80367" lon="-0.65968">
        <ele>144</ele>
        <time>2014-04-01T12:28:48Z</time>
      </trkpt>
      <trkpt lat="48.8037" lon="-0.65963">
        <ele>143.8</ele>
        <time>2014-04-01T12:28:49Z</time>
      </trkpt>
      <trkpt lat="48.8038" lon="-0.65949">
        <ele>143.6</ele>
        <time>2014-04-01T12:28:52Z</time>
      </trkpt>
      <trkpt lat="48.80388" lon="-0.65941">
        <ele>143.6</ele>
        <time>2014-04-01T12:28:54Z</time>
      </trkpt>
      <trkpt lat="48.80392" lon="-0.65937">
        <ele>143.6</ele>
        <time>2014-04-01T12:28:55Z</time>
      </trkpt>
      <trkpt lat="48.80407" lon="-0.65919">
        <ele>143.4</ele>
        <time>2014-04-01T12:28:59Z</time>
      </trkpt>
      <trkpt lat="48.8041" lon="-0.65914">
        <ele>143.4</ele>
        <time>2014-04-01T12:29:00Z</time>
      </trkpt>
      <trkpt lat="48.80413" lon="-0.65909">
        <ele>143.4</ele>
        <time>2014-04-01T12:29:01Z</time>
      </trkpt>
      <trkpt lat="48.80444" lon="-0.65872">
        <ele>142.8</ele>
        <time>2014-04-01T12:29:09Z</time>
      </trkpt>
      <trkpt lat="48.80448" lon="-0.65868">
        <ele>142.8</ele>
        <time>2014-04-01T12:29:10Z</time>
      </trkpt>
      <trkpt lat="48.80455" lon="-0.6586">
        <ele>142.8</ele>
        <time>2014-04-01T12:29:12Z</time>
      </trkpt>
      <trkpt lat="48.80459" lon="-0.65856">
        <ele>142.6</ele>
        <time>2014-04-01T12:29:13Z</time>
      </trkpt>
      <trkpt lat="48.80508" lon="-0.65828">
        <ele>142.8</ele>
        <time>2014-04-01T12:29:24Z</time>
      </trkpt>
      <trkpt lat="48.80528" lon="-0.65825">
        <ele>143</ele>
        <time>2014-04-01T12:29:28Z</time>
      </trkpt>
      <trkpt lat="48.80564" lon="-0.6584">
        <ele>143.4</ele>
        <time>2014-04-01T12:29:36Z</time>
      </trkpt>
      <trkpt lat="48.80644" lon="-0.65878">
        <ele>143.2</ele>
        <time>2014-04-01T12:29:53Z</time>
      </trkpt>
      <trkpt lat="48.80649" lon="-0.65877">
        <ele>143.2</ele>
        <time>2014-04-01T12:29:54Z</time>
      </trkpt>
      <trkpt lat="48.80654" lon="-0.65876">
        <ele>143.2</ele>
        <time>2014-04-01T12:29:55Z</time>
      </trkpt>
      <trkpt lat="48.80659" lon="-0.65874">
        <ele>143.2</ele>
        <time>2014-04-01T12:29:56Z</time>
      </trkpt>
      <trkpt lat="48.80664" lon="-0.65872">
        <ele>143</ele>
        <time>2014-04-01T12:29:57Z</time>
      </trkpt>
      <trkpt lat="48.80669" lon="-0.65869">
        <ele>143</ele>
        <time>2014-04-01T12:29:58Z</time>
      </trkpt>
      <trkpt lat="48.8072" lon="-0.65833">
        <ele>143.4</ele>
        <time>2014-04-01T12:30:09Z</time>
      </trkpt>
      <trkpt lat="48.80731" lon="-0.65825">
        <ele>143.4</ele>
        <time>2014-04-01T12:30:11Z</time>
      </trkpt>
      <trkpt lat="48.80782" lon="-0.65758">
        <ele>144.2</ele>
        <time>2014-04-01T12:30:23Z</time>
      </trkpt>
      <trkpt lat="48.80785" lon="-0.65751">
        <ele>144.2</ele>
        <time>2014-04-01T12:30:24Z</time>
      </trkpt>
      <trkpt lat="48.80804" lon="-0.65704">
        <ele>145.2</ele>
        <time>2014-04-01T12:30:31Z</time>
      </trkpt>
      <trkpt lat="48.80807" lon="-0.65698">
        <ele>145.2</ele>
        <time>2014-04-01T12:30:32Z</time>
      </trkpt>
      <trkpt lat="48.80811" lon="-0.65693">
        <ele>145.2</ele>
        <time>2014-04-01T12:30:33Z</time>
      </trkpt>
      <trkpt lat="48.80815" lon="-0.65689">
        <ele>145.4</ele>
        <time>2014-04-01T12:30:34Z</time>
      </trkpt>
      <trkpt lat="48.80819" lon="-0.65685">
        <ele>145.4</ele>
        <time>2014-04-01T12:30:35Z</time>
      </trkpt>
      <trkpt lat="48.80835" lon="-0.65669">
        <ele>145.4</ele>
        <time>2014-04-01T12:30:39Z</time>
      </trkpt>
      <trkpt lat="48.80839" lon="-0.65665">
        <ele>145.4</ele>
        <time>2014-04-01T12:30:40Z</time>
      </trkpt>
      <trkpt lat="48.80903" lon="-0.65602">
        <ele>143.6</ele>
        <time>2014-04-01T12:30:54Z</time>
      </trkpt>
      <trkpt lat="48.80968" lon="-0.65555">
        <ele>143.6</ele>
        <time>2014-04-01T12:31:07Z</time>
      </trkpt>
      <trkpt lat="48.80999" lon="-0.65539">
        <ele>144</ele>
        <time>2014-04-01T12:31:13Z</time>
      </trkpt>
      <trkpt lat="48.81075" lon="-0.65542">
        <ele>145</ele>
        <time>2014-04-01T12:31:27Z</time>
      </trkpt>
      <trkpt lat="48.81095" lon="-0.65539">
        <ele>145.4</ele>
        <time>2014-04-01T12:31:31Z</time>
      </trkpt>
      <trkpt lat="48.81115" lon="-0.65532">
        <ele>146.6</ele>
        <time>2014-04-01T12:31:35Z</time>
      </trkpt>
      <trkpt lat="48.81163" lon="-0.65518">
        <ele>148</ele>
        <time>2014-04-01T12:31:45Z</time>
      </trkpt>
      <trkpt lat="48.81168" lon="-0.65516">
        <ele>148</ele>
        <time>2014-04-01T12:31:46Z</time>
      </trkpt>
      <trkpt lat="48.81229" lon="-0.65495">
        <ele>150.4</ele>
        <time>2014-04-01T12:31:58Z</time>
      </trkpt>
      <trkpt lat="48.81297" lon="-0.6546">
        <ele>152.8</ele>
        <time>2014-04-01T12:32:13Z</time>
      </trkpt>
      <trkpt lat="48.81352" lon="-0.65432">
        <ele>156</ele>
        <time>2014-04-01T12:32:27Z</time>
      </trkpt>
      <trkpt lat="48.81392" lon="-0.65413">
        <ele>159.2</ele>
        <time>2014-04-01T12:32:39Z</time>
      </trkpt>
      <trkpt lat="48.81423" lon="-0.65393">
        <ele>162.2</ele>
        <time>2014-04-01T12:32:49Z</time>
      </trkpt>
      <trkpt lat="48.81443" lon="-0.65348">
        <ele>164.2</ele>
        <time>2014-04-01T12:33:00Z</time>
      </trkpt>
      <trkpt lat="48.8149" lon="-0.65318">
        <ele>167.2</ele>
        <time>2014-04-01T12:33:13Z</time>
      </trkpt>
      <trkpt lat="48.81501" lon="-0.6531">
        <ele>168</ele>
        <time>2014-04-01T12:33:16Z</time>
      </trkpt>
      <trkpt lat="48.81504" lon="-0.65307">
        <ele>168.2</ele>
        <time>2014-04-01T12:33:17Z</time>
      </trkpt>
      <trkpt lat="48.81508" lon="-0.65305">
        <ele>168.6</ele>
        <time>2014-04-01T12:33:18Z</time>
      </trkpt>
      <trkpt lat="48.81528" lon="-0.65293">
        <ele>169.8</ele>
        <time>2014-04-01T12:33:23Z</time>
      </trkpt>
      <trkpt lat="48.81557" lon="-0.65273">
        <ele>171.4</ele>
        <time>2014-04-01T12:33:31Z</time>
      </trkpt>
      <trkpt lat="48.8158" lon="-0.65264">
        <ele>172.6</ele>
        <time>2014-04-01T12:33:36Z</time>
      </trkpt>
      <trkpt lat="48.81584" lon="-0.65263">
        <ele>172.8</ele>
        <time>2014-04-01T12:33:37Z</time>
      </trkpt>
      <trkpt lat="48.81611" lon="-0.65257">
        <ele>174.4</ele>
        <time>2014-04-01T12:33:43Z</time>
      </trkpt>
      <trkpt lat="48.81616" lon="-0.65257">
        <ele>174.6</ele>
        <time>2014-04-01T12:33:44Z</time>
      </trkpt>
      <trkpt lat="48.8167" lon="-0.65243">
        <ele>177.8</ele>
        <time>2014-04-01T12:33:57Z</time>
      </trkpt>
      <trkpt lat="48.817" lon="-0.65234">
        <ele>181</ele>
        <time>2014-04-01T12:34:05Z</time>
      </trkpt>
      <trkpt lat="48.81739" lon="-0.65221">
        <ele>184.2</ele>
        <time>2014-04-01T12:34:16Z</time>
      </trkpt>
      <trkpt lat="48.81772" lon="-0.65206">
        <ele>187.4</ele>
        <time>2014-04-01T12:34:26Z</time>
      </trkpt>
      <trkpt lat="48.81806" lon="-0.6519">
        <ele>190.6</ele>
        <time>2014-04-01T12:34:37Z</time>
      </trkpt>
      <trkpt lat="48.81844" lon="-0.65172">
        <ele>193.6</ele>
        <time>2014-04-01T12:34:49Z</time>
      </trkpt>
      <trkpt lat="48.81896" lon="-0.6515">
        <ele>196.6</ele>
        <time>2014-04-01T12:35:04Z</time>
      </trkpt>
      <trkpt lat="48.81939" lon="-0.65132">
        <ele>199.2</ele>
        <time>2014-04-01T12:35:18Z</time>
      </trkpt>
      <trkpt lat="48.81991" lon="-0.65112">
        <ele>202</ele>
        <time>2014-04-01T12:35:33Z</time>
      </trkpt>
      <trkpt lat="48.82029" lon="-0.65097">
        <ele>204.8</ele>
        <time>2014-04-01T12:35:45Z</time>
      </trkpt>
      <trkpt lat="48.82061" lon="-0.65086">
        <ele>208</ele>
        <time>2014-04-01T12:35:56Z</time>
      </trkpt>
      <trkpt lat="48.82087" lon="-0.65079">
        <ele>211</ele>
        <time>2014-04-01T12:36:06Z</time>
      </trkpt>
      <trkpt lat="48.82143" lon="-0.65057">
        <ele>213</ele>
        <time>2014-04-01T12:36:22Z</time>
      </trkpt>
      <trkpt lat="48.82195" lon="-0.65029">
        <ele>214.2</ele>
        <time>2014-04-01T12:36:37Z</time>
      </trkpt>
      <trkpt lat="48.82245" lon="-0.64989">
        <ele>214.8</ele>
        <time>2014-04-01T12:36:51Z</time>
      </trkpt>
      <trkpt lat="48.82293" lon="-0.64945">
        <ele>215.4</ele>
        <time>2014-04-01T12:37:03Z</time>
      </trkpt>
      <trkpt lat="48.82351" lon="-0.64899">
        <ele>215.2</ele>
        <time>2014-04-01T12:37:16Z</time>
      </trkpt>
      <trkpt lat="48.82402" lon="-0.64855">
        <ele>214.8</ele>
        <time>2014-04-01T12:37:28Z</time>
      </trkpt>
      <trkpt lat="48.82456" lon="-0.64813">
        <ele>215.2</ele>
        <time>2014-04-01T12:37:42Z</time>
      </trkpt>
      <trkpt lat="48.82461" lon="-0.64809">
        <ele>215.4</ele>
        <time>2014-04-01T12:37:43Z</time>
      </trkpt>
      <trkpt lat="48.82528" lon="-0.64758">
        <ele>215.6</ele>
        <time>2014-04-01T12:37:57Z</time>
      </trkpt>
      <trkpt lat="48.82612" lon="-0.64677">
        <ele>215.8</ele>
        <time>2014-04-01T12:38:15Z</time>
      </trkpt>
      <trkpt lat="48.827" lon="-0.64583">
        <ele>213.6</ele>
        <time>2014-04-01T12:38:33Z</time>
      </trkpt>
      <trkpt lat="48.82739" lon="-0.64531">
        <ele>211</ele>
        <time>2014-04-01T12:38:41Z</time>
      </trkpt>
      <trkpt lat="48.8274" lon="-0.64525">
        <ele>210.8</ele>
        <time>2014-04-01T12:38:42Z</time>
      </trkpt>
      <trkpt lat="48.82741" lon="-0.64518">
        <ele>210.6</ele>
        <time>2014-04-01T12:38:43Z</time>
      </trkpt>
      <trkpt lat="48.8274" lon="-0.64412">
        <ele>208.4</ele>
        <time>2014-04-01T12:38:56Z</time>
      </trkpt>
      <trkpt lat="48.82738" lon="-0.6433">
        <ele>206.4</ele>
        <time>2014-04-01T12:39:04Z</time>
      </trkpt>
      <trkpt lat="48.82735" lon="-0.64279">
        <ele>205.4</ele>
        <time>2014-04-01T12:39:09Z</time>
      </trkpt>
      <trkpt lat="48.82734" lon="-0.64229">
        <ele>204.4</ele>
        <time>2014-04-01T12:39:14Z</time>
      </trkpt>
      <trkpt lat="48.82728" lon="-0.64113">
        <ele>201.4</ele>
        <time>2014-04-01T12:39:26Z</time>
      </trkpt>
      <trkpt lat="48.82728" lon="-0.64104">
        <ele>201.2</ele>
        <time>2014-04-01T12:39:27Z</time>
      </trkpt>
      <trkpt lat="48.82727" lon="-0.64094">
        <ele>201</ele>
        <time>2014-04-01T12:39:28Z</time>
      </trkpt>
      <trkpt lat="48.82708" lon="-0.63947">
        <ele>199</ele>
        <time>2014-04-01T12:39:44Z</time>
      </trkpt>
      <trkpt lat="48.82697" lon="-0.63885">
        <ele>199.8</ele>
        <time>2014-04-01T12:39:51Z</time>
      </trkpt>
      <trkpt lat="48.82695" lon="-0.63876">
        <ele>200</ele>
        <time>2014-04-01T12:39:52Z</time>
      </trkpt>
      <trkpt lat="48.82671" lon="-0.63728">
        <ele>201</ele>
        <time>2014-04-01T12:40:08Z</time>
      </trkpt>
      <trkpt lat="48.8267" lon="-0.63709">
        <ele>201</ele>
        <time>2014-04-01T12:40:10Z</time>
      </trkpt>
      <trkpt lat="48.82669" lon="-0.637">
        <ele>201</ele>
        <time>2014-04-01T12:40:11Z</time>
      </trkpt>
      <trkpt lat="48.82669" lon="-0.63574">
        <ele>202.2</ele>
        <time>2014-04-01T12:40:25Z</time>
      </trkpt>
      <trkpt lat="48.82673" lon="-0.6348">
        <ele>203.6</ele>
        <time>2014-04-01T12:40:36Z</time>
      </trkpt>
      <trkpt lat="48.82674" lon="-0.63457">
        <ele>204.2</ele>
        <time>2014-04-01T12:40:39Z</time>
      </trkpt>
      <trkpt lat="48.82687" lon="-0.63334">
        <ele>206.6</ele>
        <time>2014-04-01T12:40:54Z</time>
      </trkpt>
      <trkpt lat="48.82689" lon="-0.63316">
        <ele>206.8</ele>
        <time>2014-04-01T12:40:56Z</time>
      </trkpt>
      <trkpt lat="48.82696" lon="-0.63253">
        <ele>208</ele>
        <time>2014-04-01T12:41:04Z</time>
      </trkpt>
      <trkpt lat="48.82702" lon="-0.63205">
        <ele>209.4</ele>
        <time>2014-04-01T12:41:10Z</time>
      </trkpt>
      <trkpt lat="48.82701" lon="-0.6308">
        <ele>211.2</ele>
        <time>2014-04-01T12:41:25Z</time>
      </trkpt>
      <trkpt lat="48.82692" lon="-0.62952">
        <ele>213.6</ele>
        <time>2014-04-01T12:41:43Z</time>
      </trkpt>
      <trkpt lat="48.82689" lon="-0.62859">
        <ele>214</ele>
        <time>2014-04-01T12:41:56Z</time>
      </trkpt>
      <trkpt lat="48.82689" lon="-0.62823">
        <ele>214</ele>
        <time>2014-04-01T12:42:01Z</time>
      </trkpt>
      <trkpt lat="48.82693" lon="-0.627">
        <ele>213.2</ele>
        <time>2014-04-01T12:42:16Z</time>
      </trkpt>
      <trkpt lat="48.82698" lon="-0.62564">
        <ele>210.4</ele>
        <time>2014-04-01T12:42:32Z</time>
      </trkpt>
      <trkpt lat="48.82705" lon="-0.62424">
        <ele>208.6</ele>
        <time>2014-04-01T12:42:48Z</time>
      </trkpt>
      <trkpt lat="48.82718" lon="-0.62325">
        <ele>207.6</ele>
        <time>2014-04-01T12:43:00Z</time>
      </trkpt>
      <trkpt lat="48.82735" lon="-0.62264">
        <ele>207.8</ele>
        <time>2014-04-01T12:43:08Z</time>
      </trkpt>
      <trkpt lat="48.82745" lon="-0.62218">
        <ele>207.8</ele>
        <time>2014-04-01T12:43:14Z</time>
      </trkpt>
      <trkpt lat="48.82746" lon="-0.6221">
        <ele>207.8</ele>
        <time>2014-04-01T12:43:15Z</time>
      </trkpt>
      <trkpt lat="48.82748" lon="-0.62202">
        <ele>207.8</ele>
        <time>2014-04-01T12:43:16Z</time>
      </trkpt>
      <trkpt lat="48.8275" lon="-0.62194">
        <ele>207.8</ele>
        <time>2014-04-01T12:43:17Z</time>
      </trkpt>
      <trkpt lat="48.82751" lon="-0.62186">
        <ele>207.8</ele>
        <time>2014-04-01T12:43:18Z</time>
      </trkpt>
      <trkpt lat="48.82771" lon="-0.62076">
        <ele>207.2</ele>
        <time>2014-04-01T12:43:31Z</time>
      </trkpt>
      <trkpt lat="48.82773" lon="-0.62068">
        <ele>207</ele>
        <time>2014-04-01T12:43:32Z</time>
      </trkpt>
      <trkpt lat="48.82823" lon="-0.61969">
        <ele>205.2</ele>
        <time>2014-04-01T12:43:45Z</time>
      </trkpt>
      <trkpt lat="48.82867" lon="-0.61889">
        <ele>204.2</ele>
        <time>2014-04-01T12:43:56Z</time>
      </trkpt>
      <trkpt lat="48.8291" lon="-0.61774">
        <ele>203.2</ele>
        <time>2014-04-01T12:44:10Z</time>
      </trkpt>
      <trkpt lat="48.82951" lon="-0.6166">
        <ele>203.2</ele>
        <time>2014-04-01T12:44:26Z</time>
      </trkpt>
      <trkpt lat="48.82988" lon="-0.61552">
        <ele>202</ele>
        <time>2014-04-01T12:44:44Z</time>
      </trkpt>
      <trkpt lat="48.82993" lon="-0.61526">
        <ele>201.2</ele>
        <time>2014-04-01T12:44:54Z</time>
      </trkpt>
      <trkpt lat="48.82994" lon="-0.61525">
        <ele>201.4</ele>
        <time>2014-04-01T12:44:58Z</time>
      </trkpt>
      <trkpt lat="48.83007" lon="-0.61515">
        <ele>202.8</ele>
        <time>2014-04-01T12:50:41Z</time>
      </trkpt>
      <trkpt lat="48.83015" lon="-0.61473">
        <ele>200.8</ele>
        <time>2014-04-01T12:50:52Z</time>
      </trkpt>
      <trkpt lat="48.83024" lon="-0.61439">
        <ele>200</ele>
        <time>2014-04-01T12:51:03Z</time>
      </trkpt>
      <trkpt lat="48.83034" lon="-0.61388">
        <ele>198.4</ele>
        <time>2014-04-01T12:51:15Z</time>
      </trkpt>
      <trkpt lat="48.8304" lon="-0.61362">
        <ele>197.6</ele>
        <time>2014-04-01T12:51:27Z</time>
      </trkpt>
      <trkpt lat="48.83056" lon="-0.61321">
        <ele>196.8</ele>
        <time>2014-04-01T12:51:39Z</time>
      </trkpt>
      <trkpt lat="48.83076" lon="-0.61267">
        <ele>195.4</ele>
        <time>2014-04-01T12:51:49Z</time>
      </trkpt>
      <trkpt lat="48.83097" lon="-0.61226">
        <ele>192.4</ele>
        <time>2014-04-01T12:51:57Z</time>
      </trkpt>
      <trkpt lat="48.83112" lon="-0.61211">
        <ele>191.2</ele>
        <time>2014-04-01T12:52:01Z</time>
      </trkpt>
      <trkpt lat="48.83138" lon="-0.61176">
        <ele>189.6</ele>
        <time>2014-04-01T12:52:08Z</time>
      </trkpt>
      <trkpt lat="48.83175" lon="-0.61109">
        <ele>187</ele>
        <time>2014-04-01T12:52:18Z</time>
      </trkpt>
      <trkpt lat="48.8318" lon="-0.61097">
        <ele>186.6</ele>
        <time>2014-04-01T12:52:20Z</time>
      </trkpt>
      <trkpt lat="48.8321" lon="-0.61043">
        <ele>184.8</ele>
        <time>2014-04-01T12:52:31Z</time>
      </trkpt>
      <trkpt lat="48.83216" lon="-0.61026">
        <ele>184.4</ele>
        <time>2014-04-01T12:52:34Z</time>
      </trkpt>
      <trkpt lat="48.83228" lon="-0.60997">
        <ele>183.4</ele>
        <time>2014-04-01T12:52:39Z</time>
      </trkpt>
      <trkpt lat="48.83235" lon="-0.6098">
        <ele>182.8</ele>
        <time>2014-04-01T12:52:42Z</time>
      </trkpt>
      <trkpt lat="48.8325" lon="-0.60949">
        <ele>182</ele>
        <time>2014-04-01T12:52:47Z</time>
      </trkpt>
      <trkpt lat="48.83267" lon="-0.60927">
        <ele>181.6</ele>
        <time>2014-04-01T12:52:51Z</time>
      </trkpt>
      <trkpt lat="48.83277" lon="-0.60911">
        <ele>181.4</ele>
        <time>2014-04-01T12:52:54Z</time>
      </trkpt>
      <trkpt lat="48.8328" lon="-0.60905">
        <ele>181.4</ele>
        <time>2014-04-01T12:52:55Z</time>
      </trkpt>
      <trkpt lat="48.83313" lon="-0.60844">
        <ele>180.4</ele>
        <time>2014-04-01T12:53:05Z</time>
      </trkpt>
      <trkpt lat="48.83357" lon="-0.60731">
        <ele>178.8</ele>
        <time>2014-04-01T12:53:20Z</time>
      </trkpt>
      <trkpt lat="48.83363" lon="-0.60716">
        <ele>178.4</ele>
        <time>2014-04-01T12:53:22Z</time>
      </trkpt>
      <trkpt lat="48.83369" lon="-0.60702">
        <ele>178</ele>
        <time>2014-04-01T12:53:24Z</time>
      </trkpt>
      <trkpt lat="48.83372" lon="-0.60694">
        <ele>177.8</ele>
        <time>2014-04-01T12:53:25Z</time>
      </trkpt>
      <trkpt lat="48.83374" lon="-0.60687">
        <ele>177.6</ele>
        <time>2014-04-01T12:53:26Z</time>
      </trkpt>
      <trkpt lat="48.83376" lon="-0.6068">
        <ele>177.6</ele>
        <time>2014-04-01T12:53:27Z</time>
      </trkpt>
      <trkpt lat="48.83379" lon="-0.60673">
        <ele>177.4</ele>
        <time>2014-04-01T12:53:28Z</time>
      </trkpt>
      <trkpt lat="48.83396" lon="-0.60633">
        <ele>177</ele>
        <time>2014-04-01T12:53:37Z</time>
      </trkpt>
      <trkpt lat="48.83411" lon="-0.60583">
        <ele>176.4</ele>
        <time>2014-04-01T12:53:46Z</time>
      </trkpt>
      <trkpt lat="48.8344" lon="-0.60481">
        <ele>177</ele>
        <time>2014-04-01T12:54:02Z</time>
      </trkpt>
      <trkpt lat="48.83462" lon="-0.60338">
        <ele>176</ele>
        <time>2014-04-01T12:54:23Z</time>
      </trkpt>
      <trkpt lat="48.83474" lon="-0.60237">
        <ele>177.6</ele>
        <time>2014-04-01T12:54:40Z</time>
      </trkpt>
      <trkpt lat="48.83479" lon="-0.60192">
        <ele>178.4</ele>
        <time>2014-04-01T12:54:49Z</time>
      </trkpt>
      <trkpt lat="48.83497" lon="-0.60064">
        <ele>177.6</ele>
        <time>2014-04-01T12:55:07Z</time>
      </trkpt>
      <trkpt lat="48.83503" lon="-0.60021">
        <ele>177.6</ele>
        <time>2014-04-01T12:55:13Z</time>
      </trkpt>
      <trkpt lat="48.83503" lon="-0.60015">
        <ele>177.4</ele>
        <time>2014-04-01T12:55:14Z</time>
      </trkpt>
      <trkpt lat="48.83505" lon="-0.60009">
        <ele>177.2</ele>
        <time>2014-04-01T12:55:15Z</time>
      </trkpt>
      <trkpt lat="48.83506" lon="-0.60003">
        <ele>177.2</ele>
        <time>2014-04-01T12:55:16Z</time>
      </trkpt>
      <trkpt lat="48.83507" lon="-0.59997">
        <ele>177</ele>
        <time>2014-04-01T12:55:17Z</time>
      </trkpt>
      <trkpt lat="48.83508" lon="-0.59991">
        <ele>176.8</ele>
        <time>2014-04-01T12:55:18Z</time>
      </trkpt>
      <trkpt lat="48.83512" lon="-0.59961">
        <ele>176.8</ele>
        <time>2014-04-01T12:55:23Z</time>
      </trkpt>
      <trkpt lat="48.83513" lon="-0.59943">
        <ele>177</ele>
        <time>2014-04-01T12:55:26Z</time>
      </trkpt>
      <trkpt lat="48.83518" lon="-0.59905">
        <ele>177.6</ele>
        <time>2014-04-01T12:55:32Z</time>
      </trkpt>
      <trkpt lat="48.8352" lon="-0.598">
        <ele>178.2</ele>
        <time>2014-04-01T12:55:48Z</time>
      </trkpt>
      <trkpt lat="48.83526" lon="-0.59706">
        <ele>180.4</ele>
        <time>2014-04-01T12:56:05Z</time>
      </trkpt>
      <trkpt lat="48.83529" lon="-0.59649">
        <ele>181.4</ele>
        <time>2014-04-01T12:56:17Z</time>
      </trkpt>
      <trkpt lat="48.83533" lon="-0.59582">
        <ele>181.6</ele>
        <time>2014-04-01T12:56:30Z</time>
      </trkpt>
      <trkpt lat="48.83533" lon="-0.59537">
        <ele>182.6</ele>
        <time>2014-04-01T12:56:42Z</time>
      </trkpt>
      <trkpt lat="48.83536" lon="-0.59498">
        <ele>183.2</ele>
        <time>2014-04-01T12:56:52Z</time>
      </trkpt>
      <trkpt lat="48.83537" lon="-0.5945">
        <ele>183.2</ele>
        <time>2014-04-01T12:57:04Z</time>
      </trkpt>
      <trkpt lat="48.83541" lon="-0.59394">
        <ele>182</ele>
        <time>2014-04-01T12:57:17Z</time>
      </trkpt>
      <trkpt lat="48.83555" lon="-0.59317">
        <ele>181.4</ele>
        <time>2014-04-01T12:57:33Z</time>
      </trkpt>
      <trkpt lat="48.83573" lon="-0.59252">
        <ele>181.6</ele>
        <time>2014-04-01T12:57:48Z</time>
      </trkpt>
      <trkpt lat="48.83583" lon="-0.59209">
        <ele>181.4</ele>
        <time>2014-04-01T12:58:00Z</time>
      </trkpt>
      <trkpt lat="48.83594" lon="-0.59152">
        <ele>180.6</ele>
        <time>2014-04-01T12:58:15Z</time>
      </trkpt>
      <trkpt lat="48.83601" lon="-0.59108">
        <ele>179.8</ele>
        <time>2014-04-01T12:58:27Z</time>
      </trkpt>
      <trkpt lat="48.83612" lon="-0.59031">
        <ele>179.2</ele>
        <time>2014-04-01T12:58:42Z</time>
      </trkpt>
      <trkpt lat="48.83623" lon="-0.58965">
        <ele>178.2</ele>
        <time>2014-04-01T12:58:55Z</time>
      </trkpt>
      <trkpt lat="48.83635" lon="-0.58891">
        <ele>177.6</ele>
        <time>2014-04-01T12:59:10Z</time>
      </trkpt>
      <trkpt lat="48.83637" lon="-0.58881">
        <ele>177.6</ele>
        <time>2014-04-01T12:59:12Z</time>
      </trkpt>
      <trkpt lat="48.83648" lon="-0.58821">
        <ele>177.6</ele>
        <time>2014-04-01T12:59:24Z</time>
      </trkpt>
      <trkpt lat="48.8365" lon="-0.58813">
        <ele>177.6</ele>
        <time>2014-04-01T12:59:26Z</time>
      </trkpt>
      <trkpt lat="48.83654" lon="-0.58764">
        <ele>177.6</ele>
        <time>2014-04-01T12:59:37Z</time>
      </trkpt>
      <trkpt lat="48.83668" lon="-0.58685">
        <ele>177.8</ele>
        <time>2014-04-01T12:59:53Z</time>
      </trkpt>
      <trkpt lat="48.83677" lon="-0.58636">
        <ele>177.6</ele>
        <time>2014-04-01T13:00:04Z</time>
      </trkpt>
      <trkpt lat="48.83692" lon="-0.58549">
        <ele>178</ele>
        <time>2014-04-01T13:00:19Z</time>
      </trkpt>
      <trkpt lat="48.83711" lon="-0.58426">
        <ele>177.8</ele>
        <time>2014-04-01T13:00:40Z</time>
      </trkpt>
      <trkpt lat="48.83727" lon="-0.58341">
        <ele>177.8</ele>
        <time>2014-04-01T13:00:55Z</time>
      </trkpt>
      <trkpt lat="48.83744" lon="-0.58271">
        <ele>179</ele>
        <time>2014-04-01T13:01:08Z</time>
      </trkpt>
      <trkpt lat="48.83766" lon="-0.58208">
        <ele>179.8</ele>
        <time>2014-04-01T13:01:20Z</time>
      </trkpt>
      <trkpt lat="48.83783" lon="-0.58158">
        <ele>180.2</ele>
        <time>2014-04-01T13:01:30Z</time>
      </trkpt>
      <trkpt lat="48.83796" lon="-0.58112">
        <ele>180.6</ele>
        <time>2014-04-01T13:01:40Z</time>
      </trkpt>
      <trkpt lat="48.83811" lon="-0.58061">
        <ele>180</ele>
        <time>2014-04-01T13:01:51Z</time>
      </trkpt>
      <trkpt lat="48.83824" lon="-0.58015">
        <ele>178.2</ele>
        <time>2014-04-01T13:02:03Z</time>
      </trkpt>
      <trkpt lat="48.83838" lon="-0.57979">
        <ele>177.4</ele>
        <time>2014-04-01T13:02:15Z</time>
      </trkpt>
      <trkpt lat="48.83856" lon="-0.57942">
        <ele>176.8</ele>
        <time>2014-04-01T13:02:25Z</time>
      </trkpt>
      <trkpt lat="48.83884" lon="-0.5788">
        <ele>175.4</ele>
        <time>2014-04-01T13:02:37Z</time>
      </trkpt>
      <trkpt lat="48.83909" lon="-0.57836">
        <ele>174.6</ele>
        <time>2014-04-01T13:02:49Z</time>
      </trkpt>
      <trkpt lat="48.83916" lon="-0.57824">
        <ele>174.6</ele>
        <time>2014-04-01T13:02:53Z</time>
      </trkpt>
      <trkpt lat="48.83947" lon="-0.57782">
        <ele>173.6</ele>
        <time>2014-04-01T13:03:06Z</time>
      </trkpt>
      <trkpt lat="48.83964" lon="-0.57757">
        <ele>171.2</ele>
        <time>2014-04-01T13:03:14Z</time>
      </trkpt>
      <trkpt lat="48.83987" lon="-0.57719">
        <ele>170.2</ele>
        <time>2014-04-01T13:03:25Z</time>
      </trkpt>
      <trkpt lat="48.84024" lon="-0.57658">
        <ele>169</ele>
        <time>2014-04-01T13:03:39Z</time>
      </trkpt>
      <trkpt lat="48.84047" lon="-0.57622">
        <ele>168</ele>
        <time>2014-04-01T13:03:49Z</time>
      </trkpt>
      <trkpt lat="48.84063" lon="-0.57586">
        <ele>167.6</ele>
        <time>2014-04-01T13:03:59Z</time>
      </trkpt>
      <trkpt lat="48.84082" lon="-0.57537">
        <ele>165.6</ele>
        <time>2014-04-01T13:04:06Z</time>
      </trkpt>
      <trkpt lat="48.8409" lon="-0.57506">
        <ele>164.8</ele>
        <time>2014-04-01T13:04:10Z</time>
      </trkpt>
      <trkpt lat="48.84105" lon="-0.57454">
        <ele>162.8</ele>
        <time>2014-04-01T13:04:18Z</time>
      </trkpt>
      <trkpt lat="48.84122" lon="-0.57403">
        <ele>161</ele>
        <time>2014-04-01T13:04:26Z</time>
      </trkpt>
      <trkpt lat="48.8414" lon="-0.57357">
        <ele>160</ele>
        <time>2014-04-01T13:04:32Z</time>
      </trkpt>
      <trkpt lat="48.84151" lon="-0.57322">
        <ele>159</ele>
        <time>2014-04-01T13:04:37Z</time>
      </trkpt>
      <trkpt lat="48.84161" lon="-0.57289">
        <ele>158.2</ele>
        <time>2014-04-01T13:04:42Z</time>
      </trkpt>
      <trkpt lat="48.84171" lon="-0.57238">
        <ele>156.6</ele>
        <time>2014-04-01T13:04:50Z</time>
      </trkpt>
      <trkpt lat="48.84176" lon="-0.57217">
        <ele>156.4</ele>
        <time>2014-04-01T13:04:53Z</time>
      </trkpt>
      <trkpt lat="48.84189" lon="-0.57176">
        <ele>155.4</ele>
        <time>2014-04-01T13:05:00Z</time>
      </trkpt>
      <trkpt lat="48.84193" lon="-0.57161">
        <ele>155</ele>
        <time>2014-04-01T13:05:02Z</time>
      </trkpt>
      <trkpt lat="48.84218" lon="-0.57071">
        <ele>154.2</ele>
        <time>2014-04-01T13:05:14Z</time>
      </trkpt>
      <trkpt lat="48.84243" lon="-0.56993">
        <ele>152.2</ele>
        <time>2014-04-01T13:05:26Z</time>
      </trkpt>
      <trkpt lat="48.84262" lon="-0.5693">
        <ele>151.8</ele>
        <time>2014-04-01T13:05:37Z</time>
      </trkpt>
      <trkpt lat="48.84278" lon="-0.56882">
        <ele>150</ele>
        <time>2014-04-01T13:05:44Z</time>
      </trkpt>
      <trkpt lat="48.8428" lon="-0.56875">
        <ele>150</ele>
        <time>2014-04-01T13:05:45Z</time>
      </trkpt>
      <trkpt lat="48.84304" lon="-0.56798">
        <ele>148.6</ele>
        <time>2014-04-01T13:05:56Z</time>
      </trkpt>
      <trkpt lat="48.84307" lon="-0.56791">
        <ele>148.4</ele>
        <time>2014-04-01T13:05:57Z</time>
      </trkpt>
      <trkpt lat="48.84334" lon="-0.56716">
        <ele>147.4</ele>
        <time>2014-04-01T13:06:10Z</time>
      </trkpt>
      <trkpt lat="48.84353" lon="-0.56658">
        <ele>146.8</ele>
        <time>2014-04-01T13:06:22Z</time>
      </trkpt>
      <trkpt lat="48.84364" lon="-0.56543">
        <ele>143.6</ele>
        <time>2014-04-01T13:06:37Z</time>
      </trkpt>
      <trkpt lat="48.84367" lon="-0.56506">
        <ele>142.8</ele>
        <time>2014-04-01T13:06:41Z</time>
      </trkpt>
      <trkpt lat="48.84369" lon="-0.56397">
        <ele>139.8</ele>
        <time>2014-04-01T13:06:51Z</time>
      </trkpt>
      <trkpt lat="48.84369" lon="-0.56328">
        <ele>137.8</ele>
        <time>2014-04-01T13:06:57Z</time>
      </trkpt>
      <trkpt lat="48.8438" lon="-0.562">
        <ele>134.6</ele>
        <time>2014-04-01T13:07:09Z</time>
      </trkpt>
      <trkpt lat="48.84388" lon="-0.56091">
        <ele>131.4</ele>
        <time>2014-04-01T13:07:22Z</time>
      </trkpt>
      <trkpt lat="48.84389" lon="-0.56068">
        <ele>131.2</ele>
        <time>2014-04-01T13:07:26Z</time>
      </trkpt>
      <trkpt lat="48.8439" lon="-0.56062">
        <ele>131</ele>
        <time>2014-04-01T13:07:27Z</time>
      </trkpt>
      <trkpt lat="48.84399" lon="-0.55962">
        <ele>127.8</ele>
        <time>2014-04-01T13:07:40Z</time>
      </trkpt>
      <trkpt lat="48.844" lon="-0.55947">
        <ele>127</ele>
        <time>2014-04-01T13:07:42Z</time>
      </trkpt>
      <trkpt lat="48.84402" lon="-0.55898">
        <ele>124</ele>
        <time>2014-04-01T13:07:49Z</time>
      </trkpt>
      <trkpt lat="48.84402" lon="-0.55867">
        <ele>122</ele>
        <time>2014-04-01T13:07:54Z</time>
      </trkpt>
      <trkpt lat="48.84401" lon="-0.55823">
        <ele>119.2</ele>
        <time>2014-04-01T13:08:00Z</time>
      </trkpt>
      <trkpt lat="48.844" lon="-0.55815">
        <ele>118.8</ele>
        <time>2014-04-01T13:08:01Z</time>
      </trkpt>
      <trkpt lat="48.84398" lon="-0.55807">
        <ele>117.6</ele>
        <time>2014-04-01T13:08:02Z</time>
      </trkpt>
      <trkpt lat="48.84396" lon="-0.55799">
        <ele>117</ele>
        <time>2014-04-01T13:08:03Z</time>
      </trkpt>
      <trkpt lat="48.84385" lon="-0.55776">
        <ele>115</ele>
        <time>2014-04-01T13:08:06Z</time>
      </trkpt>
      <trkpt lat="48.84365" lon="-0.5574">
        <ele>111.4</ele>
        <time>2014-04-01T13:08:11Z</time>
      </trkpt>
      <trkpt lat="48.84361" lon="-0.55733">
        <ele>110.8</ele>
        <time>2014-04-01T13:08:12Z</time>
      </trkpt>
      <trkpt lat="48.84343" lon="-0.55701">
        <ele>107</ele>
        <time>2014-04-01T13:08:20Z</time>
      </trkpt>
      <trkpt lat="48.84337" lon="-0.55693">
        <ele>105.4</ele>
        <time>2014-04-01T13:08:26Z</time>
      </trkpt>
      <trkpt lat="48.84337" lon="-0.55686">
        <ele>104.8</ele>
        <time>2014-04-01T13:08:29Z</time>
      </trkpt>
      <trkpt lat="48.84356" lon="-0.55636">
        <ele>103.6</ele>
        <time>2014-04-01T13:08:40Z</time>
      </trkpt>
      <trkpt lat="48.84374" lon="-0.55586">
        <ele>102</ele>
        <time>2014-04-01T13:08:50Z</time>
      </trkpt>
      <trkpt lat="48.84375" lon="-0.5557">
        <ele>101.6</ele>
        <time>2014-04-01T13:08:54Z</time>
      </trkpt>
      <trkpt lat="48.84372" lon="-0.55567">
        <ele>101.6</ele>
        <time>2014-04-01T13:08:55Z</time>
      </trkpt>
      <trkpt lat="48.84368" lon="-0.55566">
        <ele>101.6</ele>
        <time>2014-04-01T13:08:56Z</time>
      </trkpt>
      <trkpt lat="48.84365" lon="-0.55568">
        <ele>101.4</ele>
        <time>2014-04-01T13:08:57Z</time>
      </trkpt>
      <trkpt lat="48.84361" lon="-0.55571">
        <ele>101.2</ele>
        <time>2014-04-01T13:08:58Z</time>
      </trkpt>
      <trkpt lat="48.84321" lon="-0.55571">
        <ele>100</ele>
        <time>2014-04-01T13:09:10Z</time>
      </trkpt>
      <trkpt lat="48.84281" lon="-0.55522">
        <ele>100.8</ele>
        <time>2014-04-01T13:09:24Z</time>
      </trkpt>
      <trkpt lat="48.84251" lon="-0.5548">
        <ele>101</ele>
        <time>2014-04-01T13:09:36Z</time>
      </trkpt>
      <trkpt lat="48.84241" lon="-0.55434">
        <ele>101.8</ele>
        <time>2014-04-01T13:09:48Z</time>
      </trkpt>
      <trkpt lat="48.84243" lon="-0.55431">
        <ele>101.6</ele>
        <time>2014-04-01T13:09:49Z</time>
      </trkpt>
      <trkpt lat="48.84246" lon="-0.55428">
        <ele>101.6</ele>
        <time>2014-04-01T13:09:50Z</time>
      </trkpt>
      <trkpt lat="48.84266" lon="-0.55402">
        <ele>101.4</ele>
        <time>2014-04-01T13:09:57Z</time>
      </trkpt>
      <trkpt lat="48.84269" lon="-0.55397">
        <ele>101.2</ele>
        <time>2014-04-01T13:09:58Z</time>
      </trkpt>
      <trkpt lat="48.84272" lon="-0.55392">
        <ele>101</ele>
        <time>2014-04-01T13:09:59Z</time>
      </trkpt>
      <trkpt lat="48.84274" lon="-0.55387">
        <ele>100.8</ele>
        <time>2014-04-01T13:10:00Z</time>
      </trkpt>
      <trkpt lat="48.84275" lon="-0.55381">
        <ele>100.6</ele>
        <time>2014-04-01T13:10:01Z</time>
      </trkpt>
      <trkpt lat="48.84275" lon="-0.55376">
        <ele>100.4</ele>
        <time>2014-04-01T13:10:02Z</time>
      </trkpt>
      <trkpt lat="48.84274" lon="-0.5537">
        <ele>100.2</ele>
        <time>2014-04-01T13:10:03Z</time>
      </trkpt>
      <trkpt lat="48.84274" lon="-0.55364">
        <ele>100</ele>
        <time>2014-04-01T13:10:04Z</time>
      </trkpt>
      <trkpt lat="48.84273" lon="-0.55358">
        <ele>100</ele>
        <time>2014-04-01T13:10:05Z</time>
      </trkpt>
      <trkpt lat="48.84272" lon="-0.55353">
        <ele>99.8</ele>
        <time>2014-04-01T13:10:06Z</time>
      </trkpt>
      <trkpt lat="48.84261" lon="-0.55291">
        <ele>99.8</ele>
        <time>2014-04-01T13:10:18Z</time>
      </trkpt>
      <trkpt lat="48.84246" lon="-0.55242">
        <ele>100.2</ele>
        <time>2014-04-01T13:10:31Z</time>
      </trkpt>
      <trkpt lat="48.84218" lon="-0.55207">
        <ele>102.2</ele>
        <time>2014-04-01T13:10:48Z</time>
      </trkpt>
      <trkpt lat="48.84207" lon="-0.55195">
        <ele>104</ele>
        <time>2014-04-01T13:10:58Z</time>
      </trkpt>
      <trkpt lat="48.84195" lon="-0.55176">
        <ele>105.2</ele>
        <time>2014-04-01T13:11:07Z</time>
      </trkpt>
      <trkpt lat="48.84194" lon="-0.55173">
        <ele>105.4</ele>
        <time>2014-04-01T13:11:08Z</time>
      </trkpt>
      <trkpt lat="48.84193" lon="-0.5517">
        <ele>105.6</ele>
        <time>2014-04-01T13:11:09Z</time>
      </trkpt>
      <trkpt lat="48.84192" lon="-0.55167">
        <ele>105.8</ele>
        <time>2014-04-01T13:11:10Z</time>
      </trkpt>
      <trkpt lat="48.84191" lon="-0.55164">
        <ele>106</ele>
        <time>2014-04-01T13:11:11Z</time>
      </trkpt>
      <trkpt lat="48.84181" lon="-0.55128">
        <ele>109.2</ele>
        <time>2014-04-01T13:11:21Z</time>
      </trkpt>
      <trkpt lat="48.84173" lon="-0.55098">
        <ele>112.6</ele>
        <time>2014-04-01T13:11:29Z</time>
      </trkpt>
      <trkpt lat="48.84164" lon="-0.55097">
        <ele>114</ele>
        <time>2014-04-01T13:11:34Z</time>
      </trkpt>
      <trkpt lat="48.84142" lon="-0.55134">
        <ele>115.6</ele>
        <time>2014-04-01T13:11:46Z</time>
      </trkpt>
      <trkpt lat="48.84127" lon="-0.55165">
        <ele>117</ele>
        <time>2014-04-01T13:11:55Z</time>
      </trkpt>
      <trkpt lat="48.84125" lon="-0.55168">
        <ele>117</ele>
        <time>2014-04-01T13:11:56Z</time>
      </trkpt>
      <trkpt lat="48.84123" lon="-0.55171">
        <ele>117.2</ele>
        <time>2014-04-01T13:11:57Z</time>
      </trkpt>
      <trkpt lat="48.841" lon="-0.55203">
        <ele>117</ele>
        <time>2014-04-01T13:12:06Z</time>
      </trkpt>
      <trkpt lat="48.84085" lon="-0.55218">
        <ele>116.4</ele>
        <time>2014-04-01T13:12:10Z</time>
      </trkpt>
      <trkpt lat="48.84038" lon="-0.55243">
        <ele>115.6</ele>
        <time>2014-04-01T13:12:22Z</time>
      </trkpt>
      <trkpt lat="48.83995" lon="-0.55279">
        <ele>116.4</ele>
        <time>2014-04-01T13:12:35Z</time>
      </trkpt>
      <trkpt lat="48.83932" lon="-0.55296">
        <ele>118.2</ele>
        <time>2014-04-01T13:12:52Z</time>
      </trkpt>
      <trkpt lat="48.83905" lon="-0.55264">
        <ele>120.4</ele>
        <time>2014-04-01T13:13:02Z</time>
      </trkpt>
      <trkpt lat="48.83896" lon="-0.55256">
        <ele>121.4</ele>
        <time>2014-04-01T13:13:07Z</time>
      </trkpt>
      <trkpt lat="48.83894" lon="-0.55256">
        <ele>121.8</ele>
        <time>2014-04-01T13:13:08Z</time>
      </trkpt>
      <trkpt lat="48.83892" lon="-0.55257">
        <ele>122</ele>
        <time>2014-04-01T13:13:09Z</time>
      </trkpt>
      <trkpt lat="48.8389" lon="-0.55258">
        <ele>122.2</ele>
        <time>2014-04-01T13:13:10Z</time>
      </trkpt>
      <trkpt lat="48.83888" lon="-0.5526">
        <ele>122.6</ele>
        <time>2014-04-01T13:13:11Z</time>
      </trkpt>
      <trkpt lat="48.83886" lon="-0.55263">
        <ele>122.6</ele>
        <time>2014-04-01T13:13:12Z</time>
      </trkpt>
      <trkpt lat="48.83884" lon="-0.55266">
        <ele>122.8</ele>
        <time>2014-04-01T13:13:13Z</time>
      </trkpt>
      <trkpt lat="48.83882" lon="-0.55269">
        <ele>122.8</ele>
        <time>2014-04-01T13:13:14Z</time>
      </trkpt>
      <trkpt lat="48.83839" lon="-0.55322">
        <ele>122</ele>
        <time>2014-04-01T13:13:31Z</time>
      </trkpt>
      <trkpt lat="48.83797" lon="-0.55379">
        <ele>120.4</ele>
        <time>2014-04-01T13:13:45Z</time>
      </trkpt>
      <trkpt lat="48.83767" lon="-0.5542">
        <ele>119.6</ele>
        <time>2014-04-01T13:13:54Z</time>
      </trkpt>
      <trkpt lat="48.837" lon="-0.55489">
        <ele>117.4</ele>
        <time>2014-04-01T13:14:11Z</time>
      </trkpt>
      <trkpt lat="48.83693" lon="-0.55497">
        <ele>117</ele>
        <time>2014-04-01T13:14:13Z</time>
      </trkpt>
      <trkpt lat="48.83689" lon="-0.555">
        <ele>116.8</ele>
        <time>2014-04-01T13:14:14Z</time>
      </trkpt>
      <trkpt lat="48.83684" lon="-0.55501">
        <ele>116.8</ele>
        <time>2014-04-01T13:14:15Z</time>
      </trkpt>
      <trkpt lat="48.83649" lon="-0.55497">
        <ele>117.2</ele>
        <time>2014-04-01T13:14:27Z</time>
      </trkpt>
      <trkpt lat="48.83648" lon="-0.55494">
        <ele>117.6</ele>
        <time>2014-04-01T13:14:28Z</time>
      </trkpt>
      <trkpt lat="48.83647" lon="-0.5549">
        <ele>117.8</ele>
        <time>2014-04-01T13:14:29Z</time>
      </trkpt>
      <trkpt lat="48.83646" lon="-0.55487">
        <ele>118</ele>
        <time>2014-04-01T13:14:30Z</time>
      </trkpt>
      <trkpt lat="48.83645" lon="-0.55484">
        <ele>118.4</ele>
        <time>2014-04-01T13:14:31Z</time>
      </trkpt>
      <trkpt lat="48.83644" lon="-0.55481">
        <ele>118.6</ele>
        <time>2014-04-01T13:14:32Z</time>
      </trkpt>
      <trkpt lat="48.83643" lon="-0.55479">
        <ele>119</ele>
        <time>2014-04-01T13:14:33Z</time>
      </trkpt>
      <trkpt lat="48.83642" lon="-0.55476">
        <ele>119.2</ele>
        <time>2014-04-01T13:14:34Z</time>
      </trkpt>
      <trkpt lat="48.83641" lon="-0.55473">
        <ele>119.6</ele>
        <time>2014-04-01T13:14:35Z</time>
      </trkpt>
      <trkpt lat="48.8364" lon="-0.5547">
        <ele>119.8</ele>
        <time>2014-04-01T13:14:36Z</time>
      </trkpt>
      <trkpt lat="48.83626" lon="-0.55427">
        <ele>122.8</ele>
        <time>2014-04-01T13:14:49Z</time>
      </trkpt>
      <trkpt lat="48.83621" lon="-0.55411">
        <ele>124.6</ele>
        <time>2014-04-01T13:14:54Z</time>
      </trkpt>
      <trkpt lat="48.8362" lon="-0.55409">
        <ele>124.8</ele>
        <time>2014-04-01T13:14:55Z</time>
      </trkpt>
      <trkpt lat="48.83618" lon="-0.55406">
        <ele>125.2</ele>
        <time>2014-04-01T13:14:56Z</time>
      </trkpt>
      <trkpt lat="48.83617" lon="-0.55403">
        <ele>125.4</ele>
        <time>2014-04-01T13:14:57Z</time>
      </trkpt>
      <trkpt lat="48.83615" lon="-0.554">
        <ele>125.8</ele>
        <time>2014-04-01T13:14:58Z</time>
      </trkpt>
      <trkpt lat="48.83614" lon="-0.55398">
        <ele>126</ele>
        <time>2014-04-01T13:14:59Z</time>
      </trkpt>
      <trkpt lat="48.83613" lon="-0.55395">
        <ele>126.4</ele>
        <time>2014-04-01T13:15:00Z</time>
      </trkpt>
      <trkpt lat="48.83612" lon="-0.55392">
        <ele>126.6</ele>
        <time>2014-04-01T13:15:01Z</time>
      </trkpt>
      <trkpt lat="48.83596" lon="-0.55362">
        <ele>129.6</ele>
        <time>2014-04-01T13:15:10Z</time>
      </trkpt>
      <trkpt lat="48.83586" lon="-0.5534">
        <ele>132.2</ele>
        <time>2014-04-01T13:15:16Z</time>
      </trkpt>
      <trkpt lat="48.83577" lon="-0.55314">
        <ele>135.2</ele>
        <time>2014-04-01T13:15:23Z</time>
      </trkpt>
      <trkpt lat="48.83567" lon="-0.55279">
        <ele>138.2</ele>
        <time>2014-04-01T13:15:33Z</time>
      </trkpt>
      <trkpt lat="48.83553" lon="-0.55231">
        <ele>140.6</ele>
        <time>2014-04-01T13:15:48Z</time>
      </trkpt>
      <trkpt lat="48.8354" lon="-0.55187">
        <ele>142.2</ele>
        <time>2014-04-01T13:16:02Z</time>
      </trkpt>
      <trkpt lat="48.83525" lon="-0.55133">
        <ele>144.4</ele>
        <time>2014-04-01T13:16:19Z</time>
      </trkpt>
      <trkpt lat="48.83515" lon="-0.55088">
        <ele>147</ele>
        <time>2014-04-01T13:16:34Z</time>
      </trkpt>
      <trkpt lat="48.83507" lon="-0.55041">
        <ele>149.6</ele>
        <time>2014-04-01T13:16:50Z</time>
      </trkpt>
      <trkpt lat="48.835" lon="-0.54996">
        <ele>151.8</ele>
        <time>2014-04-01T13:17:04Z</time>
      </trkpt>
      <trkpt lat="48.83488" lon="-0.54937">
        <ele>153.8</ele>
        <time>2014-04-01T13:17:22Z</time>
      </trkpt>
      <trkpt lat="48.83472" lon="-0.54889">
        <ele>155.6</ele>
        <time>2014-04-01T13:17:37Z</time>
      </trkpt>
      <trkpt lat="48.83464" lon="-0.54852">
        <ele>158.6</ele>
        <time>2014-04-01T13:17:50Z</time>
      </trkpt>
      <trkpt lat="48.83453" lon="-0.54817">
        <ele>161.2</ele>
        <time>2014-04-01T13:18:04Z</time>
      </trkpt>
      <trkpt lat="48.8344" lon="-0.54788">
        <ele>164.4</ele>
        <time>2014-04-01T13:18:17Z</time>
      </trkpt>
      <trkpt lat="48.83429" lon="-0.54758">
        <ele>167.6</ele>
        <time>2014-04-01T13:18:30Z</time>
      </trkpt>
      <trkpt lat="48.83428" lon="-0.54748">
        <ele>169.2</ele>
        <time>2014-04-01T13:18:34Z</time>
      </trkpt>
      <trkpt lat="48.83447" lon="-0.54711">
        <ele>171.2</ele>
        <time>2014-04-01T13:18:48Z</time>
      </trkpt>
      <trkpt lat="48.83471" lon="-0.54668">
        <ele>171.8</ele>
        <time>2014-04-01T13:19:01Z</time>
      </trkpt>
      <trkpt lat="48.83507" lon="-0.54636">
        <ele>173.2</ele>
        <time>2014-04-01T13:19:17Z</time>
      </trkpt>
      <trkpt lat="48.83544" lon="-0.54635">
        <ele>174.4</ele>
        <time>2014-04-01T13:19:31Z</time>
      </trkpt>
      <trkpt lat="48.83561" lon="-0.54574">
        <ele>175.2</ele>
        <time>2014-04-01T13:19:47Z</time>
      </trkpt>
      <trkpt lat="48.83586" lon="-0.54527">
        <ele>176.4</ele>
        <time>2014-04-01T13:20:02Z</time>
      </trkpt>
      <trkpt lat="48.83611" lon="-0.54536">
        <ele>176</ele>
        <time>2014-04-01T13:20:09Z</time>
      </trkpt>
      <trkpt lat="48.83613" lon="-0.54534">
        <ele>176</ele>
        <time>2014-04-01T13:20:10Z</time>
      </trkpt>
      <trkpt lat="48.83615" lon="-0.5453">
        <ele>175.6</ele>
        <time>2014-04-01T13:20:11Z</time>
      </trkpt>
      <trkpt lat="48.83616" lon="-0.54526">
        <ele>175.6</ele>
        <time>2014-04-01T13:20:12Z</time>
      </trkpt>
      <trkpt lat="48.83616" lon="-0.54522">
        <ele>175.4</ele>
        <time>2014-04-01T13:20:13Z</time>
      </trkpt>
      <trkpt lat="48.83613" lon="-0.5452">
        <ele>175.4</ele>
        <time>2014-04-01T13:20:14Z</time>
      </trkpt>
      <trkpt lat="48.83611" lon="-0.54518">
        <ele>175.2</ele>
        <time>2014-04-01T13:20:15Z</time>
      </trkpt>
      <trkpt lat="48.83608" lon="-0.54516">
        <ele>175.2</ele>
        <time>2014-04-01T13:20:16Z</time>
      </trkpt>
      <trkpt lat="48.83559" lon="-0.54491">
        <ele>175.2</ele>
        <time>2014-04-01T13:20:30Z</time>
      </trkpt>
      <trkpt lat="48.83532" lon="-0.5448">
        <ele>175</ele>
        <time>2014-04-01T13:20:37Z</time>
      </trkpt>
      <trkpt lat="48.83527" lon="-0.54478">
        <ele>174.8</ele>
        <time>2014-04-01T13:20:38Z</time>
      </trkpt>
      <trkpt lat="48.83457" lon="-0.54467">
        <ele>174</ele>
        <time>2014-04-01T13:20:53Z</time>
      </trkpt>
      <trkpt lat="48.8339" lon="-0.5446">
        <ele>174.4</ele>
        <time>2014-04-01T13:21:10Z</time>
      </trkpt>
      <trkpt lat="48.83373" lon="-0.54457">
        <ele>174.4</ele>
        <time>2014-04-01T13:21:18Z</time>
      </trkpt>
      <trkpt lat="48.83373" lon="-0.54455">
        <ele>174.4</ele>
        <time>2014-04-01T13:21:19Z</time>
      </trkpt>
      <trkpt lat="48.83374" lon="-0.54453">
        <ele>174.6</ele>
        <time>2014-04-01T13:21:20Z</time>
      </trkpt>
      <trkpt lat="48.83375" lon="-0.54449">
        <ele>174.4</ele>
        <time>2014-04-01T13:21:21Z</time>
      </trkpt>
      <trkpt lat="48.83377" lon="-0.54445">
        <ele>174.4</ele>
        <time>2014-04-01T13:21:22Z</time>
      </trkpt>
      <trkpt lat="48.83378" lon="-0.54441">
        <ele>174.4</ele>
        <time>2014-04-01T13:21:23Z</time>
      </trkpt>
      <trkpt lat="48.8338" lon="-0.54436">
        <ele>174.4</ele>
        <time>2014-04-01T13:21:24Z</time>
      </trkpt>
      <trkpt lat="48.83406" lon="-0.54383">
        <ele>173.8</ele>
        <time>2014-04-01T13:21:35Z</time>
      </trkpt>
      <trkpt lat="48.83409" lon="-0.54378">
        <ele>173.8</ele>
        <time>2014-04-01T13:21:36Z</time>
      </trkpt>
      <trkpt lat="48.83454" lon="-0.54304">
        <ele>172.8</ele>
        <time>2014-04-01T13:21:50Z</time>
      </trkpt>
      <trkpt lat="48.83458" lon="-0.54299">
        <ele>172.8</ele>
        <time>2014-04-01T13:21:51Z</time>
      </trkpt>
      <trkpt lat="48.83461" lon="-0.54295">
        <ele>172.6</ele>
        <time>2014-04-01T13:21:52Z</time>
      </trkpt>
      <trkpt lat="48.83464" lon="-0.5429">
        <ele>172.6</ele>
        <time>2014-04-01T13:21:53Z</time>
      </trkpt>
      <trkpt lat="48.83468" lon="-0.54285">
        <ele>172.6</ele>
        <time>2014-04-01T13:21:54Z</time>
      </trkpt>
      <trkpt lat="48.83471" lon="-0.54281">
        <ele>172.6</ele>
        <time>2014-04-01T13:21:55Z</time>
      </trkpt>
      <trkpt lat="48.83474" lon="-0.54276">
        <ele>172.6</ele>
        <time>2014-04-01T13:21:56Z</time>
      </trkpt>
      <trkpt lat="48.83478" lon="-0.54271">
        <ele>172.6</ele>
        <time>2014-04-01T13:21:57Z</time>
      </trkpt>
      <trkpt lat="48.83482" lon="-0.54266">
        <ele>172.6</ele>
        <time>2014-04-01T13:21:58Z</time>
      </trkpt>
      <trkpt lat="48.83503" lon="-0.54233">
        <ele>172</ele>
        <time>2014-04-01T13:22:04Z</time>
      </trkpt>
      <trkpt lat="48.83508" lon="-0.54222">
        <ele>171.8</ele>
        <time>2014-04-01T13:22:06Z</time>
      </trkpt>
      <trkpt lat="48.83511" lon="-0.54217">
        <ele>171.6</ele>
        <time>2014-04-01T13:22:07Z</time>
      </trkpt>
      <trkpt lat="48.83527" lon="-0.54188">
        <ele>170.8</ele>
        <time>2014-04-01T13:22:12Z</time>
      </trkpt>
      <trkpt lat="48.83534" lon="-0.54176">
        <ele>170.2</ele>
        <time>2014-04-01T13:22:14Z</time>
      </trkpt>
      <trkpt lat="48.83537" lon="-0.5417">
        <ele>169.8</ele>
        <time>2014-04-01T13:22:15Z</time>
      </trkpt>
      <trkpt lat="48.83544" lon="-0.54157">
        <ele>169.4</ele>
        <time>2014-04-01T13:22:17Z</time>
      </trkpt>
      <trkpt lat="48.83571" lon="-0.54112">
        <ele>168.2</ele>
        <time>2014-04-01T13:22:23Z</time>
      </trkpt>
      <trkpt lat="48.83575" lon="-0.54104">
        <ele>168</ele>
        <time>2014-04-01T13:22:24Z</time>
      </trkpt>
      <trkpt lat="48.83579" lon="-0.54095">
        <ele>167.8</ele>
        <time>2014-04-01T13:22:25Z</time>
      </trkpt>
      <trkpt lat="48.83589" lon="-0.54073">
        <ele>167.2</ele>
        <time>2014-04-01T13:22:28Z</time>
      </trkpt>
      <trkpt lat="48.83593" lon="-0.54066">
        <ele>167</ele>
        <time>2014-04-01T13:22:29Z</time>
      </trkpt>
      <trkpt lat="48.83597" lon="-0.54058">
        <ele>166.8</ele>
        <time>2014-04-01T13:22:30Z</time>
      </trkpt>
      <trkpt lat="48.83608" lon="-0.54041">
        <ele>166.2</ele>
        <time>2014-04-01T13:22:33Z</time>
      </trkpt>
      <trkpt lat="48.83613" lon="-0.54034">
        <ele>166</ele>
        <time>2014-04-01T13:22:34Z</time>
      </trkpt>
      <trkpt lat="48.83635" lon="-0.54007">
        <ele>165.4</ele>
        <time>2014-04-01T13:22:39Z</time>
      </trkpt>
      <trkpt lat="48.8364" lon="-0.54003">
        <ele>165.2</ele>
        <time>2014-04-01T13:22:40Z</time>
      </trkpt>
      <trkpt lat="48.83645" lon="-0.54">
        <ele>165</ele>
        <time>2014-04-01T13:22:41Z</time>
      </trkpt>
      <trkpt lat="48.8365" lon="-0.53999">
        <ele>164.8</ele>
        <time>2014-04-01T13:22:42Z</time>
      </trkpt>
      <trkpt lat="48.83656" lon="-0.53999">
        <ele>164.6</ele>
        <time>2014-04-01T13:22:43Z</time>
      </trkpt>
      <trkpt lat="48.83672" lon="-0.53997">
        <ele>163.8</ele>
        <time>2014-04-01T13:22:46Z</time>
      </trkpt>
      <trkpt lat="48.83678" lon="-0.53995">
        <ele>163.6</ele>
        <time>2014-04-01T13:22:47Z</time>
      </trkpt>
      <trkpt lat="48.83683" lon="-0.53993">
        <ele>163.4</ele>
        <time>2014-04-01T13:22:48Z</time>
      </trkpt>
      <trkpt lat="48.83687" lon="-0.53989">
        <ele>163.2</ele>
        <time>2014-04-01T13:22:49Z</time>
      </trkpt>
      <trkpt lat="48.83692" lon="-0.53985">
        <ele>162.8</ele>
        <time>2014-04-01T13:22:50Z</time>
      </trkpt>
      <trkpt lat="48.83696" lon="-0.5398">
        <ele>162.6</ele>
        <time>2014-04-01T13:22:51Z</time>
      </trkpt>
      <trkpt lat="48.837" lon="-0.53974">
        <ele>162.2</ele>
        <time>2014-04-01T13:22:52Z</time>
      </trkpt>
      <trkpt lat="48.83703" lon="-0.53969">
        <ele>162</ele>
        <time>2014-04-01T13:22:53Z</time>
      </trkpt>
      <trkpt lat="48.83706" lon="-0.53964">
        <ele>161.8</ele>
        <time>2014-04-01T13:22:54Z</time>
      </trkpt>
      <trkpt lat="48.83707" lon="-0.53958">
        <ele>161.8</ele>
        <time>2014-04-01T13:22:55Z</time>
      </trkpt>
      <trkpt lat="48.83709" lon="-0.53953">
        <ele>161.6</ele>
        <time>2014-04-01T13:22:56Z</time>
      </trkpt>
      <trkpt lat="48.83711" lon="-0.53946">
        <ele>161.6</ele>
        <time>2014-04-01T13:22:57Z</time>
      </trkpt>
      <trkpt lat="48.83712" lon="-0.5394">
        <ele>161.4</ele>
        <time>2014-04-01T13:22:58Z</time>
      </trkpt>
      <trkpt lat="48.83713" lon="-0.53933">
        <ele>161.4</ele>
        <time>2014-04-01T13:22:59Z</time>
      </trkpt>
      <trkpt lat="48.83714" lon="-0.53926">
        <ele>161.4</ele>
        <time>2014-04-01T13:23:00Z</time>
      </trkpt>
      <trkpt lat="48.83715" lon="-0.53919">
        <ele>161.4</ele>
        <time>2014-04-01T13:23:01Z</time>
      </trkpt>
      <trkpt lat="48.83715" lon="-0.53911">
        <ele>161.2</ele>
        <time>2014-04-01T13:23:02Z</time>
      </trkpt>
      <trkpt lat="48.83715" lon="-0.53903">
        <ele>161.2</ele>
        <time>2014-04-01T13:23:03Z</time>
      </trkpt>
      <trkpt lat="48.83714" lon="-0.53881">
        <ele>161</ele>
        <time>2014-04-01T13:23:06Z</time>
      </trkpt>
      <trkpt lat="48.83712" lon="-0.53874">
        <ele>161</ele>
        <time>2014-04-01T13:23:07Z</time>
      </trkpt>
      <trkpt lat="48.83683" lon="-0.53818">
        <ele>164.2</ele>
        <time>2014-04-01T13:23:18Z</time>
      </trkpt>
      <trkpt lat="48.83656" lon="-0.53786">
        <ele>167.6</ele>
        <time>2014-04-01T13:23:29Z</time>
      </trkpt>
      <trkpt lat="48.83635" lon="-0.53763">
        <ele>170.6</ele>
        <time>2014-04-01T13:23:39Z</time>
      </trkpt>
      <trkpt lat="48.83605" lon="-0.53731">
        <ele>173.6</ele>
        <time>2014-04-01T13:23:49Z</time>
      </trkpt>
      <trkpt lat="48.83581" lon="-0.53706">
        <ele>177</ele>
        <time>2014-04-01T13:23:57Z</time>
      </trkpt>
      <trkpt lat="48.83558" lon="-0.53683">
        <ele>180.2</ele>
        <time>2014-04-01T13:24:06Z</time>
      </trkpt>
      <trkpt lat="48.83531" lon="-0.53664">
        <ele>183.4</ele>
        <time>2014-04-01T13:24:16Z</time>
      </trkpt>
      <trkpt lat="48.83514" lon="-0.53646">
        <ele>186.4</ele>
        <time>2014-04-01T13:24:24Z</time>
      </trkpt>
      <trkpt lat="48.83495" lon="-0.53589">
        <ele>189.4</ele>
        <time>2014-04-01T13:24:39Z</time>
      </trkpt>
      <trkpt lat="48.83488" lon="-0.53559">
        <ele>191.2</ele>
        <time>2014-04-01T13:24:46Z</time>
      </trkpt>
      <trkpt lat="48.83488" lon="-0.53555">
        <ele>191.4</ele>
        <time>2014-04-01T13:24:47Z</time>
      </trkpt>
      <trkpt lat="48.83487" lon="-0.53552">
        <ele>191.6</ele>
        <time>2014-04-01T13:24:48Z</time>
      </trkpt>
      <trkpt lat="48.8348" lon="-0.53502">
        <ele>193.8</ele>
        <time>2014-04-01T13:24:59Z</time>
      </trkpt>
      <trkpt lat="48.83482" lon="-0.5347">
        <ele>195.4</ele>
        <time>2014-04-01T13:25:06Z</time>
      </trkpt>
      <trkpt lat="48.83482" lon="-0.53465">
        <ele>195.6</ele>
        <time>2014-04-01T13:25:07Z</time>
      </trkpt>
      <trkpt lat="48.8349" lon="-0.53415">
        <ele>198.4</ele>
        <time>2014-04-01T13:25:17Z</time>
      </trkpt>
      <trkpt lat="48.83494" lon="-0.53383">
        <ele>199.6</ele>
        <time>2014-04-01T13:25:22Z</time>
      </trkpt>
      <trkpt lat="48.83495" lon="-0.53376">
        <ele>199.8</ele>
        <time>2014-04-01T13:25:23Z</time>
      </trkpt>
      <trkpt lat="48.83496" lon="-0.53369">
        <ele>200.2</ele>
        <time>2014-04-01T13:25:24Z</time>
      </trkpt>
      <trkpt lat="48.83497" lon="-0.53362">
        <ele>200.6</ele>
        <time>2014-04-01T13:25:25Z</time>
      </trkpt>
      <trkpt lat="48.83497" lon="-0.53356">
        <ele>200.8</ele>
        <time>2014-04-01T13:25:26Z</time>
      </trkpt>
      <trkpt lat="48.83498" lon="-0.53349">
        <ele>201</ele>
        <time>2014-04-01T13:25:27Z</time>
      </trkpt>
      <trkpt lat="48.83491" lon="-0.53309">
        <ele>203.6</ele>
        <time>2014-04-01T13:25:34Z</time>
      </trkpt>
      <trkpt lat="48.8348" lon="-0.53262">
        <ele>206.8</ele>
        <time>2014-04-01T13:25:44Z</time>
      </trkpt>
      <trkpt lat="48.83473" lon="-0.53209">
        <ele>209.8</ele>
        <time>2014-04-01T13:25:54Z</time>
      </trkpt>
      <trkpt lat="48.83468" lon="-0.53161">
        <ele>213</ele>
        <time>2014-04-01T13:26:05Z</time>
      </trkpt>
      <trkpt lat="48.83466" lon="-0.53143">
        <ele>213.8</ele>
        <time>2014-04-01T13:26:09Z</time>
      </trkpt>
      <trkpt lat="48.83461" lon="-0.53115">
        <ele>215</ele>
        <time>2014-04-01T13:26:15Z</time>
      </trkpt>
      <trkpt lat="48.83448" lon="-0.53058">
        <ele>217</ele>
        <time>2014-04-01T13:26:27Z</time>
      </trkpt>
      <trkpt lat="48.83437" lon="-0.52991">
        <ele>219.6</ele>
        <time>2014-04-01T13:26:40Z</time>
      </trkpt>
      <trkpt lat="48.83431" lon="-0.5296">
        <ele>219.8</ele>
        <time>2014-04-01T13:26:46Z</time>
      </trkpt>
      <trkpt lat="48.83427" lon="-0.5294">
        <ele>219.6</ele>
        <time>2014-04-01T13:26:50Z</time>
      </trkpt>
      <trkpt lat="48.83416" lon="-0.52872">
        <ele>218.6</ele>
        <time>2014-04-01T13:27:03Z</time>
      </trkpt>
      <trkpt lat="48.83416" lon="-0.52852">
        <ele>217.8</ele>
        <time>2014-04-01T13:27:08Z</time>
      </trkpt>
      <trkpt lat="48.83415" lon="-0.52847">
        <ele>217.6</ele>
        <time>2014-04-01T13:27:14Z</time>
      </trkpt>
      <trkpt lat="48.83397" lon="-0.52841">
        <ele>217.4</ele>
        <time>2014-04-01T13:28:01Z</time>
      </trkpt>
      <trkpt lat="48.83394" lon="-0.52843">
        <ele>217.4</ele>
        <time>2014-04-01T13:28:02Z</time>
      </trkpt>
      <trkpt lat="48.8339" lon="-0.52845">
        <ele>217.4</ele>
        <time>2014-04-01T13:28:03Z</time>
      </trkpt>
      <trkpt lat="48.83387" lon="-0.52847">
        <ele>217.4</ele>
        <time>2014-04-01T13:28:04Z</time>
      </trkpt>
      <trkpt lat="48.83367" lon="-0.52857">
        <ele>218.2</ele>
        <time>2014-04-01T13:28:13Z</time>
      </trkpt>
      <trkpt lat="48.83343" lon="-0.52849">
        <ele>218</ele>
        <time>2014-04-01T13:28:26Z</time>
      </trkpt>
      <trkpt lat="48.83304" lon="-0.52843">
        <ele>217.8</ele>
        <time>2014-04-01T13:28:38Z</time>
      </trkpt>
      <trkpt lat="48.83263" lon="-0.52852">
        <ele>218.2</ele>
        <time>2014-04-01T13:28:49Z</time>
      </trkpt>
      <trkpt lat="48.8322" lon="-0.52875">
        <ele>218.2</ele>
        <time>2014-04-01T13:29:01Z</time>
      </trkpt>
      <trkpt lat="48.8318" lon="-0.52898">
        <ele>218</ele>
        <time>2014-04-01T13:29:13Z</time>
      </trkpt>
      <trkpt lat="48.83147" lon="-0.52916">
        <ele>217.8</ele>
        <time>2014-04-01T13:29:24Z</time>
      </trkpt>
      <trkpt lat="48.83112" lon="-0.52931">
        <ele>217</ele>
        <time>2014-04-01T13:29:36Z</time>
      </trkpt>
      <trkpt lat="48.8307" lon="-0.52949">
        <ele>215.2</ele>
        <time>2014-04-01T13:29:49Z</time>
      </trkpt>
      <trkpt lat="48.83033" lon="-0.52981">
        <ele>214</ele>
        <time>2014-04-01T13:29:58Z</time>
      </trkpt>
      <trkpt lat="48.83008" lon="-0.53016">
        <ele>212.2</ele>
        <time>2014-04-01T13:30:04Z</time>
      </trkpt>
      <trkpt lat="48.82996" lon="-0.53036">
        <ele>210.8</ele>
        <time>2014-04-01T13:30:07Z</time>
      </trkpt>
      <trkpt lat="48.82974" lon="-0.53065">
        <ele>208.8</ele>
        <time>2014-04-01T13:30:13Z</time>
      </trkpt>
      <trkpt lat="48.82956" lon="-0.53102">
        <ele>208.4</ele>
        <time>2014-04-01T13:30:19Z</time>
      </trkpt>
      <trkpt lat="48.82941" lon="-0.5313">
        <ele>208.2</ele>
        <time>2014-04-01T13:30:24Z</time>
      </trkpt>
      <trkpt lat="48.82928" lon="-0.53152">
        <ele>208.2</ele>
        <time>2014-04-01T13:30:28Z</time>
      </trkpt>
      <trkpt lat="48.82914" lon="-0.53182">
        <ele>207.8</ele>
        <time>2014-04-01T13:30:33Z</time>
      </trkpt>
      <trkpt lat="48.82899" lon="-0.53206">
        <ele>207.8</ele>
        <time>2014-04-01T13:30:37Z</time>
      </trkpt>
      <trkpt lat="48.8288" lon="-0.53239">
        <ele>207.2</ele>
        <time>2014-04-01T13:30:42Z</time>
      </trkpt>
      <trkpt lat="48.82862" lon="-0.53271">
        <ele>207</ele>
        <time>2014-04-01T13:30:47Z</time>
      </trkpt>
      <trkpt lat="48.82856" lon="-0.53283">
        <ele>207</ele>
        <time>2014-04-01T13:30:49Z</time>
      </trkpt>
      <trkpt lat="48.82833" lon="-0.53325">
        <ele>208</ele>
        <time>2014-04-01T13:30:57Z</time>
      </trkpt>
      <trkpt lat="48.8281" lon="-0.53363">
        <ele>211.2</ele>
        <time>2014-04-01T13:31:07Z</time>
      </trkpt>
      <trkpt lat="48.8279" lon="-0.53394">
        <ele>213.6</ele>
        <time>2014-04-01T13:31:16Z</time>
      </trkpt>
      <trkpt lat="48.82766" lon="-0.53437">
        <ele>215.2</ele>
        <time>2014-04-01T13:31:26Z</time>
      </trkpt>
      <trkpt lat="48.82737" lon="-0.53495">
        <ele>217.2</ele>
        <time>2014-04-01T13:31:39Z</time>
      </trkpt>
      <trkpt lat="48.82726" lon="-0.5354">
        <ele>218.6</ele>
        <time>2014-04-01T13:31:49Z</time>
      </trkpt>
      <trkpt lat="48.8274" lon="-0.5359">
        <ele>221.2</ele>
        <time>2014-04-01T13:32:02Z</time>
      </trkpt>
      <trkpt lat="48.8274" lon="-0.53636">
        <ele>222.4</ele>
        <time>2014-04-01T13:32:12Z</time>
      </trkpt>
      <trkpt lat="48.82731" lon="-0.53649">
        <ele>222.4</ele>
        <time>2014-04-01T13:32:15Z</time>
      </trkpt>
      <trkpt lat="48.82701" lon="-0.53695">
        <ele>221.4</ele>
        <time>2014-04-01T13:32:27Z</time>
      </trkpt>
      <trkpt lat="48.82698" lon="-0.537">
        <ele>221.2</ele>
        <time>2014-04-01T13:32:28Z</time>
      </trkpt>
      <trkpt lat="48.8266" lon="-0.53746">
        <ele>221.4</ele>
        <time>2014-04-01T13:32:40Z</time>
      </trkpt>
      <trkpt lat="48.82656" lon="-0.53748">
        <ele>221.6</ele>
        <time>2014-04-01T13:32:41Z</time>
      </trkpt>
      <trkpt lat="48.82623" lon="-0.53801">
        <ele>222.6</ele>
        <time>2014-04-01T13:32:53Z</time>
      </trkpt>
      <trkpt lat="48.82594" lon="-0.53855">
        <ele>223.4</ele>
        <time>2014-04-01T13:33:05Z</time>
      </trkpt>
      <trkpt lat="48.82592" lon="-0.53864">
        <ele>223.4</ele>
        <time>2014-04-01T13:33:07Z</time>
      </trkpt>
      <trkpt lat="48.8262" lon="-0.53895">
        <ele>223.4</ele>
        <time>2014-04-01T13:33:16Z</time>
      </trkpt>
      <trkpt lat="48.82632" lon="-0.53906">
        <ele>223.4</ele>
        <time>2014-04-01T13:33:19Z</time>
      </trkpt>
      <trkpt lat="48.82652" lon="-0.53923">
        <ele>223.4</ele>
        <time>2014-04-01T13:33:24Z</time>
      </trkpt>
      <trkpt lat="48.82707" lon="-0.53958">
        <ele>224.4</ele>
        <time>2014-04-01T13:33:37Z</time>
      </trkpt>
      <trkpt lat="48.8271" lon="-0.53961">
        <ele>224.6</ele>
        <time>2014-04-01T13:33:38Z</time>
      </trkpt>
      <trkpt lat="48.82754" lon="-0.53985">
        <ele>225.6</ele>
        <time>2014-04-01T13:33:49Z</time>
      </trkpt>
      <trkpt lat="48.82784" lon="-0.53997">
        <ele>225.8</ele>
        <time>2014-04-01T13:33:55Z</time>
      </trkpt>
      <trkpt lat="48.82822" lon="-0.54015">
        <ele>225.6</ele>
        <time>2014-04-01T13:34:02Z</time>
      </trkpt>
      <trkpt lat="48.82889" lon="-0.54054">
        <ele>224.4</ele>
        <time>2014-04-01T13:34:17Z</time>
      </trkpt>
      <trkpt lat="48.82899" lon="-0.54061">
        <ele>223.8</ele>
        <time>2014-04-01T13:34:20Z</time>
      </trkpt>
      <trkpt lat="48.82932" lon="-0.54081">
        <ele>221.6</ele>
        <time>2014-04-01T13:34:29Z</time>
      </trkpt>
      <trkpt lat="48.82935" lon="-0.54088">
        <ele>221</ele>
        <time>2014-04-01T13:34:31Z</time>
      </trkpt>
      <trkpt lat="48.82935" lon="-0.54091">
        <ele>220.6</ele>
        <time>2014-04-01T13:34:32Z</time>
      </trkpt>
      <trkpt lat="48.82935" lon="-0.54094">
        <ele>220.4</ele>
        <time>2014-04-01T13:34:33Z</time>
      </trkpt>
      <trkpt lat="48.82934" lon="-0.54098">
        <ele>220.2</ele>
        <time>2014-04-01T13:34:34Z</time>
      </trkpt>
      <trkpt lat="48.82932" lon="-0.54101">
        <ele>220</ele>
        <time>2014-04-01T13:34:35Z</time>
      </trkpt>
      <trkpt lat="48.8293" lon="-0.54105">
        <ele>219.8</ele>
        <time>2014-04-01T13:34:36Z</time>
      </trkpt>
      <trkpt lat="48.82928" lon="-0.5411">
        <ele>219.8</ele>
        <time>2014-04-01T13:34:37Z</time>
      </trkpt>
      <trkpt lat="48.82881" lon="-0.54203">
        <ele>219</ele>
        <time>2014-04-01T13:34:53Z</time>
      </trkpt>
      <trkpt lat="48.82864" lon="-0.54232">
        <ele>218.8</ele>
        <time>2014-04-01T13:34:58Z</time>
      </trkpt>
      <trkpt lat="48.82801" lon="-0.54299">
        <ele>218.2</ele>
        <time>2014-04-01T13:35:13Z</time>
      </trkpt>
      <trkpt lat="48.82741" lon="-0.54376">
        <ele>217.6</ele>
        <time>2014-04-01T13:35:29Z</time>
      </trkpt>
      <trkpt lat="48.82717" lon="-0.5442">
        <ele>217.8</ele>
        <time>2014-04-01T13:35:42Z</time>
      </trkpt>
      <trkpt lat="48.82717" lon="-0.54421">
        <ele>217.8</ele>
        <time>2014-04-01T13:35:44Z</time>
      </trkpt>
      <trkpt lat="48.82711" lon="-0.54428">
        <ele>217.8</ele>
        <time>2014-04-01T13:35:48Z</time>
      </trkpt>
      <trkpt lat="48.82671" lon="-0.54455">
        <ele>218</ele>
        <time>2014-04-01T13:35:59Z</time>
      </trkpt>
      <trkpt lat="48.82599" lon="-0.54505">
        <ele>218.6</ele>
        <time>2014-04-01T13:36:12Z</time>
      </trkpt>
      <trkpt lat="48.82524" lon="-0.54558">
        <ele>219</ele>
        <time>2014-04-01T13:36:26Z</time>
      </trkpt>
      <trkpt lat="48.82456" lon="-0.54608">
        <ele>220</ele>
        <time>2014-04-01T13:36:40Z</time>
      </trkpt>
      <trkpt lat="48.82451" lon="-0.54612">
        <ele>220.2</ele>
        <time>2014-04-01T13:36:41Z</time>
      </trkpt>
      <trkpt lat="48.8241" lon="-0.54644">
        <ele>221.2</ele>
        <time>2014-04-01T13:36:51Z</time>
      </trkpt>
      <trkpt lat="48.82399" lon="-0.54651">
        <ele>221.6</ele>
        <time>2014-04-01T13:36:54Z</time>
      </trkpt>
      <trkpt lat="48.82395" lon="-0.54653">
        <ele>221.6</ele>
        <time>2014-04-01T13:36:55Z</time>
      </trkpt>
      <trkpt lat="48.82391" lon="-0.54654">
        <ele>221.8</ele>
        <time>2014-04-01T13:36:56Z</time>
      </trkpt>
      <trkpt lat="48.82387" lon="-0.54654">
        <ele>221.8</ele>
        <time>2014-04-01T13:36:57Z</time>
      </trkpt>
      <trkpt lat="48.82382" lon="-0.54652">
        <ele>221.8</ele>
        <time>2014-04-01T13:36:58Z</time>
      </trkpt>
      <trkpt lat="48.82377" lon="-0.54649">
        <ele>221.8</ele>
        <time>2014-04-01T13:36:59Z</time>
      </trkpt>
      <trkpt lat="48.82305" lon="-0.54616">
        <ele>221</ele>
        <time>2014-04-01T13:37:13Z</time>
      </trkpt>
      <trkpt lat="48.82269" lon="-0.54606">
        <ele>221.4</ele>
        <time>2014-04-01T13:37:24Z</time>
      </trkpt>
      <trkpt lat="48.82265" lon="-0.54606">
        <ele>221.4</ele>
        <time>2014-04-01T13:37:25Z</time>
      </trkpt>
      <trkpt lat="48.82224" lon="-0.54616">
        <ele>221.4</ele>
        <time>2014-04-01T13:37:33Z</time>
      </trkpt>
      <trkpt lat="48.82198" lon="-0.54622">
        <ele>221.4</ele>
        <time>2014-04-01T13:37:38Z</time>
      </trkpt>
      <trkpt lat="48.82165" lon="-0.54626">
        <ele>221.6</ele>
        <time>2014-04-01T13:37:44Z</time>
      </trkpt>
      <trkpt lat="48.8212" lon="-0.54631">
        <ele>223.2</ele>
        <time>2014-04-01T13:37:53Z</time>
      </trkpt>
      <trkpt lat="48.82071" lon="-0.54646">
        <ele>224.2</ele>
        <time>2014-04-01T13:38:04Z</time>
      </trkpt>
      <trkpt lat="48.82047" lon="-0.54653">
        <ele>224.8</ele>
        <time>2014-04-01T13:38:09Z</time>
      </trkpt>
      <trkpt lat="48.82022" lon="-0.54659">
        <ele>224.8</ele>
        <time>2014-04-01T13:38:14Z</time>
      </trkpt>
      <trkpt lat="48.81974" lon="-0.54676">
        <ele>226.4</ele>
        <time>2014-04-01T13:38:24Z</time>
      </trkpt>
      <trkpt lat="48.81919" lon="-0.54693">
        <ele>228</ele>
        <time>2014-04-01T13:38:37Z</time>
      </trkpt>
      <trkpt lat="48.8189" lon="-0.54699">
        <ele>227.8</ele>
        <time>2014-04-01T13:38:44Z</time>
      </trkpt>
      <trkpt lat="48.8187" lon="-0.54699">
        <ele>228</ele>
        <time>2014-04-01T13:38:48Z</time>
      </trkpt>
      <trkpt lat="48.81824" lon="-0.5471">
        <ele>227</ele>
        <time>2014-04-01T13:38:57Z</time>
      </trkpt>
      <trkpt lat="48.81791" lon="-0.54715">
        <ele>227.2</ele>
        <time>2014-04-01T13:39:05Z</time>
      </trkpt>
      <trkpt lat="48.81775" lon="-0.54719">
        <ele>227</ele>
        <time>2014-04-01T13:39:10Z</time>
      </trkpt>
      <trkpt lat="48.81763" lon="-0.54723">
        <ele>227.2</ele>
        <time>2014-04-01T13:39:13Z</time>
      </trkpt>
      <trkpt lat="48.81753" lon="-0.54724">
        <ele>227.4</ele>
        <time>2014-04-01T13:39:15Z</time>
      </trkpt>
      <trkpt lat="48.81738" lon="-0.54725">
        <ele>227.6</ele>
        <time>2014-04-01T13:39:18Z</time>
      </trkpt>
      <trkpt lat="48.81696" lon="-0.54735">
        <ele>226.6</ele>
        <time>2014-04-01T13:39:28Z</time>
      </trkpt>
      <trkpt lat="48.81687" lon="-0.54738">
        <ele>226.6</ele>
        <time>2014-04-01T13:39:30Z</time>
      </trkpt>
      <trkpt lat="48.81677" lon="-0.54744">
        <ele>226.6</ele>
        <time>2014-04-01T13:39:32Z</time>
      </trkpt>
      <trkpt lat="48.81653" lon="-0.54754">
        <ele>227</ele>
        <time>2014-04-01T13:39:37Z</time>
      </trkpt>
      <trkpt lat="48.81629" lon="-0.54756">
        <ele>226.8</ele>
        <time>2014-04-01T13:39:42Z</time>
      </trkpt>
      <trkpt lat="48.81585" lon="-0.54766">
        <ele>227.8</ele>
        <time>2014-04-01T13:39:51Z</time>
      </trkpt>
      <trkpt lat="48.81578" lon="-0.54769">
        <ele>227.8</ele>
        <time>2014-04-01T13:39:53Z</time>
      </trkpt>
      <trkpt lat="48.81565" lon="-0.54772">
        <ele>227.8</ele>
        <time>2014-04-01T13:39:56Z</time>
      </trkpt>
      <trkpt lat="48.81496" lon="-0.54765">
        <ele>230.6</ele>
        <time>2014-04-01T13:40:10Z</time>
      </trkpt>
      <trkpt lat="48.81441" lon="-0.54754">
        <ele>233.6</ele>
        <time>2014-04-01T13:40:24Z</time>
      </trkpt>
      <trkpt lat="48.81427" lon="-0.5475">
        <ele>236</ele>
        <time>2014-04-01T13:40:32Z</time>
      </trkpt>
      <trkpt lat="48.81421" lon="-0.54745">
        <ele>237.4</ele>
        <time>2014-04-01T13:41:54Z</time>
      </trkpt>
      <trkpt lat="48.81387" lon="-0.54721">
        <ele>236.6</ele>
        <time>2014-04-01T13:42:06Z</time>
      </trkpt>
      <trkpt lat="48.81356" lon="-0.54702">
        <ele>235.6</ele>
        <time>2014-04-01T13:42:19Z</time>
      </trkpt>
      <trkpt lat="48.81329" lon="-0.54695">
        <ele>234.8</ele>
        <time>2014-04-01T13:42:28Z</time>
      </trkpt>
      <trkpt lat="48.81288" lon="-0.54694">
        <ele>234.6</ele>
        <time>2014-04-01T13:42:40Z</time>
      </trkpt>
      <trkpt lat="48.81246" lon="-0.54691">
        <ele>233</ele>
        <time>2014-04-01T13:42:52Z</time>
      </trkpt>
      <trkpt lat="48.81196" lon="-0.54697">
        <ele>230.8</ele>
        <time>2014-04-01T13:43:05Z</time>
      </trkpt>
      <trkpt lat="48.81191" lon="-0.54698">
        <ele>230.6</ele>
        <time>2014-04-01T13:43:06Z</time>
      </trkpt>
      <trkpt lat="48.81176" lon="-0.54699">
        <ele>229.4</ele>
        <time>2014-04-01T13:43:09Z</time>
      </trkpt>
      <trkpt lat="48.81147" lon="-0.54697">
        <ele>228</ele>
        <time>2014-04-01T13:43:14Z</time>
      </trkpt>
      <trkpt lat="48.81077" lon="-0.54697">
        <ele>224.8</ele>
        <time>2014-04-01T13:43:26Z</time>
      </trkpt>
      <trkpt lat="48.8106" lon="-0.54692">
        <ele>223.6</ele>
        <time>2014-04-01T13:43:29Z</time>
      </trkpt>
      <trkpt lat="48.81039" lon="-0.54679">
        <ele>222.8</ele>
        <time>2014-04-01T13:43:33Z</time>
      </trkpt>
      <trkpt lat="48.81025" lon="-0.54665">
        <ele>221.8</ele>
        <time>2014-04-01T13:43:36Z</time>
      </trkpt>
      <trkpt lat="48.81015" lon="-0.54648">
        <ele>220.4</ele>
        <time>2014-04-01T13:43:39Z</time>
      </trkpt>
      <trkpt lat="48.80981" lon="-0.54564">
        <ele>217</ele>
        <time>2014-04-01T13:43:51Z</time>
      </trkpt>
      <trkpt lat="48.80966" lon="-0.54532">
        <ele>216</ele>
        <time>2014-04-01T13:43:57Z</time>
      </trkpt>
      <trkpt lat="48.80957" lon="-0.54515">
        <ele>215.8</ele>
        <time>2014-04-01T13:44:00Z</time>
      </trkpt>
      <trkpt lat="48.80923" lon="-0.54449">
        <ele>214.2</ele>
        <time>2014-04-01T13:44:10Z</time>
      </trkpt>
      <trkpt lat="48.80895" lon="-0.54401">
        <ele>210.6</ele>
        <time>2014-04-01T13:44:15Z</time>
      </trkpt>
      <trkpt lat="48.80889" lon="-0.5439">
        <ele>209.8</ele>
        <time>2014-04-01T13:44:16Z</time>
      </trkpt>
      <trkpt lat="48.8087" lon="-0.54359">
        <ele>205.4</ele>
        <time>2014-04-01T13:44:19Z</time>
      </trkpt>
      <trkpt lat="48.80865" lon="-0.54352">
        <ele>204.4</ele>
        <time>2014-04-01T13:44:20Z</time>
      </trkpt>
      <trkpt lat="48.80838" lon="-0.54335">
        <ele>201</ele>
        <time>2014-04-01T13:44:25Z</time>
      </trkpt>
      <trkpt lat="48.80805" lon="-0.54327">
        <ele>196.6</ele>
        <time>2014-04-01T13:44:34Z</time>
      </trkpt>
      <trkpt lat="48.80766" lon="-0.54315">
        <ele>193.8</ele>
        <time>2014-04-01T13:44:45Z</time>
      </trkpt>
      <trkpt lat="48.80731" lon="-0.54306">
        <ele>190.6</ele>
        <time>2014-04-01T13:44:51Z</time>
      </trkpt>
      <trkpt lat="48.80725" lon="-0.54305">
        <ele>190.2</ele>
        <time>2014-04-01T13:44:52Z</time>
      </trkpt>
      <trkpt lat="48.80696" lon="-0.5431">
        <ele>187</ele>
        <time>2014-04-01T13:44:59Z</time>
      </trkpt>
      <trkpt lat="48.80692" lon="-0.54307">
        <ele>186.4</ele>
        <time>2014-04-01T13:45:01Z</time>
      </trkpt>
      <trkpt lat="48.8069" lon="-0.54303">
        <ele>186.2</ele>
        <time>2014-04-01T13:45:02Z</time>
      </trkpt>
      <trkpt lat="48.8069" lon="-0.54298">
        <ele>186.2</ele>
        <time>2014-04-01T13:45:03Z</time>
      </trkpt>
      <trkpt lat="48.8069" lon="-0.54292">
        <ele>186</ele>
        <time>2014-04-01T13:45:04Z</time>
      </trkpt>
      <trkpt lat="48.8069" lon="-0.54286">
        <ele>185.8</ele>
        <time>2014-04-01T13:45:05Z</time>
      </trkpt>
      <trkpt lat="48.80697" lon="-0.54221">
        <ele>183.2</ele>
        <time>2014-04-01T13:45:18Z</time>
      </trkpt>
      <trkpt lat="48.80708" lon="-0.54206">
        <ele>182.8</ele>
        <time>2014-04-01T13:45:23Z</time>
      </trkpt>
      <trkpt lat="48.80708" lon="-0.54202">
        <ele>182.8</ele>
        <time>2014-04-01T13:45:24Z</time>
      </trkpt>
      <trkpt lat="48.80698" lon="-0.54159">
        <ele>182.6</ele>
        <time>2014-04-01T13:45:35Z</time>
      </trkpt>
      <trkpt lat="48.80687" lon="-0.5415">
        <ele>182.6</ele>
        <time>2014-04-01T13:45:40Z</time>
      </trkpt>
      <trkpt lat="48.80685" lon="-0.54151">
        <ele>182.8</ele>
        <time>2014-04-01T13:45:41Z</time>
      </trkpt>
      <trkpt lat="48.80683" lon="-0.54153">
        <ele>182.8</ele>
        <time>2014-04-01T13:45:42Z</time>
      </trkpt>
      <trkpt lat="48.80681" lon="-0.54155">
        <ele>182.8</ele>
        <time>2014-04-01T13:45:43Z</time>
      </trkpt>
      <trkpt lat="48.8068" lon="-0.54158">
        <ele>183</ele>
        <time>2014-04-01T13:45:44Z</time>
      </trkpt>
      <trkpt lat="48.80678" lon="-0.54161">
        <ele>183</ele>
        <time>2014-04-01T13:45:45Z</time>
      </trkpt>
      <trkpt lat="48.80677" lon="-0.54163">
        <ele>183.2</ele>
        <time>2014-04-01T13:45:46Z</time>
      </trkpt>
      <trkpt lat="48.80676" lon="-0.54165">
        <ele>183.2</ele>
        <time>2014-04-01T13:45:47Z</time>
      </trkpt>
      <trkpt lat="48.80674" lon="-0.54168">
        <ele>183.4</ele>
        <time>2014-04-01T13:45:48Z</time>
      </trkpt>
      <trkpt lat="48.80667" lon="-0.54176">
        <ele>183.8</ele>
        <time>2014-04-01T13:45:52Z</time>
      </trkpt>
      <trkpt lat="48.80666" lon="-0.54178">
        <ele>183.8</ele>
        <time>2014-04-01T13:45:53Z</time>
      </trkpt>
      <trkpt lat="48.80663" lon="-0.54178">
        <ele>184.4</ele>
        <time>2014-04-01T13:45:59Z</time>
      </trkpt>
      <trkpt lat="48.80648" lon="-0.54194">
        <ele>185</ele>
        <time>2014-04-01T13:49:31Z</time>
      </trkpt>
      <trkpt lat="48.80627" lon="-0.54211">
        <ele>185.4</ele>
        <time>2014-04-01T13:49:43Z</time>
      </trkpt>
      <trkpt lat="48.80605" lon="-0.54223">
        <ele>184.8</ele>
        <time>2014-04-01T13:49:53Z</time>
      </trkpt>
      <trkpt lat="48.80601" lon="-0.54226">
        <ele>184.8</ele>
        <time>2014-04-01T13:49:55Z</time>
      </trkpt>
      <trkpt lat="48.8058" lon="-0.54235">
        <ele>184.4</ele>
        <time>2014-04-01T13:50:03Z</time>
      </trkpt>
      <trkpt lat="48.80566" lon="-0.54239">
        <ele>184.2</ele>
        <time>2014-04-01T13:50:07Z</time>
      </trkpt>
      <trkpt lat="48.80533" lon="-0.54245">
        <ele>183.6</ele>
        <time>2014-04-01T13:50:17Z</time>
      </trkpt>
      <trkpt lat="48.80496" lon="-0.54248">
        <ele>183.4</ele>
        <time>2014-04-01T13:50:29Z</time>
      </trkpt>
      <trkpt lat="48.80469" lon="-0.54237">
        <ele>184.8</ele>
        <time>2014-04-01T13:50:40Z</time>
      </trkpt>
      <trkpt lat="48.80436" lon="-0.54232">
        <ele>185.8</ele>
        <time>2014-04-01T13:50:52Z</time>
      </trkpt>
      <trkpt lat="48.80433" lon="-0.5423">
        <ele>186</ele>
        <time>2014-04-01T13:50:53Z</time>
      </trkpt>
      <trkpt lat="48.80419" lon="-0.54228">
        <ele>187</ele>
        <time>2014-04-01T13:50:57Z</time>
      </trkpt>
      <trkpt lat="48.80391" lon="-0.54219">
        <ele>190.6</ele>
        <time>2014-04-01T13:51:05Z</time>
      </trkpt>
      <trkpt lat="48.80367" lon="-0.54207">
        <ele>194</ele>
        <time>2014-04-01T13:51:13Z</time>
      </trkpt>
      <trkpt lat="48.80346" lon="-0.54183">
        <ele>197.4</ele>
        <time>2014-04-01T13:51:22Z</time>
      </trkpt>
      <trkpt lat="48.80335" lon="-0.54173">
        <ele>200.6</ele>
        <time>2014-04-01T13:51:27Z</time>
      </trkpt>
      <trkpt lat="48.80314" lon="-0.54143">
        <ele>204.2</ele>
        <time>2014-04-01T13:51:36Z</time>
      </trkpt>
      <trkpt lat="48.80292" lon="-0.5411">
        <ele>207</ele>
        <time>2014-04-01T13:51:45Z</time>
      </trkpt>
      <trkpt lat="48.80276" lon="-0.54085">
        <ele>210.2</ele>
        <time>2014-04-01T13:51:52Z</time>
      </trkpt>
      <trkpt lat="48.80245" lon="-0.54064">
        <ele>212.2</ele>
        <time>2014-04-01T13:52:01Z</time>
      </trkpt>
      <trkpt lat="48.80215" lon="-0.54047">
        <ele>213.2</ele>
        <time>2014-04-01T13:52:11Z</time>
      </trkpt>
      <trkpt lat="48.80181" lon="-0.53999">
        <ele>213.6</ele>
        <time>2014-04-01T13:52:25Z</time>
      </trkpt>
      <trkpt lat="48.80137" lon="-0.53947">
        <ele>214.2</ele>
        <time>2014-04-01T13:52:41Z</time>
      </trkpt>
      <trkpt lat="48.80097" lon="-0.53903">
        <ele>215.4</ele>
        <time>2014-04-01T13:52:56Z</time>
      </trkpt>
      <trkpt lat="48.8007" lon="-0.53876">
        <ele>215.4</ele>
        <time>2014-04-01T13:53:07Z</time>
      </trkpt>
      <trkpt lat="48.80037" lon="-0.53844">
        <ele>215.8</ele>
        <time>2014-04-01T13:53:19Z</time>
      </trkpt>
      <trkpt lat="48.80015" lon="-0.53816">
        <ele>216</ele>
        <time>2014-04-01T13:53:29Z</time>
      </trkpt>
      <trkpt lat="48.79989" lon="-0.53777">
        <ele>216.4</ele>
        <time>2014-04-01T13:53:40Z</time>
      </trkpt>
      <trkpt lat="48.79955" lon="-0.53733">
        <ele>218.4</ele>
        <time>2014-04-01T13:53:54Z</time>
      </trkpt>
      <trkpt lat="48.79918" lon="-0.53698">
        <ele>219.6</ele>
        <time>2014-04-01T13:54:07Z</time>
      </trkpt>
      <trkpt lat="48.79882" lon="-0.5367">
        <ele>220.4</ele>
        <time>2014-04-01T13:54:20Z</time>
      </trkpt>
      <trkpt lat="48.79843" lon="-0.53656">
        <ele>220.8</ele>
        <time>2014-04-01T13:54:31Z</time>
      </trkpt>
      <trkpt lat="48.79799" lon="-0.53644">
        <ele>220.8</ele>
        <time>2014-04-01T13:54:45Z</time>
      </trkpt>
      <trkpt lat="48.79794" lon="-0.53645">
        <ele>220.8</ele>
        <time>2014-04-01T13:54:48Z</time>
      </trkpt>
      <trkpt lat="48.79793" lon="-0.53647">
        <ele>220.6</ele>
        <time>2014-04-01T13:54:49Z</time>
      </trkpt>
      <trkpt lat="48.7979" lon="-0.53654">
        <ele>220.6</ele>
        <time>2014-04-01T13:54:52Z</time>
      </trkpt>
      <trkpt lat="48.79786" lon="-0.53663">
        <ele>220.6</ele>
        <time>2014-04-01T13:54:56Z</time>
      </trkpt>
      <trkpt lat="48.79783" lon="-0.53671">
        <ele>220.6</ele>
        <time>2014-04-01T13:55:00Z</time>
      </trkpt>
      <trkpt lat="48.79779" lon="-0.53696">
        <ele>220</ele>
        <time>2014-04-01T13:55:08Z</time>
      </trkpt>
      <trkpt lat="48.79761" lon="-0.53705">
        <ele>219</ele>
        <time>2014-04-01T13:55:14Z</time>
      </trkpt>
      <trkpt lat="48.79714" lon="-0.53699">
        <ele>219.4</ele>
        <time>2014-04-01T13:55:29Z</time>
      </trkpt>
      <trkpt lat="48.79675" lon="-0.53689">
        <ele>219.2</ele>
        <time>2014-04-01T13:55:40Z</time>
      </trkpt>
      <trkpt lat="48.79626" lon="-0.53662">
        <ele>219.4</ele>
        <time>2014-04-01T13:55:53Z</time>
      </trkpt>
      <trkpt lat="48.79592" lon="-0.53658">
        <ele>219.6</ele>
        <time>2014-04-01T13:56:05Z</time>
      </trkpt>
      <trkpt lat="48.79583" lon="-0.53704">
        <ele>219.2</ele>
        <time>2014-04-01T13:56:16Z</time>
      </trkpt>
      <trkpt lat="48.79573" lon="-0.53757">
        <ele>217.2</ele>
        <time>2014-04-01T13:56:24Z</time>
      </trkpt>
      <trkpt lat="48.79572" lon="-0.53763">
        <ele>216.8</ele>
        <time>2014-04-01T13:56:25Z</time>
      </trkpt>
      <trkpt lat="48.79555" lon="-0.5381">
        <ele>216</ele>
        <time>2014-04-01T13:56:36Z</time>
      </trkpt>
      <trkpt lat="48.79526" lon="-0.53863">
        <ele>217.4</ele>
        <time>2014-04-01T13:56:48Z</time>
      </trkpt>
      <trkpt lat="48.79516" lon="-0.53937">
        <ele>218.8</ele>
        <time>2014-04-01T13:57:02Z</time>
      </trkpt>
      <trkpt lat="48.79521" lon="-0.53993">
        <ele>219.8</ele>
        <time>2014-04-01T13:57:15Z</time>
      </trkpt>
      <trkpt lat="48.7952" lon="-0.53995">
        <ele>220</ele>
        <time>2014-04-01T13:57:16Z</time>
      </trkpt>
      <trkpt lat="48.79518" lon="-0.53994">
        <ele>220.2</ele>
        <time>2014-04-01T13:57:17Z</time>
      </trkpt>
      <trkpt lat="48.79516" lon="-0.53993">
        <ele>220.4</ele>
        <time>2014-04-01T13:57:18Z</time>
      </trkpt>
      <trkpt lat="48.79513" lon="-0.53991">
        <ele>220.6</ele>
        <time>2014-04-01T13:57:19Z</time>
      </trkpt>
      <trkpt lat="48.79479" lon="-0.53963">
        <ele>223.6</ele>
        <time>2014-04-01T13:57:33Z</time>
      </trkpt>
      <trkpt lat="48.79472" lon="-0.53958">
        <ele>224.6</ele>
        <time>2014-04-01T13:57:36Z</time>
      </trkpt>
      <trkpt lat="48.79454" lon="-0.53945">
        <ele>225.8</ele>
        <time>2014-04-01T13:57:44Z</time>
      </trkpt>
      <trkpt lat="48.79412" lon="-0.53934">
        <ele>228.6</ele>
        <time>2014-04-01T13:58:01Z</time>
      </trkpt>
      <trkpt lat="48.79366" lon="-0.53933">
        <ele>231.2</ele>
        <time>2014-04-01T13:58:19Z</time>
      </trkpt>
      <trkpt lat="48.79316" lon="-0.53943">
        <ele>233</ele>
        <time>2014-04-01T13:58:37Z</time>
      </trkpt>
      <trkpt lat="48.79268" lon="-0.53954">
        <ele>233.8</ele>
        <time>2014-04-01T13:58:52Z</time>
      </trkpt>
      <trkpt lat="48.79217" lon="-0.53949">
        <ele>233.6</ele>
        <time>2014-04-01T13:59:06Z</time>
      </trkpt>
      <trkpt lat="48.79151" lon="-0.53942">
        <ele>234.2</ele>
        <time>2014-04-01T13:59:23Z</time>
      </trkpt>
      <trkpt lat="48.79082" lon="-0.53942">
        <ele>235.2</ele>
        <time>2014-04-01T13:59:41Z</time>
      </trkpt>
      <trkpt lat="48.79023" lon="-0.53959">
        <ele>235.4</ele>
        <time>2014-04-01T13:59:55Z</time>
      </trkpt>
      <trkpt lat="48.78946" lon="-0.53979">
        <ele>237.8</ele>
        <time>2014-04-01T14:00:15Z</time>
      </trkpt>
      <trkpt lat="48.78927" lon="-0.53987">
        <ele>238.6</ele>
        <time>2014-04-01T14:00:20Z</time>
      </trkpt>
      <trkpt lat="48.78923" lon="-0.5399">
        <ele>238.8</ele>
        <time>2014-04-01T14:00:21Z</time>
      </trkpt>
      <trkpt lat="48.78875" lon="-0.54001">
        <ele>239.8</ele>
        <time>2014-04-01T14:00:34Z</time>
      </trkpt>
      <trkpt lat="48.7882" lon="-0.53968">
        <ele>239</ele>
        <time>2014-04-01T14:00:48Z</time>
      </trkpt>
      <trkpt lat="48.78776" lon="-0.53932">
        <ele>239.2</ele>
        <time>2014-04-01T14:01:00Z</time>
      </trkpt>
      <trkpt lat="48.7872" lon="-0.53902">
        <ele>240</ele>
        <time>2014-04-01T14:01:16Z</time>
      </trkpt>
      <trkpt lat="48.78688" lon="-0.53888">
        <ele>240.6</ele>
        <time>2014-04-01T14:01:26Z</time>
      </trkpt>
      <trkpt lat="48.78665" lon="-0.53878">
        <ele>241.2</ele>
        <time>2014-04-01T14:01:33Z</time>
      </trkpt>
      <trkpt lat="48.78656" lon="-0.53873">
        <ele>241.6</ele>
        <time>2014-04-01T14:01:35Z</time>
      </trkpt>
      <trkpt lat="48.78597" lon="-0.53849">
        <ele>241.4</ele>
        <time>2014-04-01T14:01:46Z</time>
      </trkpt>
      <trkpt lat="48.7858" lon="-0.53839">
        <ele>241</ele>
        <time>2014-04-01T14:01:49Z</time>
      </trkpt>
      <trkpt lat="48.78548" lon="-0.53822">
        <ele>240.4</ele>
        <time>2014-04-01T14:01:55Z</time>
      </trkpt>
      <trkpt lat="48.78496" lon="-0.53801">
        <ele>239.6</ele>
        <time>2014-04-01T14:02:06Z</time>
      </trkpt>
      <trkpt lat="48.78462" lon="-0.5381">
        <ele>240</ele>
        <time>2014-04-01T14:02:14Z</time>
      </trkpt>
      <trkpt lat="48.78437" lon="-0.53842">
        <ele>241.8</ele>
        <time>2014-04-01T14:02:23Z</time>
      </trkpt>
      <trkpt lat="48.78432" lon="-0.53847">
        <ele>242.2</ele>
        <time>2014-04-01T14:02:25Z</time>
      </trkpt>
      <trkpt lat="48.78404" lon="-0.53867">
        <ele>244.2</ele>
        <time>2014-04-01T14:02:35Z</time>
      </trkpt>
      <trkpt lat="48.78382" lon="-0.53842">
        <ele>246.4</ele>
        <time>2014-04-01T14:02:44Z</time>
      </trkpt>
      <trkpt lat="48.78379" lon="-0.5384">
        <ele>246.6</ele>
        <time>2014-04-01T14:02:45Z</time>
      </trkpt>
      <trkpt lat="48.7837" lon="-0.53831">
        <ele>247.6</ele>
        <time>2014-04-01T14:02:49Z</time>
      </trkpt>
      <trkpt lat="48.78347" lon="-0.53818">
        <ele>248.8</ele>
        <time>2014-04-01T14:02:59Z</time>
      </trkpt>
      <trkpt lat="48.78322" lon="-0.53808">
        <ele>250.8</ele>
        <time>2014-04-01T14:03:11Z</time>
      </trkpt>
      <trkpt lat="48.78313" lon="-0.53804">
        <ele>251.4</ele>
        <time>2014-04-01T14:03:16Z</time>
      </trkpt>
      <trkpt lat="48.78301" lon="-0.53783">
        <ele>252.2</ele>
        <time>2014-04-01T14:03:23Z</time>
      </trkpt>
      <trkpt lat="48.78277" lon="-0.53755">
        <ele>251.2</ele>
        <time>2014-04-01T14:03:33Z</time>
      </trkpt>
      <trkpt lat="48.78239" lon="-0.53725">
        <ele>251.4</ele>
        <time>2014-04-01T14:03:45Z</time>
      </trkpt>
      <trkpt lat="48.78231" lon="-0.53721">
        <ele>251.2</ele>
        <time>2014-04-01T14:03:47Z</time>
      </trkpt>
      <trkpt lat="48.78212" lon="-0.53715">
        <ele>250.6</ele>
        <time>2014-04-01T14:03:52Z</time>
      </trkpt>
      <trkpt lat="48.78162" lon="-0.53677">
        <ele>249.6</ele>
        <time>2014-04-01T14:04:06Z</time>
      </trkpt>
      <trkpt lat="48.78161" lon="-0.53674">
        <ele>249.2</ele>
        <time>2014-04-01T14:04:11Z</time>
      </trkpt>
      <trkpt lat="48.78155" lon="-0.53669">
        <ele>249.2</ele>
        <time>2014-04-01T14:04:48Z</time>
      </trkpt>
      <trkpt lat="48.78124" lon="-0.53646">
        <ele>248.8</ele>
        <time>2014-04-01T14:05:01Z</time>
      </trkpt>
      <trkpt lat="48.78113" lon="-0.53636">
        <ele>248</ele>
        <time>2014-04-01T14:05:04Z</time>
      </trkpt>
      <trkpt lat="48.78084" lon="-0.53617">
        <ele>246.4</ele>
        <time>2014-04-01T14:05:12Z</time>
      </trkpt>
      <trkpt lat="48.78059" lon="-0.53584">
        <ele>245.6</ele>
        <time>2014-04-01T14:05:22Z</time>
      </trkpt>
      <trkpt lat="48.78056" lon="-0.53572">
        <ele>245.6</ele>
        <time>2014-04-01T14:05:24Z</time>
      </trkpt>
      <trkpt lat="48.7804" lon="-0.53556">
        <ele>244.6</ele>
        <time>2014-04-01T14:05:29Z</time>
      </trkpt>
      <trkpt lat="48.78009" lon="-0.5355">
        <ele>243.2</ele>
        <time>2014-04-01T14:05:40Z</time>
      </trkpt>
      <trkpt lat="48.78" lon="-0.53548">
        <ele>243.2</ele>
        <time>2014-04-01T14:05:49Z</time>
      </trkpt>
      <trkpt lat="48.77992" lon="-0.53548">
        <ele>243.4</ele>
        <time>2014-04-01T14:06:08Z</time>
      </trkpt>
      <trkpt lat="48.77989" lon="-0.53548">
        <ele>243.6</ele>
        <time>2014-04-01T14:06:10Z</time>
      </trkpt>
      <trkpt lat="48.77952" lon="-0.53546">
        <ele>243.8</ele>
        <time>2014-04-01T14:06:23Z</time>
      </trkpt>
      <trkpt lat="48.77914" lon="-0.5354">
        <ele>243.4</ele>
        <time>2014-04-01T14:06:33Z</time>
      </trkpt>
      <trkpt lat="48.77857" lon="-0.5354">
        <ele>242.6</ele>
        <time>2014-04-01T14:06:47Z</time>
      </trkpt>
      <trkpt lat="48.77822" lon="-0.53564">
        <ele>242.8</ele>
        <time>2014-04-01T14:07:00Z</time>
      </trkpt>
      <trkpt lat="48.77799" lon="-0.53592">
        <ele>242.2</ele>
        <time>2014-04-01T14:07:07Z</time>
      </trkpt>
      <trkpt lat="48.77783" lon="-0.53617">
        <ele>240.8</ele>
        <time>2014-04-01T14:07:11Z</time>
      </trkpt>
      <trkpt lat="48.77772" lon="-0.53637">
        <ele>238.8</ele>
        <time>2014-04-01T14:07:14Z</time>
      </trkpt>
      <trkpt lat="48.77748" lon="-0.53691">
        <ele>236.4</ele>
        <time>2014-04-01T14:07:25Z</time>
      </trkpt>
      <trkpt lat="48.7773" lon="-0.53723">
        <ele>237.6</ele>
        <time>2014-04-01T14:07:37Z</time>
      </trkpt>
      <trkpt lat="48.77699" lon="-0.53754">
        <ele>239.6</ele>
        <time>2014-04-01T14:07:51Z</time>
      </trkpt>
      <trkpt lat="48.77673" lon="-0.53765">
        <ele>241</ele>
        <time>2014-04-01T14:08:03Z</time>
      </trkpt>
      <trkpt lat="48.7764" lon="-0.53772">
        <ele>243</ele>
        <time>2014-04-01T14:08:16Z</time>
      </trkpt>
      <trkpt lat="48.77609" lon="-0.53776">
        <ele>244.4</ele>
        <time>2014-04-01T14:08:28Z</time>
      </trkpt>
      <trkpt lat="48.77567" lon="-0.53779">
        <ele>246</ele>
        <time>2014-04-01T14:08:45Z</time>
      </trkpt>
      <trkpt lat="48.77545" lon="-0.53808">
        <ele>248</ele>
        <time>2014-04-01T14:08:57Z</time>
      </trkpt>
      <trkpt lat="48.77526" lon="-0.53835">
        <ele>249.4</ele>
        <time>2014-04-01T14:09:08Z</time>
      </trkpt>
      <trkpt lat="48.77496" lon="-0.53879">
        <ele>252.4</ele>
        <time>2014-04-01T14:09:22Z</time>
      </trkpt>
      <trkpt lat="48.77467" lon="-0.53934">
        <ele>255.6</ele>
        <time>2014-04-01T14:09:40Z</time>
      </trkpt>
      <trkpt lat="48.7745" lon="-0.53974">
        <ele>258.2</ele>
        <time>2014-04-01T14:09:53Z</time>
      </trkpt>
      <trkpt lat="48.77434" lon="-0.54014">
        <ele>260</ele>
        <time>2014-04-01T14:10:06Z</time>
      </trkpt>
      <trkpt lat="48.77417" lon="-0.54054">
        <ele>262.4</ele>
        <time>2014-04-01T14:10:19Z</time>
      </trkpt>
      <trkpt lat="48.77393" lon="-0.54102">
        <ele>264.6</ele>
        <time>2014-04-01T14:10:34Z</time>
      </trkpt>
      <trkpt lat="48.77371" lon="-0.54152">
        <ele>267.2</ele>
        <time>2014-04-01T14:10:49Z</time>
      </trkpt>
      <trkpt lat="48.7736" lon="-0.54184">
        <ele>268.6</ele>
        <time>2014-04-01T14:10:59Z</time>
      </trkpt>
      <trkpt lat="48.77351" lon="-0.54202">
        <ele>269.4</ele>
        <time>2014-04-01T14:11:05Z</time>
      </trkpt>
      <trkpt lat="48.77351" lon="-0.54205">
        <ele>269.6</ele>
        <time>2014-04-01T14:11:06Z</time>
      </trkpt>
      <trkpt lat="48.7735" lon="-0.54208">
        <ele>269.8</ele>
        <time>2014-04-01T14:11:07Z</time>
      </trkpt>
      <trkpt lat="48.77349" lon="-0.54212">
        <ele>270</ele>
        <time>2014-04-01T14:11:08Z</time>
      </trkpt>
      <trkpt lat="48.77347" lon="-0.54215">
        <ele>270.2</ele>
        <time>2014-04-01T14:11:09Z</time>
      </trkpt>
      <trkpt lat="48.77345" lon="-0.54227">
        <ele>271</ele>
        <time>2014-04-01T14:11:13Z</time>
      </trkpt>
      <trkpt lat="48.77344" lon="-0.54231">
        <ele>271.2</ele>
        <time>2014-04-01T14:11:14Z</time>
      </trkpt>
      <trkpt lat="48.77342" lon="-0.54234">
        <ele>271.4</ele>
        <time>2014-04-01T14:11:15Z</time>
      </trkpt>
      <trkpt lat="48.77326" lon="-0.54292">
        <ele>274</ele>
        <time>2014-04-01T14:11:30Z</time>
      </trkpt>
      <trkpt lat="48.7731" lon="-0.54342">
        <ele>274.6</ele>
        <time>2014-04-01T14:11:44Z</time>
      </trkpt>
      <trkpt lat="48.77304" lon="-0.54349">
        <ele>274.4</ele>
        <time>2014-04-01T14:11:46Z</time>
      </trkpt>
      <trkpt lat="48.77301" lon="-0.5435">
        <ele>274.2</ele>
        <time>2014-04-01T14:11:47Z</time>
      </trkpt>
      <trkpt lat="48.77272" lon="-0.54343">
        <ele>273.4</ele>
        <time>2014-04-01T14:11:58Z</time>
      </trkpt>
      <trkpt lat="48.7723" lon="-0.54344">
        <ele>275.2</ele>
        <time>2014-04-01T14:12:14Z</time>
      </trkpt>
      <trkpt lat="48.77199" lon="-0.54343">
        <ele>276.8</ele>
        <time>2014-04-01T14:12:27Z</time>
      </trkpt>
      <trkpt lat="48.77172" lon="-0.54337">
        <ele>278.8</ele>
        <time>2014-04-01T14:12:41Z</time>
      </trkpt>
      <trkpt lat="48.77149" lon="-0.54323">
        <ele>280.6</ele>
        <time>2014-04-01T14:12:53Z</time>
      </trkpt>
      <trkpt lat="48.77124" lon="-0.54306">
        <ele>282.2</ele>
        <time>2014-04-01T14:13:03Z</time>
      </trkpt>
      <trkpt lat="48.77094" lon="-0.54284">
        <ele>284.6</ele>
        <time>2014-04-01T14:13:15Z</time>
      </trkpt>
      <trkpt lat="48.77052" lon="-0.54252">
        <ele>285.8</ele>
        <time>2014-04-01T14:13:31Z</time>
      </trkpt>
      <trkpt lat="48.77008" lon="-0.54222">
        <ele>285.2</ele>
        <time>2014-04-01T14:13:47Z</time>
      </trkpt>
      <trkpt lat="48.76967" lon="-0.54198">
        <ele>283.6</ele>
        <time>2014-04-01T14:13:59Z</time>
      </trkpt>
      <trkpt lat="48.76916" lon="-0.54165">
        <ele>281.2</ele>
        <time>2014-04-01T14:14:13Z</time>
      </trkpt>
      <trkpt lat="48.76859" lon="-0.54138">
        <ele>279.8</ele>
        <time>2014-04-01T14:14:27Z</time>
      </trkpt>
      <trkpt lat="48.76804" lon="-0.54113">
        <ele>280</ele>
        <time>2014-04-01T14:14:41Z</time>
      </trkpt>
      <trkpt lat="48.76762" lon="-0.54092">
        <ele>280.6</ele>
        <time>2014-04-01T14:14:53Z</time>
      </trkpt>
      <trkpt lat="48.76718" lon="-0.54085">
        <ele>281.2</ele>
        <time>2014-04-01T14:15:04Z</time>
      </trkpt>
      <trkpt lat="48.76667" lon="-0.54112">
        <ele>284.4</ele>
        <time>2014-04-01T14:15:17Z</time>
      </trkpt>
      <trkpt lat="48.76605" lon="-0.54144">
        <ele>287.6</ele>
        <time>2014-04-01T14:15:35Z</time>
      </trkpt>
      <trkpt lat="48.76563" lon="-0.54171">
        <ele>290.6</ele>
        <time>2014-04-01T14:15:48Z</time>
      </trkpt>
      <trkpt lat="48.765" lon="-0.54217">
        <ele>293.6</ele>
        <time>2014-04-01T14:16:06Z</time>
      </trkpt>
      <trkpt lat="48.76433" lon="-0.54263">
        <ele>295.6</ele>
        <time>2014-04-01T14:16:25Z</time>
      </trkpt>
      <trkpt lat="48.76358" lon="-0.54312">
        <ele>297</ele>
        <time>2014-04-01T14:16:45Z</time>
      </trkpt>
      <trkpt lat="48.76285" lon="-0.54362">
        <ele>297.6</ele>
        <time>2014-04-01T14:17:01Z</time>
      </trkpt>
      <trkpt lat="48.76204" lon="-0.5439">
        <ele>298.4</ele>
        <time>2014-04-01T14:17:18Z</time>
      </trkpt>
      <trkpt lat="48.76154" lon="-0.54388">
        <ele>299</ele>
        <time>2014-04-01T14:17:31Z</time>
      </trkpt>
      <trkpt lat="48.76095" lon="-0.54375">
        <ele>298.2</ele>
        <time>2014-04-01T14:17:44Z</time>
      </trkpt>
      <trkpt lat="48.75992" lon="-0.54385">
        <ele>297</ele>
        <time>2014-04-01T14:18:03Z</time>
      </trkpt>
      <trkpt lat="48.75888" lon="-0.54421">
        <ele>294.8</ele>
        <time>2014-04-01T14:18:22Z</time>
      </trkpt>
      <trkpt lat="48.75828" lon="-0.54435">
        <ele>291.6</ele>
        <time>2014-04-01T14:18:31Z</time>
      </trkpt>
      <trkpt lat="48.75777" lon="-0.54453">
        <ele>288</ele>
        <time>2014-04-01T14:18:38Z</time>
      </trkpt>
      <trkpt lat="48.7577" lon="-0.54458">
        <ele>287.6</ele>
        <time>2014-04-01T14:18:39Z</time>
      </trkpt>
      <trkpt lat="48.75764" lon="-0.54465">
        <ele>287.2</ele>
        <time>2014-04-01T14:18:40Z</time>
      </trkpt>
      <trkpt lat="48.75689" lon="-0.54534">
        <ele>284</ele>
        <time>2014-04-01T14:18:52Z</time>
      </trkpt>
      <trkpt lat="48.75666" lon="-0.54556">
        <ele>283.6</ele>
        <time>2014-04-01T14:19:01Z</time>
      </trkpt>
      <trkpt lat="48.75666" lon="-0.54557">
        <ele>283.8</ele>
        <time>2014-04-01T14:19:03Z</time>
      </trkpt>
      <trkpt lat="48.75674" lon="-0.54569">
        <ele>283.8</ele>
        <time>2014-04-01T14:19:13Z</time>
      </trkpt>
      <trkpt lat="48.75683" lon="-0.5459">
        <ele>281.8</ele>
        <time>2014-04-01T14:19:18Z</time>
      </trkpt>
      <trkpt lat="48.75682" lon="-0.54598">
        <ele>280</ele>
        <time>2014-04-01T14:19:22Z</time>
      </trkpt>
      <trkpt lat="48.75681" lon="-0.54599">
        <ele>279.6</ele>
        <time>2014-04-01T14:19:23Z</time>
      </trkpt>
      <trkpt lat="48.75679" lon="-0.54601">
        <ele>279.2</ele>
        <time>2014-04-01T14:19:24Z</time>
      </trkpt>
      <trkpt lat="48.75647" lon="-0.5463">
        <ele>277.8</ele>
        <time>2014-04-01T14:19:38Z</time>
      </trkpt>
      <trkpt lat="48.75644" lon="-0.54632">
        <ele>277.8</ele>
        <time>2014-04-01T14:19:39Z</time>
      </trkpt>
      <trkpt lat="48.75609" lon="-0.54666">
        <ele>277.2</ele>
        <time>2014-04-01T14:19:53Z</time>
      </trkpt>
      <trkpt lat="48.7558" lon="-0.54693">
        <ele>277</ele>
        <time>2014-04-01T14:20:05Z</time>
      </trkpt>
      <trkpt lat="48.75577" lon="-0.54693">
        <ele>277</ele>
        <time>2014-04-01T14:20:06Z</time>
      </trkpt>
      <trkpt lat="48.75575" lon="-0.54693">
        <ele>277.2</ele>
        <time>2014-04-01T14:20:07Z</time>
      </trkpt>
      <trkpt lat="48.75574" lon="-0.54693">
        <ele>277.2</ele>
        <time>2014-04-01T14:20:08Z</time>
      </trkpt>
      <trkpt lat="48.75573" lon="-0.54694">
        <ele>277.4</ele>
        <time>2014-04-01T14:20:09Z</time>
      </trkpt>
      <trkpt lat="48.75572" lon="-0.54696">
        <ele>277.4</ele>
        <time>2014-04-01T14:20:10Z</time>
      </trkpt>
      <trkpt lat="48.7557" lon="-0.54698">
        <ele>277.4</ele>
        <time>2014-04-01T14:20:11Z</time>
      </trkpt>
      <trkpt lat="48.7557" lon="-0.54699">
        <ele>277.6</ele>
        <time>2014-04-01T14:20:16Z</time>
      </trkpt>
      <trkpt lat="48.75561" lon="-0.54689">
        <ele>251</ele>
        <time>2014-04-01T14:23:34Z</time>
      </trkpt>
      <trkpt lat="48.75562" lon="-0.54702">
        <ele>251</ele>
        <time>2014-04-01T14:23:35Z</time>
      </trkpt>
      <trkpt lat="48.75565" lon="-0.54704">
        <ele>250.8</ele>
        <time>2014-04-01T14:23:53Z</time>
      </trkpt>
      <trkpt lat="48.75561" lon="-0.54708">
        <ele>250.8</ele>
        <time>2014-04-01T14:23:57Z</time>
      </trkpt>
      <trkpt lat="48.75558" lon="-0.54712">
        <ele>250.6</ele>
        <time>2014-04-01T14:24:00Z</time>
      </trkpt>
      <trkpt lat="48.75551" lon="-0.54727">
        <ele>250.4</ele>
        <time>2014-04-01T14:24:07Z</time>
      </trkpt>
      <trkpt lat="48.75512" lon="-0.54767">
        <ele>248.8</ele>
        <time>2014-04-01T14:24:20Z</time>
      </trkpt>
      <trkpt lat="48.75504" lon="-0.54777">
        <ele>248.2</ele>
        <time>2014-04-01T14:24:22Z</time>
      </trkpt>
      <trkpt lat="48.75499" lon="-0.5478">
        <ele>247.8</ele>
        <time>2014-04-01T14:24:23Z</time>
      </trkpt>
      <trkpt lat="48.75493" lon="-0.5478">
        <ele>247.6</ele>
        <time>2014-04-01T14:24:24Z</time>
      </trkpt>
      <trkpt lat="48.75487" lon="-0.54778">
        <ele>247.2</ele>
        <time>2014-04-01T14:24:25Z</time>
      </trkpt>
      <trkpt lat="48.75481" lon="-0.54775">
        <ele>246.8</ele>
        <time>2014-04-01T14:24:26Z</time>
      </trkpt>
      <trkpt lat="48.75475" lon="-0.54772">
        <ele>246.4</ele>
        <time>2014-04-01T14:24:27Z</time>
      </trkpt>
      <trkpt lat="48.7547" lon="-0.5477">
        <ele>246</ele>
        <time>2014-04-01T14:24:28Z</time>
      </trkpt>
      <trkpt lat="48.75454" lon="-0.54769">
        <ele>244.4</ele>
        <time>2014-04-01T14:24:32Z</time>
      </trkpt>
      <trkpt lat="48.75451" lon="-0.54773">
        <ele>244.2</ele>
        <time>2014-04-01T14:24:33Z</time>
      </trkpt>
      <trkpt lat="48.75449" lon="-0.54776">
        <ele>243.8</ele>
        <time>2014-04-01T14:24:34Z</time>
      </trkpt>
      <trkpt lat="48.7543" lon="-0.5481">
        <ele>242.8</ele>
        <time>2014-04-01T14:24:41Z</time>
      </trkpt>
      <trkpt lat="48.75385" lon="-0.5488">
        <ele>240.6</ele>
        <time>2014-04-01T14:24:53Z</time>
      </trkpt>
      <trkpt lat="48.75379" lon="-0.54885">
        <ele>240.2</ele>
        <time>2014-04-01T14:24:54Z</time>
      </trkpt>
      <trkpt lat="48.75374" lon="-0.54888">
        <ele>240</ele>
        <time>2014-04-01T14:24:55Z</time>
      </trkpt>
      <trkpt lat="48.75362" lon="-0.54893">
        <ele>239.6</ele>
        <time>2014-04-01T14:24:57Z</time>
      </trkpt>
      <trkpt lat="48.75286" lon="-0.54933">
        <ele>236.6</ele>
        <time>2014-04-01T14:25:11Z</time>
      </trkpt>
      <trkpt lat="48.75225" lon="-0.54962">
        <ele>233.4</ele>
        <time>2014-04-01T14:25:22Z</time>
      </trkpt>
      <trkpt lat="48.7516" lon="-0.54989">
        <ele>230</ele>
        <time>2014-04-01T14:25:32Z</time>
      </trkpt>
      <trkpt lat="48.75109" lon="-0.55">
        <ele>227</ele>
        <time>2014-04-01T14:25:40Z</time>
      </trkpt>
      <trkpt lat="48.75106" lon="-0.55005">
        <ele>226.6</ele>
        <time>2014-04-01T14:25:41Z</time>
      </trkpt>
      <trkpt lat="48.75105" lon="-0.55011">
        <ele>226.4</ele>
        <time>2014-04-01T14:25:42Z</time>
      </trkpt>
      <trkpt lat="48.75104" lon="-0.55018">
        <ele>226.2</ele>
        <time>2014-04-01T14:25:43Z</time>
      </trkpt>
      <trkpt lat="48.75105" lon="-0.55026">
        <ele>226</ele>
        <time>2014-04-01T14:25:44Z</time>
      </trkpt>
      <trkpt lat="48.75106" lon="-0.55035">
        <ele>226</ele>
        <time>2014-04-01T14:25:45Z</time>
      </trkpt>
      <trkpt lat="48.75107" lon="-0.55044">
        <ele>226</ele>
        <time>2014-04-01T14:25:46Z</time>
      </trkpt>
      <trkpt lat="48.75106" lon="-0.55163">
        <ele>224.6</ele>
        <time>2014-04-01T14:25:58Z</time>
      </trkpt>
      <trkpt lat="48.75104" lon="-0.55183">
        <ele>224.4</ele>
        <time>2014-04-01T14:26:00Z</time>
      </trkpt>
      <trkpt lat="48.75103" lon="-0.55193">
        <ele>224.4</ele>
        <time>2014-04-01T14:26:01Z</time>
      </trkpt>
      <trkpt lat="48.75102" lon="-0.55233">
        <ele>224</ele>
        <time>2014-04-01T14:26:05Z</time>
      </trkpt>
      <trkpt lat="48.75098" lon="-0.55376">
        <ele>222.6</ele>
        <time>2014-04-01T14:26:19Z</time>
      </trkpt>
      <trkpt lat="48.7509" lon="-0.55511">
        <ele>221.6</ele>
        <time>2014-04-01T14:26:32Z</time>
      </trkpt>
      <trkpt lat="48.75088" lon="-0.55533">
        <ele>221.4</ele>
        <time>2014-04-01T14:26:34Z</time>
      </trkpt>
      <trkpt lat="48.7508" lon="-0.55683">
        <ele>219.2</ele>
        <time>2014-04-01T14:26:48Z</time>
      </trkpt>
      <trkpt lat="48.75075" lon="-0.55739">
        <ele>218.8</ele>
        <time>2014-04-01T14:26:53Z</time>
      </trkpt>
      <trkpt lat="48.75066" lon="-0.55911">
        <ele>216.6</ele>
        <time>2014-04-01T14:27:09Z</time>
      </trkpt>
      <trkpt lat="48.75061" lon="-0.55974">
        <ele>216.2</ele>
        <time>2014-04-01T14:27:18Z</time>
      </trkpt>
      <trkpt lat="48.75063" lon="-0.55979">
        <ele>216.2</ele>
        <time>2014-04-01T14:27:25Z</time>
      </trkpt>
      <trkpt lat="48.75061" lon="-0.55996">
        <ele>216.2</ele>
        <time>2014-04-01T14:27:56Z</time>
      </trkpt>
      <trkpt lat="48.75059" lon="-0.56034">
        <ele>215.8</ele>
        <time>2014-04-01T14:28:00Z</time>
      </trkpt>
      <trkpt lat="48.75052" lon="-0.56178">
        <ele>214.4</ele>
        <time>2014-04-01T14:28:13Z</time>
      </trkpt>
      <trkpt lat="48.75045" lon="-0.56247">
        <ele>213.6</ele>
        <time>2014-04-01T14:28:19Z</time>
      </trkpt>
      <trkpt lat="48.75039" lon="-0.56337">
        <ele>212.6</ele>
        <time>2014-04-01T14:28:27Z</time>
      </trkpt>
      <trkpt lat="48.75034" lon="-0.56486">
        <ele>211</ele>
        <time>2014-04-01T14:28:41Z</time>
      </trkpt>
      <trkpt lat="48.75029" lon="-0.56607">
        <ele>208</ele>
        <time>2014-04-01T14:28:53Z</time>
      </trkpt>
      <trkpt lat="48.75035" lon="-0.56627">
        <ele>207.2</ele>
        <time>2014-04-01T14:28:57Z</time>
      </trkpt>
      <trkpt lat="48.75037" lon="-0.56634">
        <ele>207.2</ele>
        <time>2014-04-01T14:28:58Z</time>
      </trkpt>
      <trkpt lat="48.75038" lon="-0.56642">
        <ele>207</ele>
        <time>2014-04-01T14:28:59Z</time>
      </trkpt>
      <trkpt lat="48.75036" lon="-0.56652">
        <ele>207</ele>
        <time>2014-04-01T14:29:00Z</time>
      </trkpt>
      <trkpt lat="48.75035" lon="-0.56659">
        <ele>206.8</ele>
        <time>2014-04-01T14:29:01Z</time>
      </trkpt>
      <trkpt lat="48.75032" lon="-0.56663">
        <ele>206.6</ele>
        <time>2014-04-01T14:29:02Z</time>
      </trkpt>
      <trkpt lat="48.75033" lon="-0.56662">
        <ele>206.4</ele>
        <time>2014-04-01T14:29:03Z</time>
      </trkpt>
      <trkpt lat="48.75031" lon="-0.56662">
        <ele>206.2</ele>
        <time>2014-04-01T14:29:04Z</time>
      </trkpt>
      <trkpt lat="48.75028" lon="-0.56664">
        <ele>206</ele>
        <time>2014-04-01T14:29:05Z</time>
      </trkpt>
      <trkpt lat="48.75025" lon="-0.56668">
        <ele>205.8</ele>
        <time>2014-04-01T14:29:06Z</time>
      </trkpt>
      <trkpt lat="48.75022" lon="-0.56673">
        <ele>205.6</ele>
        <time>2014-04-01T14:29:07Z</time>
      </trkpt>
      <trkpt lat="48.75017" lon="-0.56679">
        <ele>205.6</ele>
        <time>2014-04-01T14:29:08Z</time>
      </trkpt>
      <trkpt lat="48.75013" lon="-0.56686">
        <ele>205.2</ele>
        <time>2014-04-01T14:29:09Z</time>
      </trkpt>
      <trkpt lat="48.74973" lon="-0.56743">
        <ele>201.8</ele>
        <time>2014-04-01T14:29:16Z</time>
      </trkpt>
      <trkpt lat="48.74919" lon="-0.56829">
        <ele>198.6</ele>
        <time>2014-04-01T14:29:25Z</time>
      </trkpt>
      <trkpt lat="48.74896" lon="-0.56857">
        <ele>195.6</ele>
        <time>2014-04-01T14:29:31Z</time>
      </trkpt>
      <trkpt lat="48.74889" lon="-0.56852">
        <ele>194.8</ele>
        <time>2014-04-01T14:29:41Z</time>
      </trkpt>
      <trkpt lat="48.74889" lon="-0.5685">
        <ele>194.8</ele>
        <time>2014-04-01T14:29:44Z</time>
      </trkpt>
      <trkpt lat="48.74882" lon="-0.56858">
        <ele>194.8</ele>
        <time>2014-04-01T14:30:02Z</time>
      </trkpt>
      <trkpt lat="48.74869" lon="-0.56905">
        <ele>194.2</ele>
        <time>2014-04-01T14:30:07Z</time>
      </trkpt>
      <trkpt lat="48.7484" lon="-0.57039">
        <ele>191.2</ele>
        <time>2014-04-01T14:30:20Z</time>
      </trkpt>
      <trkpt lat="48.74824" lon="-0.57089">
        <ele>188.8</ele>
        <time>2014-04-01T14:30:28Z</time>
      </trkpt>
      <trkpt lat="48.74817" lon="-0.57124">
        <ele>186.8</ele>
        <time>2014-04-01T14:30:36Z</time>
      </trkpt>
      <trkpt lat="48.74816" lon="-0.57129">
        <ele>186.6</ele>
        <time>2014-04-01T14:30:37Z</time>
      </trkpt>
      <trkpt lat="48.74813" lon="-0.57135">
        <ele>186.2</ele>
        <time>2014-04-01T14:30:38Z</time>
      </trkpt>
      <trkpt lat="48.74788" lon="-0.57192">
        <ele>185</ele>
        <time>2014-04-01T14:30:48Z</time>
      </trkpt>
      <trkpt lat="48.74785" lon="-0.57199">
        <ele>184.6</ele>
        <time>2014-04-01T14:30:56Z</time>
      </trkpt>
      <trkpt lat="48.74781" lon="-0.57202">
        <ele>191.6</ele>
        <time>2014-04-01T15:05:13Z</time>
      </trkpt>
      <trkpt lat="48.74783" lon="-0.57204">
        <ele>191.6</ele>
        <time>2014-04-01T15:05:15Z</time>
      </trkpt>
      <trkpt lat="48.74798" lon="-0.57209">
        <ele>192</ele>
        <time>2014-04-01T15:05:43Z</time>
      </trkpt>
      <trkpt lat="48.74764" lon="-0.57211">
        <ele>183.4</ele>
        <time>2014-04-01T15:21:06Z</time>
      </trkpt>
      <trkpt lat="48.74769" lon="-0.57204">
        <ele>183.4</ele>
        <time>2014-04-01T15:21:07Z</time>
      </trkpt>
      <trkpt lat="48.74772" lon="-0.57196">
        <ele>183.2</ele>
        <time>2014-04-01T15:21:36Z</time>
      </trkpt>
      <trkpt lat="48.74823" lon="-0.57187">
        <ele>184.6</ele>
        <time>2014-04-01T17:27:40Z</time>
      </trkpt>
      <trkpt lat="48.74783" lon="-0.57261">
        <ele>184.6</ele>
        <time>2014-04-01T17:28:44Z</time>
      </trkpt>
      <trkpt lat="48.74833" lon="-0.57196">
        <ele>184.6</ele>
        <time>2014-04-01T17:31:14Z</time>
      </trkpt>
      <trkpt lat="48.74778" lon="-0.57228">
        <ele>110.2</ele>
        <time>2014-04-02T07:20:45Z</time>
      </trkpt>
      <trkpt lat="48.74778" lon="-0.57228">
        <ele>110.2</ele>
        <time>2014-04-02T07:20:46Z</time>
      </trkpt>
      <trkpt lat="48.74782" lon="-0.57224">
        <ele>110.2</ele>
        <time>2014-04-02T07:21:15Z</time>
      </trkpt>
      <trkpt lat="48.74813" lon="-0.57204">
        <ele>110.2</ele>
        <time>2014-04-02T07:28:14Z</time>
      </trkpt>
      <trkpt lat="48.74767" lon="-0.57218">
        <ele>109.8</ele>
        <time>2014-04-02T07:29:07Z</time>
      </trkpt>
      <trkpt lat="48.74801" lon="-0.57232">
        <ele>109.8</ele>
        <time>2014-04-02T07:31:40Z</time>
      </trkpt>
      <trkpt lat="48.74826" lon="-0.57243">
        <ele>109.6</ele>
        <time>2014-04-02T07:32:23Z</time>
      </trkpt>
      <trkpt lat="48.748" lon="-0.5724">
        <ele>109.8</ele>
        <time>2014-04-02T07:37:04Z</time>
      </trkpt>
      <trkpt lat="48.74795" lon="-0.57242">
        <ele>109.8</ele>
        <time>2014-04-02T07:37:14Z</time>
      </trkpt>
      <trkpt lat="48.74777" lon="-0.57253">
        <ele>109.2</ele>
        <time>2014-04-02T07:38:30Z</time>
      </trkpt>
      <trkpt lat="48.7478" lon="-0.57239">
        <ele>109.2</ele>
        <time>2014-04-02T07:39:24Z</time>
      </trkpt>
      <trkpt lat="48.74788" lon="-0.57222">
        <ele>109</ele>
        <time>2014-04-02T07:40:24Z</time>
      </trkpt>
      <trkpt lat="48.74811" lon="-0.57176">
        <ele>108.4</ele>
        <time>2014-04-02T08:24:44Z</time>
      </trkpt>
      <trkpt lat="48.7481" lon="-0.57182">
        <ele>108.4</ele>
        <time>2014-04-02T08:24:45Z</time>
      </trkpt>
      <trkpt lat="48.7481" lon="-0.57185">
        <ele>108.2</ele>
        <time>2014-04-02T08:24:46Z</time>
      </trkpt>
      <trkpt lat="48.74809" lon="-0.57189">
        <ele>108.2</ele>
        <time>2014-04-02T08:24:47Z</time>
      </trkpt>
      <trkpt lat="48.74801" lon="-0.57211">
        <ele>108.4</ele>
        <time>2014-04-02T08:24:52Z</time>
      </trkpt>
      <trkpt lat="48.74793" lon="-0.57255">
        <ele>108.8</ele>
        <time>2014-04-02T08:33:27Z</time>
      </trkpt>
      <trkpt lat="48.74795" lon="-0.57255">
        <ele>108.8</ele>
        <time>2014-04-02T08:33:31Z</time>
      </trkpt>
      <trkpt lat="48.74792" lon="-0.57233">
        <ele>109</ele>
        <time>2014-04-02T08:33:49Z</time>
      </trkpt>
      <trkpt lat="48.74784" lon="-0.57256">
        <ele>108.2</ele>
        <time>2014-04-02T08:44:12Z</time>
      </trkpt>
      <trkpt lat="48.74812" lon="-0.57251">
        <ele>108.8</ele>
        <time>2014-04-02T08:49:37Z</time>
      </trkpt>
      <trkpt lat="48.74791" lon="-0.57292">
        <ele>109</ele>
        <time>2014-04-02T08:55:48Z</time>
      </trkpt>
      <trkpt lat="48.74791" lon="-0.57294">
        <ele>109</ele>
        <time>2014-04-02T08:55:49Z</time>
      </trkpt>
      <trkpt lat="48.74802" lon="-0.57364">
        <ele>108.8</ele>
        <time>2014-04-02T08:56:10Z</time>
      </trkpt>
      <trkpt lat="48.74802" lon="-0.574">
        <ele>108.8</ele>
        <time>2014-04-02T08:56:24Z</time>
      </trkpt>
      <trkpt lat="48.74801" lon="-0.57401">
        <ele>108.8</ele>
        <time>2014-04-02T08:56:32Z</time>
      </trkpt>
      <trkpt lat="48.74769" lon="-0.57157">
        <ele>108.4</ele>
        <time>2014-04-02T09:03:27Z</time>
      </trkpt>
      <trkpt lat="48.74761" lon="-0.57153">
        <ele>108.4</ele>
        <time>2014-04-02T09:04:34Z</time>
      </trkpt>
      <trkpt lat="48.7479" lon="-0.57207">
        <ele>109.2</ele>
        <time>2014-04-02T09:19:14Z</time>
      </trkpt>
      <trkpt lat="48.74832" lon="-0.5729">
        <ele>108.6</ele>
        <time>2014-04-02T09:20:25Z</time>
      </trkpt>
      <trkpt lat="48.74793" lon="-0.57279">
        <ele>108.6</ele>
        <time>2014-04-02T09:25:52Z</time>
      </trkpt>
      <trkpt lat="48.74849" lon="-0.57408">
        <ele>108.6</ele>
        <time>2014-04-02T09:26:02Z</time>
      </trkpt>
      <trkpt lat="48.74804" lon="-0.57299">
        <ele>108.4</ele>
        <time>2014-04-02T09:26:14Z</time>
      </trkpt>
      <trkpt lat="48.74799" lon="-0.57287">
        <ele>108.4</ele>
        <time>2014-04-02T09:26:15Z</time>
      </trkpt>
      <trkpt lat="48.74762" lon="-0.57138">
        <ele>108.8</ele>
        <time>2014-04-02T09:34:03Z</time>
      </trkpt>
      <trkpt lat="48.74759" lon="-0.57127">
        <ele>108.8</ele>
        <time>2014-04-02T09:34:04Z</time>
      </trkpt>
      <trkpt lat="48.74766" lon="-0.57145">
        <ele>108.8</ele>
        <time>2014-04-02T09:34:17Z</time>
      </trkpt>
      <trkpt lat="48.74767" lon="-0.57154">
        <ele>108.8</ele>
        <time>2014-04-02T09:34:19Z</time>
      </trkpt>
      <trkpt lat="48.74744" lon="-0.57158">
        <ele>108.6</ele>
        <time>2014-04-02T09:42:05Z</time>
      </trkpt>
      <trkpt lat="48.74748" lon="-0.57156">
        <ele>108.6</ele>
        <time>2014-04-02T09:42:22Z</time>
      </trkpt>
      <trkpt lat="48.7475" lon="-0.57145">
        <ele>108.6</ele>
        <time>2014-04-02T09:42:41Z</time>
      </trkpt>
      <trkpt lat="48.74757" lon="-0.57154">
        <ele>108.6</ele>
        <time>2014-04-02T09:42:44Z</time>
      </trkpt>
      <trkpt lat="48.74758" lon="-0.57155">
        <ele>108.6</ele>
        <time>2014-04-02T09:42:47Z</time>
      </trkpt>
      <trkpt lat="48.74766" lon="-0.57168">
        <ele>108.6</ele>
        <time>2014-04-02T09:43:22Z</time>
      </trkpt>
      <trkpt lat="48.74773" lon="-0.57178">
        <ele>108.8</ele>
        <time>2014-04-02T09:43:34Z</time>
      </trkpt>
      <trkpt lat="48.74839" lon="-0.57328">
        <ele>109</ele>
        <time>2014-04-02T09:48:25Z</time>
      </trkpt>
      <trkpt lat="48.74839" lon="-0.57328">
        <ele>109</ele>
        <time>2014-04-02T09:48:27Z</time>
      </trkpt>
      <trkpt lat="48.74819" lon="-0.57262">
        <ele>109</ele>
        <time>2014-04-02T09:48:39Z</time>
      </trkpt>
      <trkpt lat="48.74726" lon="-0.5709">
        <ele>110.8</ele>
        <time>2014-04-02T10:39:22Z</time>
      </trkpt>
      <trkpt lat="48.74724" lon="-0.57088">
        <ele>110.8</ele>
        <time>2014-04-02T10:39:23Z</time>
      </trkpt>
      <trkpt lat="48.74672" lon="-0.57032">
        <ele>111</ele>
        <time>2014-04-02T10:39:54Z</time>
      </trkpt>
      <trkpt lat="48.74672" lon="-0.57032">
        <ele>111</ele>
        <time>2014-04-02T10:39:55Z</time>
      </trkpt>
      <trkpt lat="48.74772" lon="-0.57172">
        <ele>110.6</ele>
        <time>2014-04-02T10:41:28Z</time>
      </trkpt>
      <trkpt lat="48.74822" lon="-0.57268">
        <ele>111</ele>
        <time>2014-04-02T10:41:55Z</time>
      </trkpt>
      <trkpt lat="48.74856" lon="-0.57344">
        <ele>111</ele>
        <time>2014-04-02T10:42:25Z</time>
      </trkpt>
      <trkpt lat="48.74903" lon="-0.57379">
        <ele>111.2</ele>
        <time>2014-04-02T10:42:46Z</time>
      </trkpt>
      <trkpt lat="48.74802" lon="-0.57276">
        <ele>112.2</ele>
        <time>2014-04-02T10:44:55Z</time>
      </trkpt>
      <trkpt lat="48.74796" lon="-0.57263">
        <ele>112.2</ele>
        <time>2014-04-02T10:44:58Z</time>
      </trkpt>
      <trkpt lat="48.74884" lon="-0.57232">
        <ele>111.4</ele>
        <time>2014-04-02T10:48:12Z</time>
      </trkpt>
      <trkpt lat="48.74881" lon="-0.57215">
        <ele>111.2</ele>
        <time>2014-04-02T10:48:22Z</time>
      </trkpt>
      <trkpt lat="48.74843" lon="-0.57155">
        <ele>111.6</ele>
        <time>2014-04-02T10:52:13Z</time>
      </trkpt>
      <trkpt lat="48.74814" lon="-0.572">
        <ele>111.8</ele>
        <time>2014-04-02T10:52:58Z</time>
      </trkpt>
      <trkpt lat="48.74824" lon="-0.5719">
        <ele>113.4</ele>
        <time>2014-04-02T11:00:04Z</time>
      </trkpt>
      <trkpt lat="48.74822" lon="-0.572">
        <ele>113.2</ele>
        <time>2014-04-02T11:00:16Z</time>
      </trkpt>
      <trkpt lat="48.74819" lon="-0.57217">
        <ele>113.2</ele>
        <time>2014-04-02T11:00:25Z</time>
      </trkpt>
      <trkpt lat="48.74797" lon="-0.57229">
        <ele>113.4</ele>
        <time>2014-04-02T11:05:14Z</time>
      </trkpt>
      <trkpt lat="48.74784" lon="-0.57235">
        <ele>113.8</ele>
        <time>2014-04-02T11:05:51Z</time>
      </trkpt>
      <trkpt lat="48.7478" lon="-0.5723">
        <ele>113.8</ele>
        <time>2014-04-02T11:05:57Z</time>
      </trkpt>
      <trkpt lat="48.74777" lon="-0.57225">
        <ele>114.2</ele>
        <time>2014-04-02T11:06:09Z</time>
      </trkpt>
      <trkpt lat="48.74804" lon="-0.57226">
        <ele>194.6</ele>
        <time>2014-04-02T12:11:07Z</time>
      </trkpt>
      <trkpt lat="48.74802" lon="-0.57222">
        <ele>194.6</ele>
        <time>2014-04-02T12:11:08Z</time>
      </trkpt>
      <trkpt lat="48.74803" lon="-0.57229">
        <ele>194.6</ele>
        <time>2014-04-02T12:11:38Z</time>
      </trkpt>
    </trkseg>
  </trk>
</gpx>